Provisional Data: Nanticoke Creek near Maine, NY


Please select a monitoring station.
Please select start date.
Please select start date.

Toggle Unit: C/F Toggle Unit: C/F
Sample Time Temperature (C) Temperature (F) Specific Conductivity (mS/cm) pH   Turbidity (NTU+) DO (mg/L)
3/7/2021 12:00:00 AM 0.53 32.954 0.176 7.1 6.39 13.62
3/7/2021 12:15:00 AM 0.5 32.9 0.176 7.1 6.32 13.64
3/7/2021 12:30:00 AM 0.47 32.846 0.176 7.1 5.63 13.64
3/7/2021 12:45:00 AM 0.44 32.792 0.176 7.1 5.71 13.65
3/7/2021 1:00:00 AM 0.41 32.738 0.175 7.11 5.75 13.66
3/7/2021 1:15:00 AM 0.39 32.702 0.175 7.11 5.75 13.67
3/7/2021 1:30:00 AM 0.36 32.648 0.175 7.1 6.18 13.68
3/7/2021 1:45:00 AM 0.34 32.612 0.176 7.1 5.96 13.68
3/7/2021 2:00:00 AM 0.31 32.558 0.176 7.1 5.45 13.69
3/7/2021 2:15:00 AM 0.29 32.522 0.176 7.1 6.21 13.71
3/7/2021 2:30:00 AM 0.26 32.468 0.176 7.1 5.87 13.71
3/7/2021 2:45:00 AM 0.24 32.432 0.176 7.1 5.75 13.71
3/7/2021 3:00:00 AM 0.2 32.36 0.176 7.1 5.5 13.73
3/7/2021 3:15:00 AM 0.16 32.288 0.176 7.1 6.05 13.74
3/7/2021 3:30:00 AM 0.13 32.234 0.176 7.1 5.49 13.75
3/7/2021 3:45:00 AM 0.1 32.18 0.176 7.09 6.11 13.76
3/7/2021 4:00:00 AM 0.08 32.144 0.177 7.1 5.16 13.77
3/7/2021 4:15:00 AM 0.07 32.126 0.177 7.08 5.77 13.77
3/7/2021 4:30:00 AM 0.05 32.09 0.177 7.1 5.7 13.78
3/7/2021 4:45:00 AM 0.04 32.072 0.177 7.09 5.93 13.78
3/7/2021 5:00:00 AM 0.02 32.036 0.178 7.09 5.96 13.78
3/7/2021 5:15:00 AM 0.01 32.018 0.178 7.08 6 13.79
3/7/2021 5:30:00 AM -0.01 31.982 0.179 7.09 6.07 13.79
3/7/2021 5:45:00 AM -0.03 31.946 0.18 7.09 6.67 13.8
3/7/2021 6:00:00 AM -0.04 31.928 0.18 7.1 7.1 13.79
3/7/2021 6:15:00 AM -0.07 31.874 0.181 7.09 5.5 13.8
3/7/2021 6:30:00 AM -0.08 31.856 0.182 7.1 5.31 13.81
3/7/2021 6:45:00 AM -0.08 31.856 0.182 7.12 5.24 13.82
3/7/2021 7:00:00 AM -0.07 31.874 0.183 7.15 4.74 13.84
3/7/2021 7:15:00 AM -0.07 31.874 0.184 7.18 4.84 13.86
3/7/2021 7:30:00 AM -0.07 31.874 0.184 7.19 5.1 13.89
3/7/2021 7:45:00 AM -0.06 31.892 0.185 7.19 4.91 13.93
3/7/2021 8:00:00 AM -0.06 31.892 0.185 7.2 4.81 13.96
3/7/2021 8:15:00 AM -0.05 31.91 0.185 7.2 4.73 14.01
3/7/2021 8:30:00 AM 0 32 0.185 7.13 6.04 14.06
3/7/2021 8:45:00 AM 0.03 32.054 0.185 7.12 6.22 14.08
3/7/2021 9:00:00 AM 0.07 32.126 0.186 7.13 5.85 14.1
3/7/2021 9:15:00 AM 0.1 32.18 0.185 7.14 5.47 14.13
3/7/2021 9:30:00 AM 0.13 32.234 0.186 7.14 5.36 14.15
3/7/2021 9:45:00 AM 0.17 32.306 0.185 7.14 5.88 14.17
3/7/2021 10:00:00 AM 0.29 32.522 0.185 7.15 5.26 14.18
3/7/2021 10:15:00 AM 0.38 32.684 0.185 7.16 5.28 14.21
3/7/2021 10:30:00 AM 0.49 32.882 0.185 7.17 5.19 14.23
3/7/2021 10:45:00 AM 0.59 33.062 0.184 7.18 5.64 14.25
3/7/2021 11:00:00 AM 0.69 33.242 0.184 7.18 5.41 14.27
3/7/2021 11:15:00 AM 0.79 33.422 0.183 7.18 5.32 14.29
3/7/2021 11:30:00 AM 0.89 33.602 0.182 7.19 5.54 14.31
3/7/2021 11:45:00 AM 1 33.8 0.182 7.2 5.48 14.32
3/7/2021 12:00:00 PM 1.14 34.052 0.18 7.22 5.57 14.33
3/7/2021 12:15:00 PM 1.26 34.268 0.18 7.21 5.4 14.32
3/7/2021 12:30:00 PM 1.37 34.466 0.179 7.21 5.61 14.32
3/7/2021 12:45:00 PM 1.5 34.7 0.179 7.22 5.63 14.3
3/7/2021 1:00:00 PM 1.58 34.844 0.179 7.22 5.97 14.3
3/7/2021 1:15:00 PM 1.66 34.988 0.179 7.23 6.34 14.29
3/7/2021 1:30:00 PM 1.72 35.096 0.179 7.24 6.73 14.29
3/7/2021 1:45:00 PM 1.81 35.258 0.178 7.23 5.83 14.27
3/7/2021 2:00:00 PM 1.94 35.492 0.178 7.25 6.28 14.26
3/7/2021 2:15:00 PM 2.03 35.654 0.177 7.25 6.16 14.24
3/7/2021 2:30:00 PM 2.14 35.852 0.176 7.26 6.73 14.2
3/7/2021 2:45:00 PM 2.24 36.032 0.176 7.26 6.86 14.17
3/7/2021 3:00:00 PM 2.34 36.212 0.175 7.27 6.61 14.13
3/7/2021 3:15:00 PM 2.43 36.374 0.174 7.27 6.28 14.07
3/7/2021 3:30:00 PM 2.52 36.536 0.174 7.27 6.68 14.04
3/7/2021 3:45:00 PM 2.59 36.662 0.174 7.28 6.68 13.99
3/7/2021 4:00:00 PM 2.64 36.752 0.173 7.28 6.67 13.94
3/7/2021 4:15:00 PM 2.66 36.788 0.173 7.27 6.94 13.91
3/7/2021 4:30:00 PM 2.66 36.788 0.173 7.28 6.31 13.86
3/7/2021 4:45:00 PM 2.64 36.752 0.173 7.26 6.08 13.82
3/7/2021 5:00:00 PM 2.6 36.68 0.173 7.27 6.08 13.79
3/7/2021 5:15:00 PM 2.55 36.59 0.173 7.26 5.72 13.75
3/7/2021 5:30:00 PM 2.5 36.5 0.173 7.26 6.48 13.72
3/7/2021 5:45:00 PM 2.44 36.392 0.174 7.25 6.46 13.67
3/7/2021 6:00:00 PM 2.37 36.266 0.174 7.24 6.15 13.63
3/7/2021 6:15:00 PM 2.3 36.14 0.175 7.24 6.5 13.59
3/7/2021 6:30:00 PM 2.23 36.014 0.176 7.23 6.04 13.55
3/7/2021 6:45:00 PM 2.16 35.888 0.176 7.21 6.17 13.52
3/7/2021 7:00:00 PM 2.1 35.78 0.176 7.21 6.8 13.49
3/7/2021 7:15:00 PM 2.02 35.636 0.177 7.2 7.45 13.48
3/7/2021 7:30:00 PM 1.94 35.492 0.177 7.19 8.74 13.46
3/7/2021 7:45:00 PM 1.86 35.348 0.177 7.19 9.07 13.45
3/7/2021 8:00:00 PM 1.77 35.186 0.177 7.18 9.98 13.45
3/7/2021 8:15:00 PM 1.67 35.006 0.177 7.17 10.21 13.45
3/7/2021 8:30:00 PM 1.58 34.844 0.177 7.16 7.64 13.44
3/7/2021 8:45:00 PM 1.48 34.664 0.178 7.16 7.09 13.45
3/7/2021 9:00:00 PM 1.39 34.502 0.178 7.15 7.93 13.46
3/7/2021 9:15:00 PM 1.29 34.322 0.177 7.15 7.63 13.48
3/7/2021 9:30:00 PM 1.19 34.142 0.177 7.14 7.63 13.5
3/7/2021 9:45:00 PM 1.1 33.98 0.177 7.14 9.36 13.52
3/7/2021 10:00:00 PM 1 33.8 0.177 7.13 9.27 13.54
3/7/2021 10:15:00 PM 0.92 33.656 0.178 7.13 9.63 13.55
3/7/2021 10:30:00 PM 0.82 33.476 0.178 7.13 9.48 13.57
3/7/2021 10:45:00 PM 0.72 33.296 0.178 7.12 8.22 13.59
3/7/2021 11:00:00 PM 0.62 33.116 0.177 7.12 8.92 13.61
3/7/2021 11:15:00 PM 0.53 32.954 0.177 7.12 9.3 13.64
3/7/2021 11:30:00 PM 0.43 32.774 0.177 7.12 9.15 13.66
3/7/2021 11:45:00 PM 0.34 32.612 0.177 7.11 9.73 13.7
3/8/2021 12:00:00 AM 0.26 32.468 0.177 7.11 9.59 13.73
3/8/2021 12:15:00 AM 0.19 32.342 0.177 7.11 9.95 13.75
3/8/2021 12:30:00 AM 0.1 32.18 0.177 7.09 7.45 13.77
3/8/2021 12:45:00 AM 0.03 32.054 0.177 7.11 9.66 13.78
3/8/2021 1:00:00 AM -0.04 31.928 0.177 7.1 10.36 13.81
3/8/2021 1:15:00 AM -0.08 31.856 0.178 7.08 7.48 13.82
3/8/2021 1:30:00 AM -0.11 31.802 0.178 7.13 5.45 13.84
3/8/2021 1:45:00 AM -0.1 31.82 0.179 7.17 5.02 13.85
3/8/2021 2:00:00 AM -0.09 31.838 0.18 7.18 5.12 13.85
3/8/2021 2:15:00 AM -0.08 31.856 0.181 7.2 5.43 13.86
3/8/2021 2:30:00 AM -0.08 31.856 0.182 7.2 5.5 13.85
3/8/2021 2:45:00 AM -0.08 31.856 0.183 7.2 4.87 13.85
3/8/2021 3:00:00 AM -0.08 31.856 0.184 7.2 4.81 13.84
3/8/2021 3:15:00 AM -0.08 31.856 0.184 7.19 4.97 13.85
3/8/2021 3:30:00 AM -0.07 31.874 0.185 7.17 4.81 13.84
3/8/2021 3:45:00 AM -0.07 31.874 0.186 7.18 4.96 13.82
3/8/2021 4:00:00 AM -0.07 31.874 0.187 7.17 4.33 13.77
3/8/2021 4:15:00 AM -0.07 31.874 0.189 7.16 4.26 13.69
3/8/2021 4:30:00 AM -0.07 31.874 0.189 7.15 4.5 13.71
3/8/2021 4:45:00 AM -0.07 31.874 0.19 7.15 4.53 13.71
3/8/2021 5:00:00 AM -0.06 31.892 0.191 7.16 5.22 13.76
3/8/2021 5:15:00 AM -0.06 31.892 0.191 7.16 4.73 13.75
3/8/2021 5:30:00 AM -0.07 31.874 0.191 7.17 5.38 13.76
3/8/2021 5:45:00 AM -0.07 31.874 0.193 7.16 5.29 13.75
3/8/2021 6:00:00 AM -0.07 31.874 0.193 7.14 5.1 13.74
3/8/2021 6:15:00 AM -0.07 31.874 0.195 7.16 4.59 13.73
3/8/2021 6:30:00 AM -0.06 31.892 0.196 7.16 4.5 13.7
3/8/2021 6:45:00 AM -0.06 31.892 0.197 7.15 4.44 13.69
3/8/2021 7:00:00 AM -0.06 31.892 0.199 7.15 4.61 13.68
3/8/2021 7:15:00 AM -0.06 31.892 0.199 7.15 4.7 13.69
3/8/2021 7:30:00 AM -0.06 31.892 0.2 7.15 4.71 13.74
3/8/2021 7:45:00 AM -0.06 31.892 0.2 7.16 4.93 13.8
3/8/2021 8:00:00 AM -0.06 31.892 0.201 7.17 4.77 13.85
3/8/2021 8:15:00 AM -0.06 31.892 0.2 7.18 4.06 13.86
3/8/2021 8:30:00 AM -0.06 31.892 0.202 7.18 4.49 13.86
3/8/2021 8:45:00 AM -0.05 31.91 0.202 7.18 4.31 13.95
3/8/2021 9:00:00 AM -0.03 31.946 0.204 7.17 4.67 13.97
3/8/2021 9:15:00 AM 0 32 0.202 7.17 4.72 14
3/8/2021 9:30:00 AM 0.1 32.18 0.2 7.17 5.22 14.05
3/8/2021 9:45:00 AM 0.18 32.324 0.201 7.17 5.18 14.09
3/8/2021 10:00:00 AM 0.23 32.414 0.196 7.19 5.18 14.15
3/8/2021 10:15:00 AM 0.27 32.486 0.195 7.19 5.53 14.17
3/8/2021 10:30:00 AM 0.29 32.522 0.194 7.13 5.56 14.18
3/8/2021 10:45:00 AM 0.29 32.522 0.193 7.12 6.15 14.19
3/8/2021 11:00:00 AM 0.3 32.54 0.193 7.12 5.5 14.19
3/8/2021 11:15:00 AM 0.42 32.756 0.193 7.17 5.65 14.22
3/8/2021 11:30:00 AM 0.53 32.954 0.193 7.18 5.43 14.26
3/8/2021 11:45:00 AM 0.61 33.098 0.193 7.2 6.17 14.28
3/8/2021 12:00:00 PM 0.71 33.278 0.193 7.2 6.59 14.33
3/8/2021 12:15:00 PM 0.79 33.422 0.191 7.19 6.14 14.35
3/8/2021 12:30:00 PM 0.88 33.584 0.19 7.22 6.05 14.38
3/8/2021 12:45:00 PM 0.98 33.764 0.188 7.22 6.41 14.39
3/8/2021 1:00:00 PM 1.1 33.98 0.186 7.22 6.72 14.38
3/8/2021 1:15:00 PM 1.16 34.088 0.185 7.23 7.13 14.38
3/8/2021 1:30:00 PM 1.17 34.106 0.184 7.23 6.56 14.37
3/8/2021 1:45:00 PM 1.15 34.07 0.183 7.23 6.43 14.37
3/8/2021 2:00:00 PM 1.13 34.034 0.182 7.23 7.15 14.36
3/8/2021 2:15:00 PM 1.13 34.034 0.18 7.23 7.52 14.35
3/8/2021 2:30:00 PM 1.15 34.07 0.179 7.24 7.32 14.34
3/8/2021 2:45:00 PM 1.17 34.106 0.178 7.24 7.36 14.33
3/8/2021 3:00:00 PM 1.17 34.106 0.177 7.25 7.98 14.32
3/8/2021 3:15:00 PM 1.17 34.106 0.175 7.22 7.28 14.3
3/8/2021 3:30:00 PM 1.21 34.178 0.174 7.25 8.18 14.28
3/8/2021 3:45:00 PM 1.29 34.322 0.174 7.26 7.85 14.27
3/8/2021 4:00:00 PM 1.35 34.43 0.174 7.27 8.13 14.23
3/8/2021 4:15:00 PM 1.42 34.556 0.174 7.27 8.07 14.2
3/8/2021 4:30:00 PM 1.46 34.628 0.174 7.28 7.86 14.18
3/8/2021 4:45:00 PM 1.5 34.7 0.174 7.28 8.35 14.15
3/8/2021 5:00:00 PM 1.53 34.754 0.174 7.28 8.42 14.12
3/8/2021 5:15:00 PM 1.56 34.808 0.174 7.28 7.45 14.09
3/8/2021 5:30:00 PM 1.56 34.808 0.174 7.28 7 14.06
3/8/2021 5:45:00 PM 1.56 34.808 0.174 7.28 8.36 14.01
3/8/2021 6:00:00 PM 1.55 34.79 0.175 7.27 10.37 13.97
3/8/2021 6:15:00 PM 1.53 34.754 0.175 7.26 9.9 13.92
3/8/2021 6:30:00 PM 1.51 34.718 0.176 7.24 9.05 13.87
3/8/2021 6:45:00 PM 1.48 34.664 0.177 7.24 7.8 13.83
3/8/2021 7:00:00 PM 1.46 34.628 0.177 7.24 7.31 13.8
3/8/2021 7:15:00 PM 1.42 34.556 0.177 7.23 6.89 13.77
3/8/2021 7:30:00 PM 1.4 34.52 0.178 7.22 7.37 13.75
3/8/2021 7:45:00 PM 1.36 34.448 0.178 7.22 9.27 13.73
3/8/2021 8:00:00 PM 1.33 34.394 0.178 7.21 9.06 13.71
3/8/2021 8:15:00 PM 1.31 34.358 0.178 7.2 6.46 13.7
3/8/2021 8:30:00 PM 1.28 34.304 0.178 7.2 9.03 13.67
3/8/2021 8:45:00 PM 1.26 34.268 0.178 7.19 16.8 13.66
3/8/2021 9:00:00 PM 1.23 34.214 0.179 7.19 9.03 13.65
3/8/2021 9:15:00 PM 1.21 34.178 0.179 7.18 9.59 13.64
3/8/2021 9:30:00 PM 1.18 34.124 0.179 7.18 8.71 13.62
3/8/2021 9:45:00 PM 1.16 34.088 0.179 7.17 9.86 13.62
3/8/2021 10:00:00 PM 1.14 34.052 0.179 7.17 9.15 13.61
3/8/2021 10:15:00 PM 1.13 34.034 0.179 7.17 7.99 13.6
3/8/2021 10:30:00 PM 1.11 33.998 0.179 7.16 8.28 13.59
3/8/2021 10:45:00 PM 1.1 33.98 0.179 7.16 8.28 13.58
3/8/2021 11:00:00 PM 1.09 33.962 0.179 7.16 7.74 13.58
3/8/2021 11:15:00 PM 1.08 33.944 0.179 7.13 8.32 13.57
3/8/2021 11:30:00 PM 1.07 33.926 0.179 7.15 8.91 13.56
3/8/2021 11:45:00 PM 1.06 33.908 0.179 7.15 7.19 13.57
3/9/2021 12:00:00 AM 1.06 33.908 0.179 7.14 7.78 13.55
3/9/2021 12:15:00 AM 1.05 33.89 0.179 7.13 7.33 13.55
3/9/2021 12:30:00 AM 1.04 33.872 0.179 7.14 8.14 13.54
3/9/2021 12:45:00 AM 1.02 33.836 0.179 7.14 8.65 13.54
3/9/2021 1:00:00 AM 0.99 33.782 0.179 7.13 6.87 13.54
3/9/2021 1:15:00 AM 0.96 33.728 0.179 7.13 8.09 13.54
3/9/2021 1:30:00 AM 0.94 33.692 0.179 7.13 7.97 13.55
3/9/2021 1:45:00 AM 0.91 33.638 0.178 7.13 8.05 13.55
3/9/2021 2:00:00 AM 0.89 33.602 0.179 7.12 8.61 13.55
3/9/2021 2:15:00 AM 0.86 33.548 0.178 7.12 8.21 13.56
3/9/2021 2:30:00 AM 0.83 33.494 0.178 7.11 8.3 13.56
3/9/2021 2:45:00 AM 0.81 33.458 0.178 7.12 8.95 13.56
3/9/2021 3:00:00 AM 0.78 33.404 0.178 7.11 9.71 13.57
3/9/2021 3:15:00 AM 0.77 33.386 0.178 7.11 12.17 13.57
3/9/2021 3:30:00 AM 0.77 33.386 0.178 7.11 10.03 13.57
3/9/2021 3:45:00 AM 0.76 33.368 0.178 7.12 12.19 13.57
3/9/2021 4:00:00 AM 0.75 33.35 0.177 7.11 11.47 13.58
3/9/2021 4:15:00 AM 0.74 33.332 0.178 7.12 12.13 13.58
3/9/2021 4:30:00 AM 0.71 33.278 0.178 7.11 10.09 13.58
3/9/2021 4:45:00 AM 0.68 33.224 0.177 7.11 12.62 13.59
3/9/2021 5:00:00 AM 0.65 33.17 0.178 7.11 13.95 13.6
3/9/2021 5:15:00 AM 0.62 33.116 0.177 7.11 13.24 13.6
3/9/2021 5:30:00 AM 0.59 33.062 0.177 7.1 13.55 13.61
3/9/2021 5:45:00 AM 0.55 32.99 0.178 7.11 11.26 13.62
3/9/2021 6:00:00 AM 0.52 32.936 0.178 7.11 11.63 13.62
3/9/2021 6:15:00 AM 0.49 32.882 0.178 7.11 12.11 13.64
3/9/2021 6:30:00 AM 0.46 32.828 0.178 7.1 11.46 13.64
3/9/2021 6:45:00 AM 0.43 32.774 0.178 7.1 11.02 13.66
3/9/2021 7:00:00 AM 0.41 32.738 0.178 7.11 11.4 13.69
3/9/2021 7:15:00 AM 0.39 32.702 0.179 7.11 10.05 13.73
3/9/2021 7:30:00 AM 0.39 32.702 0.179 7.12 10.65 13.78
3/9/2021 7:45:00 AM 0.4 32.72 0.179 7.11 10.14 13.83
3/9/2021 8:00:00 AM 0.42 32.756 0.179 7.13 10.11 13.89
3/9/2021 8:15:00 AM 0.45 32.81 0.179 7.14 11.13 13.93
3/9/2021 8:30:00 AM 0.49 32.882 0.179 7.14 10.43 13.99
3/9/2021 8:45:00 AM 0.55 32.99 0.179 7.16 11.13 14.03
3/9/2021 9:00:00 AM 0.62 33.116 0.179 7.17 10.77 14.06
3/9/2021 9:15:00 AM 0.71 33.278 0.179 7.18 8.38 14.09
3/9/2021 9:30:00 AM 0.82 33.476 0.179 7.19 8.41 14.12
3/9/2021 9:45:00 AM 0.95 33.71 0.179 7.19 8.51 14.14
3/9/2021 10:00:00 AM 1.08 33.944 0.179 7.2 8.28 14.15
3/9/2021 10:15:00 AM 1.22 34.196 0.179 7.19 7.75 14.16
3/9/2021 10:30:00 AM 1.37 34.466 0.179 7.22 7.22 14.18
3/9/2021 10:45:00 AM 1.53 34.754 0.178 7.23 8.04 14.2
3/9/2021 11:00:00 AM 1.66 34.988 0.178 7.23 7.07 14.21
3/9/2021 11:15:00 AM 1.85 35.33 0.178 7.24 7.56 14.22
3/9/2021 11:30:00 AM 2 35.6 0.178 7.25 6.99 14.22
3/9/2021 11:45:00 AM 2.15 35.87 0.177 7.26 6.9 14.21
3/9/2021 12:00:00 PM 2.3 36.14 0.177 7.25 6.88 14.2
3/9/2021 12:15:00 PM 2.46 36.428 0.177 7.27 7.24 14.19
3/9/2021 12:30:00 PM 2.7 36.86 0.177 7.28 7.57 14.18
3/9/2021 12:45:00 PM 2.91 37.238 0.177 7.28 7.24 14.15
3/9/2021 1:00:00 PM 3.12 37.616 0.177 7.29 6.55 14.11
3/9/2021 1:15:00 PM 3.34 38.012 0.176 7.27 7.35 14.07
3/9/2021 1:30:00 PM 3.55 38.39 0.176 7.3 6.96 14.03
3/9/2021 1:45:00 PM 3.74 38.732 0.176 7.31 7.65 13.98
3/9/2021 2:00:00 PM 3.92 39.056 0.176 7.31 6.32 13.93
3/9/2021 2:15:00 PM 4.13 39.434 0.176 7.32 7.36 13.87
3/9/2021 2:30:00 PM 4.34 39.812 0.176 7.32 7.42 13.81
3/9/2021 2:45:00 PM 4.52 40.136 0.176 7.3 6.96 13.74
3/9/2021 3:00:00 PM 4.7 40.46 0.176 7.33 8.14 13.68
3/9/2021 3:15:00 PM 4.83 40.694 0.176 7.33 7.8 13.63
3/9/2021 3:30:00 PM 4.94 40.892 0.176 7.32 7.34 13.58
3/9/2021 3:45:00 PM 5.03 41.054 0.176 7.33 7.67 13.52
3/9/2021 4:00:00 PM 5.09 41.162 0.176 7.31 7.57 13.47
3/9/2021 4:15:00 PM 5.12 41.216 0.176 7.33 7.43 13.41
3/9/2021 4:30:00 PM 5.14 41.252 0.176 7.32 7.84 13.35
3/9/2021 4:45:00 PM 5.14 41.252 0.176 7.32 7.35 13.28
3/9/2021 5:00:00 PM 5.14 41.252 0.176 7.31 8.34 13.21
3/9/2021 5:15:00 PM 5.12 41.216 0.177 7.3 7.99 13.15
3/9/2021 5:30:00 PM 5.1 41.18 0.177 7.29 8.28 13.09
3/9/2021 5:45:00 PM 5.05 41.09 0.178 7.28 8.55 13.01
3/9/2021 6:00:00 PM 4.98 40.964 0.179 7.27 8.19 12.95
3/9/2021 6:15:00 PM 4.9 40.82 0.18 7.26 10.17 12.88
3/9/2021 6:30:00 PM 4.81 40.658 0.18 7.25 11.07 12.82
3/9/2021 6:45:00 PM 4.71 40.478 0.181 7.24 10.87 12.79
3/9/2021 7:00:00 PM 4.61 40.298 0.181 7.23 12.5 12.76
3/9/2021 7:15:00 PM 4.52 40.136 0.181 7.21 12.8 12.74
3/9/2021 7:30:00 PM 4.42 39.956 0.181 7.2 11.93 12.73
3/9/2021 7:45:00 PM 4.31 39.758 0.181 7.19 12.7 12.72
3/9/2021 8:00:00 PM 4.21 39.578 0.181 7.19 12.99 12.72
3/9/2021 8:15:00 PM 4.09 39.362 0.182 7.18 13.11 12.72
3/9/2021 8:30:00 PM 3.97 39.146 0.182 7.17 13.43 12.74
3/9/2021 8:45:00 PM 3.84 38.912 0.183 7.17 12.61 12.76
3/9/2021 9:00:00 PM 3.71 38.678 0.183 7.17 14.13 12.78
3/9/2021 9:15:00 PM 3.58 38.444 0.184 7.16 13.75 12.8
3/9/2021 9:30:00 PM 3.46 38.228 0.184 7.16 14.39 12.82
3/9/2021 9:45:00 PM 3.32 37.976 0.184 7.16 16.03 12.85
3/9/2021 10:00:00 PM 3.22 37.796 0.184 7.15 17.3 12.88
3/9/2021 10:15:00 PM 3.11 37.598 0.184 7.15 18.23 12.91
3/9/2021 10:30:00 PM 3.02 37.436 0.184 7.15 19.25 12.92
3/9/2021 10:45:00 PM 2.93 37.274 0.183 7.15 21.79 12.94
3/9/2021 11:00:00 PM 2.84 37.112 0.183 7.14 23.95 12.96
3/9/2021 11:15:00 PM 2.76 36.968 0.183 7.14 31.21 12.97
3/9/2021 11:30:00 PM 2.67 36.806 0.182 7.14 42.85 12.99
3/9/2021 11:45:00 PM 2.59 36.662 0.181 7.13 37.1 13.02
3/10/2021 12:00:00 AM 2.51 36.518 0.181 7.13 55.42 13.05
3/10/2021 12:15:00 AM 2.42 36.356 0.18 7.12 46.22 13.08
3/10/2021 12:30:00 AM 2.34 36.212 0.179 7.12 45.73 13.11
3/10/2021 12:45:00 AM 2.25 36.05 0.178 7.12 44.49 13.13
3/10/2021 1:00:00 AM 2.16 35.888 0.178 7.11 36.28 13.16
3/10/2021 1:15:00 AM 2.07 35.726 0.177 7.11 39.16 13.18
3/10/2021 1:30:00 AM 1.97 35.546 0.177 7.11 35.4 13.22
3/10/2021 1:45:00 AM 1.88 35.384 0.176 7.1 30.93 13.25
3/10/2021 2:00:00 AM 1.79 35.222 0.176 7.09 32.14 13.29
3/10/2021 2:15:00 AM 1.7 35.06 0.176 7.1 27.98 13.32
3/10/2021 2:30:00 AM 1.6 34.88 0.175 7.09 24.9 13.37
3/10/2021 2:45:00 AM 1.51 34.718 0.175 7.09 36.11 13.4
3/10/2021 3:00:00 AM 1.42 34.556 0.176 7.09 20.81 13.43
3/10/2021 3:15:00 AM 1.32 34.376 0.176 7.09 21.76 13.46
3/10/2021 3:30:00 AM 1.23 34.214 0.176 7.09 20.29 13.49
3/10/2021 3:45:00 AM 1.14 34.052 0.177 7.09 22.14 13.53
3/10/2021 4:00:00 AM 1.05 33.89 0.178 7.06 20.09 13.57
3/10/2021 4:15:00 AM 0.97 33.746 0.178 7.09 19.05 13.6
3/10/2021 4:30:00 AM 0.89 33.602 0.179 7.09 18.85 13.63
3/10/2021 4:45:00 AM 0.82 33.476 0.18 7.08 17.22 13.66
3/10/2021 5:00:00 AM 0.75 33.35 0.18 7.09 18.62 13.69
3/10/2021 5:15:00 AM 0.67 33.206 0.181 7.09 18.21 13.71
3/10/2021 5:30:00 AM 0.6 33.08 0.182 7.1 19.14 13.74
3/10/2021 5:45:00 AM 0.54 32.972 0.182 7.09 17.3 13.76
3/10/2021 6:00:00 AM 0.48 32.864 0.182 7.1 17.82 13.79
3/10/2021 6:15:00 AM 0.43 32.774 0.183 7.1 17.9 13.8
3/10/2021 6:30:00 AM 0.38 32.684 0.183 7.1 16.31 13.82
3/10/2021 6:45:00 AM 0.32 32.576 0.183 7.1 14.58 13.86
3/10/2021 7:00:00 AM 0.29 32.522 0.183 7.1 15.04 13.88
3/10/2021 7:15:00 AM 0.26 32.468 0.183 7.11 14.2 13.93
3/10/2021 7:30:00 AM 0.24 32.432 0.183 7.12 14.34 13.97
3/10/2021 7:45:00 AM 0.23 32.414 0.182 7.12 13.86 14.01
3/10/2021 8:00:00 AM 0.22 32.396 0.182 7.13 13.54 14.05
3/10/2021 8:15:00 AM 0.23 32.414 0.182 7.14 13.76 14.09
3/10/2021 8:30:00 AM 0.25 32.45 0.182 7.14 12.14 14.13
3/10/2021 8:45:00 AM 0.29 32.522 0.181 7.15 11.87 14.17
3/10/2021 9:00:00 AM 0.34 32.612 0.18 7.15 12.74 14.21
3/10/2021 9:15:00 AM 0.42 32.756 0.18 7.16 11.56 14.24
3/10/2021 9:30:00 AM 0.5 32.9 0.18 7.17 12.68 14.27
3/10/2021 9:45:00 AM 0.6 33.08 0.18 7.19 11.65 14.29
3/10/2021 10:00:00 AM 0.71 33.278 0.18 7.19 11.09 14.31
3/10/2021 10:15:00 AM 0.83 33.494 0.18 7.2 9.86 14.34
3/10/2021 10:30:00 AM 0.96 33.728 0.18 7.21 9.76 14.36
3/10/2021 10:45:00 AM 1.1 33.98 0.179 7.22 10.35 14.37
3/10/2021 11:00:00 AM 1.26 34.268 0.178 7.23 11 14.37
3/10/2021 11:15:00 AM 1.43 34.574 0.178 7.23 9.7 14.37
3/10/2021 11:30:00 AM 1.62 34.916 0.177 7.24 9.03 14.36
3/10/2021 11:45:00 AM 1.82 35.276 0.176 7.25 9.32 14.35
3/10/2021 12:00:00 PM 2.04 35.672 0.175 7.25 8.93 14.33
3/10/2021 12:15:00 PM 2.27 36.086 0.175 7.27 8.7 14.31
3/10/2021 12:30:00 PM 2.51 36.518 0.174 7.27 10.32 14.26
3/10/2021 12:45:00 PM 2.76 36.968 0.174 7.26 9.91 14.22
3/10/2021 1:00:00 PM 3.01 37.418 0.173 7.29 8.23 14.17
3/10/2021 1:15:00 PM 3.27 37.886 0.173 7.29 8.43 14.1
3/10/2021 1:30:00 PM 3.51 38.318 0.172 7.29 7.95 14.03
3/10/2021 1:45:00 PM 3.75 38.75 0.172 7.3 9.58 13.98
3/10/2021 2:00:00 PM 3.99 39.182 0.172 7.31 8.61 13.92
3/10/2021 2:15:00 PM 4.2 39.56 0.172 7.29 7.53 13.84
3/10/2021 2:30:00 PM 4.41 39.938 0.172 7.31 7.94 13.78
3/10/2021 2:45:00 PM 4.61 40.298 0.172 7.31 7.33 13.71
3/10/2021 3:00:00 PM 4.8 40.64 0.172 7.31 7.68 13.63
3/10/2021 3:15:00 PM 4.97 40.946 0.173 7.32 7.63 13.57
3/10/2021 3:30:00 PM 5.11 41.198 0.173 7.32 7.53 13.52
3/10/2021 3:45:00 PM 5.22 41.396 0.173 7.32 8.79 13.45
3/10/2021 4:00:00 PM 5.3 41.54 0.173 7.3 8.99 13.37
3/10/2021 4:15:00 PM 5.36 41.648 0.173 7.31 8.87 13.29
3/10/2021 4:30:00 PM 5.38 41.684 0.174 7.3 10.91 13.22
3/10/2021 4:45:00 PM 5.39 41.702 0.174 7.27 13.49 13.14
3/10/2021 5:00:00 PM 5.36 41.648 0.174 7.28 16.42 13.06
3/10/2021 5:15:00 PM 5.31 41.558 0.174 7.26 19.38 12.99
3/10/2021 5:30:00 PM 5.23 41.414 0.173 7.26 24.65 12.91
3/10/2021 5:45:00 PM 5.12 41.216 0.173 7.22 29.18 12.86
3/10/2021 6:00:00 PM 4.99 40.982 0.174 7.23 41.96 12.82
3/10/2021 6:15:00 PM 4.8 40.64 0.174 7.21 49.13 12.79
3/10/2021 6:30:00 PM 4.6 40.28 0.173 7.17 1117.95 12.78
3/10/2021 6:45:00 PM 4.38 39.884 0.172 7.15 95.87 12.79
3/10/2021 7:00:00 PM 4.18 39.524 0.168 7.13 98.04 12.79
3/10/2021 7:15:00 PM 3.99 39.182 0.164 7.11 108.83 12.82
3/10/2021 7:30:00 PM 3.77 38.786 0.16 7.09 180.71 12.85
3/10/2021 7:45:00 PM 3.56 38.408 0.156 7.09 143.94 12.91
3/10/2021 8:00:00 PM 3.33 37.994 0.153 7.07 145.58 12.98
3/10/2021 8:15:00 PM 3.12 37.616 0.151 7.04 171.88 13.03
3/10/2021 8:30:00 PM 2.92 37.256 0.15 7.05 155.52 13.1
3/10/2021 8:45:00 PM 2.7 36.86 0.15 7.02 155.18 13.16
3/10/2021 9:00:00 PM 2.51 36.518 0.149 7.02 149.26 13.21
3/10/2021 9:15:00 PM 2.34 36.212 0.148 7.02 190.01 13.29
3/10/2021 9:30:00 PM 2.17 35.906 0.147 7.01 142.24 13.34
3/10/2021 9:45:00 PM 2.02 35.636 0.145 7.01 134.38 13.39
3/10/2021 10:00:00 PM 1.9 35.42 0.144 6.99 125.09 13.43
3/10/2021 10:15:00 PM 1.78 35.204 0.143 7 119.83 13.47
3/10/2021 10:30:00 PM 1.68 35.024 0.142 7.02 136.5 13.51
3/10/2021 10:45:00 PM 1.59 34.862 0.14 7.02 132.47 13.55
3/10/2021 11:00:00 PM 1.52 34.736 0.139 7.02 122.01 13.57
3/10/2021 11:15:00 PM 1.45 34.61 0.139 7.02 98.57 13.59
3/10/2021 11:30:00 PM 1.4 34.52 0.138 7.03 111.92 13.61
3/10/2021 11:45:00 PM 1.36 34.448 0.137 7.03 105.19 13.63
3/11/2021 12:00:00 AM 1.33 34.394 0.137 7.03 85.55 13.64
3/11/2021 12:15:00 AM 1.3 34.34 0.137 7.03 88.52 13.64
3/11/2021 12:30:00 AM 1.27 34.286 0.136 7.03 76.44 13.66
3/11/2021 12:45:00 AM 1.25 34.25 0.136 7.03 74.03 13.66
3/11/2021 1:00:00 AM 1.22 34.196 0.136 7.03 65.86 13.66
3/11/2021 1:15:00 AM 1.2 34.16 0.136 7.04 67.41 13.66
3/11/2021 1:30:00 AM 1.18 34.124 0.136 7.08 66.53 13.67
3/11/2021 1:45:00 AM 1.16 34.088 0.136 7.08 65 13.67
3/11/2021 2:00:00 AM 1.15 34.07 0.136 7.09 45.76 13.68
3/11/2021 2:15:00 AM 1.13 34.034 0.136 7.07 47.95 13.68
3/11/2021 2:30:00 AM 1.12 34.016 0.136 7.06 47.87 13.69
3/11/2021 2:45:00 AM 1.11 33.998 0.136 7.06 51.91 13.68
3/11/2021 3:00:00 AM 1.09 33.962 0.136 7.07 42.41 13.69
3/11/2021 3:15:00 AM 1.08 33.944 0.136 7.04 45.82 13.69
3/11/2021 3:30:00 AM 1.07 33.926 0.136 7.06 39.26 13.69
3/11/2021 3:45:00 AM 1.06 33.908 0.136 7.05 40.78 13.69
3/11/2021 4:00:00 AM 1.06 33.908 0.135 7.08 40.75 13.69
3/11/2021 4:15:00 AM 1.06 33.908 0.135 7.07 40.85 13.69
3/11/2021 4:30:00 AM 1.06 33.908 0.135 7.06 46.47 13.69
3/11/2021 4:45:00 AM 1.06 33.908 0.135 7.05 38.59 13.69
3/11/2021 5:00:00 AM 1.07 33.926 0.135 7.06 38.06 13.68
3/11/2021 5:15:00 AM 1.08 33.944 0.135 7.06 44.73 13.68
3/11/2021 5:30:00 AM 1.08 33.944 0.135 7.06 35.79 13.68
3/11/2021 5:45:00 AM 1.09 33.962 0.135 7.06 25.8 13.67
3/11/2021 6:00:00 AM 1.1 33.98 0.135 7.07 37.29 13.67
3/11/2021 6:15:00 AM 1.11 33.998 0.135 7.07 32.02 13.66
3/11/2021 6:30:00 AM 1.12 34.016 0.135 7.07 34.24 13.66
3/11/2021 6:45:00 AM 1.13 34.034 0.135 7.08 31.54 13.65
3/11/2021 7:00:00 AM 1.14 34.052 0.135 7.09 33.17 13.65
3/11/2021 7:15:00 AM 1.15 34.07 0.135 7.08 43.44 13.65
3/11/2021 7:30:00 AM 1.17 34.106 0.135 7.08 31.97 13.65
3/11/2021 7:45:00 AM 1.19 34.142 0.135 7.12 30.92 13.65
3/11/2021 8:00:00 AM 1.23 34.214 0.135 7.1 26.83 13.65
3/11/2021 8:15:00 AM 1.26 34.268 0.135 7.11 28.9 13.66
3/11/2021 8:30:00 AM 1.31 34.358 0.135 7.11 29.04 13.67
3/11/2021 8:45:00 AM 1.36 34.448 0.135 7.1 28.14 13.67
3/11/2021 9:00:00 AM 1.41 34.538 0.135 7.13 26.84 13.67
3/11/2021 9:15:00 AM 1.48 34.664 0.135 7.12 41.29 13.67
3/11/2021 9:30:00 AM 1.57 34.826 0.135 7.13 26.79 13.67
3/11/2021 9:45:00 AM 1.68 35.024 0.135 7.13 26.3 13.67
3/11/2021 10:00:00 AM 1.78 35.204 0.135 7.13 25.35 13.67
3/11/2021 10:15:00 AM 1.86 35.348 0.135 7.15 25.4 13.66
3/11/2021 10:30:00 AM 2 35.6 0.135 7.15 24.7 13.66
3/11/2021 10:45:00 AM 2.14 35.852 0.135 7.16 203.54 13.65
3/11/2021 11:00:00 AM 2.31 36.158 0.135 7.16 27.57 13.63
3/11/2021 11:15:00 AM 2.48 36.464 0.135 7.15 25.35 13.6
3/11/2021 11:30:00 AM 2.66 36.788 0.135 7.17 27.99 13.57
3/11/2021 11:45:00 AM 2.81 37.058 0.135 7.18 19.61 13.54
3/11/2021 12:00:00 PM 3.01 37.418 0.134 7.2 25.59 13.51
3/11/2021 12:15:00 PM 3.24 37.832 0.134 7.19 28.22 13.48
3/11/2021 12:30:00 PM 3.44 38.192 0.134 7.19 25.1 13.42
3/11/2021 12:45:00 PM 3.66 38.588 0.134 7.2 24.56 13.38
3/11/2021 1:00:00 PM 3.88 38.984 0.134 7.18 24.77 13.34
3/11/2021 1:15:00 PM 4.05 39.29 0.133 7.19 25.94 13.28
3/11/2021 1:30:00 PM 4.18 39.524 0.133 7.19 34.94 13.22
3/11/2021 1:45:00 PM 4.27 39.686 0.132 7.19 40.21 13.15
3/11/2021 2:00:00 PM 4.33 39.794 0.132 7.18 39.2 13.08
3/11/2021 2:15:00 PM 4.33 39.794 0.131 7.17 52.04 13.02
3/11/2021 2:30:00 PM 4.29 39.722 0.13 7.14 59.17 12.97
3/11/2021 2:45:00 PM 4.22 39.596 0.128 7.12 86.95 12.92
3/11/2021 3:00:00 PM 4.16 39.488 0.126 7.08 298.24 12.89
3/11/2021 3:15:00 PM 4.09 39.362 0.124 7.05 134.36 12.87
3/11/2021 3:30:00 PM 4.02 39.236 0.12 7.04 173.99 12.84
3/11/2021 3:45:00 PM 3.93 39.074 0.116 7.07 215.92 12.82
3/11/2021 4:00:00 PM 3.84 38.912 0.112 7.06 265.28 12.82
3/11/2021 4:15:00 PM 3.75 38.75 0.11 7.07 316.4 12.85
3/11/2021 4:30:00 PM 3.64 38.552 0.107 6.97 301.51 12.86
3/11/2021 4:45:00 PM 3.53 38.354 0.106 6.97 261.5 12.88
3/11/2021 5:00:00 PM 3.4 38.12 0.103 6.96 282.78 12.9
3/11/2021 5:15:00 PM 3.28 37.904 0.101 6.99 290.96 12.93
3/11/2021 5:30:00 PM 3.17 37.706 0.099 7 301.87 12.96
3/11/2021 5:45:00 PM 3.08 37.544 0.097 7 295.1 13
3/11/2021 6:00:00 PM 3.01 37.418 0.095 6.96 284.97 13.02
3/11/2021 6:15:00 PM 2.95 37.31 0.094 7 299.82 13.04
3/11/2021 6:30:00 PM 2.88 37.184 0.092 6.98 276.97 13.04
3/11/2021 6:45:00 PM 2.83 37.094 0.091 6.99 305.85 13.06
3/11/2021 7:00:00 PM 2.79 37.022 0.09 6.92 200.58 13.07
3/11/2021 7:15:00 PM 2.75 36.95 0.089 6.92 207.77 13.07
3/11/2021 7:30:00 PM 2.72 36.896 0.088 6.92 185.13 13.08
3/11/2021 7:45:00 PM 2.68 36.824 0.087 6.89 328.93 13.09
3/11/2021 8:00:00 PM 2.64 36.752 0.087 6.86 200.85 13.09
3/11/2021 8:15:00 PM 2.61 36.698 0.086 6.86 266.5 13.1
3/11/2021 8:30:00 PM 2.58 36.644 0.086 6.89 133.53 13.1
3/11/2021 8:45:00 PM 2.56 36.608 0.086 6.86 176.87 13.11
3/11/2021 9:00:00 PM 2.53 36.554 0.086 6.86 184.23 13.12
3/11/2021 9:15:00 PM 2.51 36.518 0.086 6.88 120.9 13.12
3/11/2021 9:30:00 PM 2.49 36.482 0.086 6.87 129.12 13.13
3/11/2021 9:45:00 PM 2.48 36.464 0.086 6.89 152.92 13.13
3/11/2021 10:00:00 PM 2.46 36.428 0.085 6.89 142.47 13.12
3/11/2021 10:15:00 PM 2.44 36.392 0.085 6.88 122.53 13.14
3/11/2021 10:30:00 PM 2.42 36.356 0.085 6.89 121.55 13.15
3/11/2021 10:45:00 PM 2.4 36.32 0.085 6.87 105.3 13.15
3/11/2021 11:00:00 PM 2.39 36.302 0.085 6.86 123.71 13.16
3/11/2021 11:15:00 PM 2.37 36.266 0.085 6.86 108.37 13.16
3/11/2021 11:30:00 PM 2.36 36.248 0.085 6.88 73.12 13.17
3/11/2021 11:45:00 PM 2.35 36.23 0.085 6.91 82.54 13.16
3/12/2021 12:00:00 AM 2.34 36.212 0.086 6.92 79.75 13.17
3/12/2021 12:15:00 AM 2.33 36.194 0.086 6.93 87.33 13.16
3/12/2021 12:30:00 AM 2.33 36.194 0.086 6.94 81.04 13.16
3/12/2021 12:45:00 AM 2.32 36.176 0.086 6.89 83.75 13.16
3/12/2021 1:00:00 AM 2.32 36.176 0.086 6.93 86.52 13.16
3/12/2021 1:15:00 AM 2.32 36.176 0.086 6.93 69.7 13.17
3/12/2021 1:30:00 AM 2.33 36.194 0.086 6.93 69.86 13.17
3/12/2021 1:45:00 AM 2.33 36.194 0.086 6.9 71.69 13.17
3/12/2021 2:00:00 AM 2.34 36.212 0.086 6.93 67.71 13.16
3/12/2021 2:15:00 AM 2.34 36.212 0.086 6.93 78.39 13.17
3/12/2021 2:30:00 AM 2.34 36.212 0.086 6.92 63.93 13.17
3/12/2021 2:45:00 AM 2.34 36.212 0.086 6.92 73.89 13.18
3/12/2021 3:00:00 AM 2.33 36.194 0.086 6.92 66.71 13.18
3/12/2021 3:15:00 AM 2.31 36.158 0.086 6.92 69.67 13.18
3/12/2021 3:30:00 AM 2.3 36.14 0.086 6.92 75.83 13.19
3/12/2021 3:45:00 AM 2.29 36.122 0.086 6.91 62.83 13.19
3/12/2021 4:00:00 AM 2.27 36.086 0.086 6.92 56.7 13.2
3/12/2021 4:15:00 AM 2.26 36.068 0.086 6.92 65.14 13.2
3/12/2021 4:30:00 AM 2.25 36.05 0.086 6.93 69.35 13.2
3/12/2021 4:45:00 AM 2.24 36.032 0.086 6.93 47.69 13.21
3/12/2021 5:00:00 AM 2.23 36.014 0.086 6.91 86.46 13.21
3/12/2021 5:15:00 AM 2.21 35.978 0.086 6.93 53.05 13.21
3/12/2021 5:30:00 AM 2.19 35.942 0.086 6.89 79.86 13.22
3/12/2021 5:45:00 AM 2.16 35.888 0.086 6.93 73.49 13.22
3/12/2021 6:00:00 AM 2.13 35.834 0.086 6.93 45.97 13.23
3/12/2021 6:15:00 AM 2.1 35.78 0.086 6.92 51.93 13.25
3/12/2021 6:30:00 AM 2.06 35.708 0.086 6.94 51.87 13.26
3/12/2021 6:45:00 AM 2.02 35.636 0.086 6.94 56.94 13.27
3/12/2021 7:00:00 AM 1.98 35.564 0.086 6.95 72.78 13.28
3/12/2021 7:15:00 AM 1.94 35.492 0.086 6.95 52.52 13.3
3/12/2021 7:30:00 AM 1.91 35.438 0.086 6.93 50.3 13.31
3/12/2021 7:45:00 AM 1.88 35.384 0.086 6.92 70.44 13.32
3/12/2021 8:00:00 AM 1.86 35.348 0.086 6.91 65.81 13.33
3/12/2021 8:15:00 AM 1.85 35.33 0.086 6.92 49.39 13.35
3/12/2021 8:30:00 AM 1.84 35.312 0.086 6.92 58.88 13.36
3/12/2021 8:45:00 AM 1.85 35.33 0.086 6.92 47.27 13.37
3/12/2021 9:00:00 AM 1.88 35.384 0.086 6.92 43.62 13.38
3/12/2021 9:15:00 AM 1.92 35.456 0.087 6.88 40.76 13.38
3/12/2021 9:30:00 AM 1.98 35.564 0.087 6.93 48.25 13.38
3/12/2021 9:45:00 AM 2.05 35.69 0.087 6.92 44.81 13.37
3/12/2021 10:00:00 AM 2.14 35.852 0.087 6.93 41.4 13.36
3/12/2021 10:15:00 AM 2.25 36.05 0.087 6.92 37.78 13.36
3/12/2021 10:30:00 AM 2.38 36.284 0.087 6.94 53.34 13.34
3/12/2021 10:45:00 AM 2.52 36.536 0.087 6.94 38.83 13.33
3/12/2021 11:00:00 AM 2.67 36.806 0.087 6.94 39.96 13.3
3/12/2021 11:15:00 AM 2.83 37.094 0.087 6.95 61.03 13.27
3/12/2021 11:30:00 AM 2.99 37.382 0.087 6.95 39.19 13.23
3/12/2021 11:45:00 AM 3.17 37.706 0.087 6.95 57.36 13.2
3/12/2021 12:00:00 PM 3.35 38.03 0.088 6.97 58.74 13.16
3/12/2021 12:15:00 PM 3.53 38.354 0.088 6.97 33.83 13.11
3/12/2021 12:30:00 PM 3.72 38.696 0.088 6.98 30.73 13.07
3/12/2021 12:45:00 PM 3.91 39.038 0.088 6.99 41.21 13.01
3/12/2021 1:00:00 PM 4.1 39.38 0.088 6.99 54.67 12.97
3/12/2021 1:15:00 PM 4.28 39.704 0.088 6.99 36.24 12.91
3/12/2021 1:30:00 PM 4.46 40.028 0.088 6.99 44.08 12.85
3/12/2021 1:45:00 PM 4.62 40.316 0.088 6.99 63.25 12.8
3/12/2021 2:00:00 PM 4.78 40.604 0.088 6.98 41.11 12.75
3/12/2021 2:15:00 PM 4.93 40.874 0.088 7 60 12.7
3/12/2021 2:30:00 PM 5.06 41.108 0.087 6.91 37.7 12.64
3/12/2021 2:45:00 PM 5.17 41.306 0.087 7 37.11 12.6
3/12/2021 3:00:00 PM 5.27 41.486 0.087 6.99 36.36 12.56
3/12/2021 3:15:00 PM 5.34 41.612 0.087 6.98 34.03 12.51
3/12/2021 3:30:00 PM 5.4 41.72 0.087 6.94 37.65 12.46
3/12/2021 3:45:00 PM 5.43 41.774 0.086 6.99 45.71 12.43
3/12/2021 4:00:00 PM 5.45 41.81 0.086 7 46.22 12.4
3/12/2021 4:15:00 PM 5.44 41.792 0.086 6.99 41.85 12.38
3/12/2021 4:30:00 PM 5.41 41.738 0.086 7 47.63 12.36
3/12/2021 4:45:00 PM 5.37 41.666 0.085 6.97 43.94 12.34
3/12/2021 5:00:00 PM 5.3 41.54 0.085 6.98 63.14 12.34
3/12/2021 5:15:00 PM 5.23 41.414 0.085 6.99 43.24 12.33
3/12/2021 5:30:00 PM 5.13 41.234 0.084 6.99 43.39 12.35
3/12/2021 5:45:00 PM 5.03 41.054 0.084 6.99 50.23 12.33
3/12/2021 6:00:00 PM 4.91 40.838 0.084 6.95 51.2 12.36
3/12/2021 6:15:00 PM 4.78 40.604 0.084 6.95 50.77 12.37
3/12/2021 6:30:00 PM 4.65 40.37 0.083 6.96 38.13 12.4
3/12/2021 6:45:00 PM 4.52 40.136 0.083 6.95 38.27 12.42
3/12/2021 7:00:00 PM 4.38 39.884 0.083 6.94 34.07 12.45
3/12/2021 7:15:00 PM 4.25 39.65 0.083 6.94 44.45 12.48
3/12/2021 7:30:00 PM 4.12 39.416 0.083 6.93 40.33 12.52
3/12/2021 7:45:00 PM 4 39.2 0.083 6.93 51.52 12.56
3/12/2021 8:00:00 PM 3.88 38.984 0.083 6.93 39.37 12.59
3/12/2021 8:15:00 PM 3.76 38.768 0.083 6.92 47.71 12.62
3/12/2021 8:30:00 PM 3.66 38.588 0.083 6.92 44.37 12.66
3/12/2021 8:45:00 PM 3.55 38.39 0.083 6.92 42.98 12.69
3/12/2021 9:00:00 PM 3.44 38.192 0.083 6.92 37.5 12.73
3/12/2021 9:15:00 PM 3.33 37.994 0.083 6.92 40.82 12.77
3/12/2021 9:30:00 PM 3.23 37.814 0.083 6.91 61.82 12.79
3/12/2021 9:45:00 PM 3.13 37.634 0.083 6.91 50.24 12.83
3/12/2021 10:00:00 PM 3.03 37.454 0.083 6.9 37.27 12.85
3/12/2021 10:15:00 PM 2.93 37.274 0.083 6.9 47.65 12.89
3/12/2021 10:30:00 PM 2.82 37.076 0.083 6.92 38.06 12.94
3/12/2021 10:45:00 PM 2.73 36.914 0.083 6.88 38.22 12.98
3/12/2021 11:00:00 PM 2.62 36.716 0.083 6.84 31.13 13
3/12/2021 11:15:00 PM 2.53 36.554 0.083 6.83 44.27 13.03
3/12/2021 11:30:00 PM 2.44 36.392 0.084 6.81 48.2 13.06
3/12/2021 11:45:00 PM 2.37 36.266 0.084 6.84 39.89 13.08
3/13/2021 12:00:00 AM 2.29 36.122 0.084 6.83 47.85 13.11
3/13/2021 12:15:00 AM 2.22 35.996 0.084 6.78 35.51 13.14
3/13/2021 12:30:00 AM 2.14 35.852 0.084 6.78 35.47 13.17
3/13/2021 12:45:00 AM 2.08 35.744 0.084 6.78 44.53 13.2
3/13/2021 1:00:00 AM 2.01 35.618 0.085 6.78 29.49 13.22
3/13/2021 1:15:00 AM 1.94 35.492 0.085 6.78 43.33 13.25
3/13/2021 1:30:00 AM 1.88 35.384 0.085 6.77 36.59 13.27
3/13/2021 1:45:00 AM 1.81 35.258 0.085 6.75 35.84 13.3
3/13/2021 2:00:00 AM 1.74 35.132 0.085 6.75 34.5 13.31
3/13/2021 2:15:00 AM 1.67 35.006 0.086 6.73 33.08 13.34
3/13/2021 2:30:00 AM 1.61 34.898 0.086 6.74 33.19 13.36
3/13/2021 2:45:00 AM 1.54 34.772 0.086 6.73 33.96 13.39
3/13/2021 3:00:00 AM 1.48 34.664 0.086 6.78 193.25 13.42
3/13/2021 3:15:00 AM 1.41 34.538 0.086 6.8 28.19 13.44
3/13/2021 3:30:00 AM 1.36 34.448 0.086 6.8 27.17 13.47
3/13/2021 3:45:00 AM 1.31 34.358 0.086 6.81 35.57 13.49
3/13/2021 4:00:00 AM 1.26 34.268 0.086 6.8 31.73 13.51
3/13/2021 4:15:00 AM 1.22 34.196 0.086 6.78 36.47 13.53
3/13/2021 4:30:00 AM 1.18 34.124 0.087 6.77 33.02 13.55
3/13/2021 4:45:00 AM 1.15 34.07 0.087 6.76 31.37 13.56
3/13/2021 5:00:00 AM 1.1 33.98 0.087 6.76 32.48 13.58
3/13/2021 5:15:00 AM 1.06 33.908 0.087 6.77 32.22 13.6
3/13/2021 5:30:00 AM 1.02 33.836 0.087 6.77 31.01 13.62
3/13/2021 5:45:00 AM 0.99 33.782 0.087 6.78 30.23 13.63
3/13/2021 6:00:00 AM 0.95 33.71 0.087 6.78 29.32 13.64
3/13/2021 6:15:00 AM 0.91 33.638 0.087 6.79 24.47 13.65
3/13/2021 6:30:00 AM 0.88 33.584 0.087 6.79 31.03 13.67
3/13/2021 6:45:00 AM 0.85 33.53 0.087 6.79 30.16 13.68
3/13/2021 7:00:00 AM 0.82 33.476 0.087 6.81 33.26 13.7
3/13/2021 7:15:00 AM 0.81 33.458 0.087 6.87 31.5 13.71
3/13/2021 7:30:00 AM 0.79 33.422 0.087 6.78 31.85 13.72
3/13/2021 7:45:00 AM 0.78 33.404 0.087 6.81 29.76 13.73
3/13/2021 8:00:00 AM 0.77 33.386 0.087 6.81 51.08 13.75
3/13/2021 8:15:00 AM 0.77 33.386 0.087 6.81 27.56 13.76
3/13/2021 8:30:00 AM 0.78 33.404 0.087 6.81 28.46 13.78
3/13/2021 8:45:00 AM 0.79 33.422 0.087 6.81 26.43 13.79
3/13/2021 9:00:00 AM 0.82 33.476 0.087 6.81 26.18 13.79
3/13/2021 9:15:00 AM 0.87 33.566 0.087 6.79 28.83 13.8
3/13/2021 9:30:00 AM 0.93 33.674 0.087 6.82 25 13.8
3/13/2021 9:45:00 AM 1.01 33.818 0.087 6.81 25.37 13.8
3/13/2021 10:00:00 AM 1.1 33.98 0.087 6.82 30.7 13.79
3/13/2021 10:15:00 AM 1.22 34.196 0.087 6.84 26.65 13.79
3/13/2021 10:30:00 AM 1.34 34.412 0.087 6.84 24.26 13.77
3/13/2021 10:45:00 AM 1.48 34.664 0.087 6.85 24.74 13.76
3/13/2021 11:00:00 AM 1.63 34.934 0.087 6.89 25.82 13.74
3/13/2021 11:15:00 AM 1.79 35.222 0.087 6.87 25.56 13.7
3/13/2021 11:30:00 AM 1.95 35.51 0.087 6.87 23.48 13.68
3/13/2021 11:45:00 AM 2.12 35.816 0.088 6.89 22.34 13.64
3/13/2021 12:00:00 PM 2.3 36.14 0.088 6.9 22.31 13.61
3/13/2021 12:15:00 PM 2.48 36.464 0.088 6.91 26.36 13.57
3/13/2021 12:30:00 PM 2.66 36.788 0.088 6.92 22.63 13.52
3/13/2021 12:45:00 PM 2.85 37.13 0.088 6.93 25.99 13.47
3/13/2021 1:00:00 PM 3.03 37.454 0.088 6.93 24.89 13.43
3/13/2021 1:15:00 PM 3.21 37.778 0.088 6.93 68.82 13.38
3/13/2021 1:30:00 PM 3.38 38.084 0.088 6.91 22.94 13.32
3/13/2021 1:45:00 PM 3.55 38.39 0.088 6.92 23.77 13.27
3/13/2021 2:00:00 PM 3.71 38.678 0.088 6.95 21.98 13.22
3/13/2021 2:15:00 PM 3.86 38.948 0.088 6.97 20.64 13.16
3/13/2021 2:30:00 PM 4 39.2 0.088 6.96 22.43 13.11
3/13/2021 2:45:00 PM 4.12 39.416 0.088 6.96 20.86 13.06
3/13/2021 3:00:00 PM 4.23 39.614 0.088 6.94 21.26 13.01
3/13/2021 3:15:00 PM 4.32 39.776 0.088 6.93 21.01 12.96
3/13/2021 3:30:00 PM 4.4 39.92 0.088 6.92 25.11 12.92
3/13/2021 3:45:00 PM 4.45 40.01 0.088 6.86 22.29 12.88
3/13/2021 4:00:00 PM 4.48 40.064 0.088 6.93 21.62 12.84
3/13/2021 4:15:00 PM 4.49 40.082 0.088 6.94 21.26 12.81
3/13/2021 4:30:00 PM 4.49 40.082 0.088 6.95 22.76 12.78
3/13/2021 4:45:00 PM 4.47 40.046 0.088 6.95 23.66 12.75
3/13/2021 5:00:00 PM 4.44 39.992 0.088 6.94 25.25 12.72
3/13/2021 5:15:00 PM 4.4 39.92 0.088 6.94 22.88 12.71
3/13/2021 5:30:00 PM 4.34 39.812 0.088 6.93 22.92 12.69
3/13/2021 5:45:00 PM 4.27 39.686 0.088 6.93 20.56 12.68
3/13/2021 6:00:00 PM 4.2 39.56 0.089 6.91 22.45 12.67
3/13/2021 6:15:00 PM 4.12 39.416 0.089 6.83 20.52 12.67
3/13/2021 6:30:00 PM 4.02 39.236 0.089 6.88 20.96 12.67
3/13/2021 6:45:00 PM 3.92 39.056 0.089 6.88 19.87 12.68
3/13/2021 7:00:00 PM 3.81 38.858 0.089 6.89 22.48 12.69
3/13/2021 7:15:00 PM 3.7 38.66 0.089 6.9 22.36 12.71
3/13/2021 7:30:00 PM 3.59 38.462 0.089 6.89 22.16 12.71
3/13/2021 7:45:00 PM 3.48 38.264 0.089 6.9 21.73 12.74
3/13/2021 8:00:00 PM 3.36 38.048 0.089 6.92 20.17 12.77
3/13/2021 8:15:00 PM 3.24 37.832 0.09 6.89 18.03 12.79
3/13/2021 8:30:00 PM 3.13 37.634 0.09 6.92 20.15 12.82
3/13/2021 8:45:00 PM 3.02 37.436 0.09 6.93 19.52 12.85
3/13/2021 9:00:00 PM 2.91 37.238 0.09 6.94 17.24 12.87
3/13/2021 9:15:00 PM 2.8 37.04 0.09 6.94 23.6 12.9
3/13/2021 9:30:00 PM 2.69 36.842 0.09 6.91 19.28 12.94
3/13/2021 9:45:00 PM 2.58 36.644 0.09 6.9 19.6 12.97
3/13/2021 10:00:00 PM 2.47 36.446 0.09 6.91 20.95 13.01
3/13/2021 10:15:00 PM 2.37 36.266 0.09 6.91 21.69 13.04
3/13/2021 10:30:00 PM 2.27 36.086 0.09 6.91 20.17 13.07
3/13/2021 10:45:00 PM 2.18 35.924 0.09 6.88 18.47 13.09
3/13/2021 11:00:00 PM 2.09 35.762 0.09 6.92 18.38 13.12
3/13/2021 11:15:00 PM 2.01 35.618 0.09 6.86 20.24 13.15
3/13/2021 11:30:00 PM 1.92 35.456 0.09 6.89 20.25 13.18
3/13/2021 11:45:00 PM 1.85 35.33 0.09 6.87 19.71 13.2
3/14/2021 12:00:00 AM 1.78 35.204 0.091 6.86 19.65 13.23
3/14/2021 12:15:00 AM 1.72 35.096 0.09 6.85 24.12 13.26
3/14/2021 12:30:00 AM 1.65 34.97 0.091 6.83 19.05 13.28
3/14/2021 12:45:00 AM 1.6 34.88 0.091 6.82 20.99 13.3
3/14/2021 1:00:00 AM 1.54 34.772 0.091 6.79 20.37 13.31
3/14/2021 1:15:00 AM 1.49 34.682 0.09 6.81 20.83 13.33
3/14/2021 1:30:00 AM 1.46 34.628 0.091 6.82 21.48 13.34
3/14/2021 1:45:00 AM 1.43 34.574 0.091 6.81 21.22 13.35
3/14/2021 3:00:00 AM 1.34 34.412 0.091 6.8 18.88 13.39
3/14/2021 4:15:00 AM 1.33 34.394 0.091 6.82 22 13.39
3/14/2021 4:30:00 AM 1.33 34.394 0.091 6.8 22.49 13.4
3/14/2021 4:45:00 AM 1.33 34.394 0.091 6.79 374.51 13.4
3/14/2021 5:00:00 AM 1.33 34.394 0.091 6.81 43.76 13.4
3/14/2021 5:15:00 AM 1.33 34.394 0.091 6.83 21.76 13.39
3/14/2021 5:30:00 AM 1.33 34.394 0.091 6.8 19.38 13.39
3/14/2021 5:45:00 AM 1.33 34.394 0.091 6.81 23.54 13.39
3/14/2021 6:00:00 AM 1.34 34.412 0.091 6.82 20.2 13.39
3/14/2021 6:15:00 AM 1.35 34.43 0.091 6.8 21.89 13.39
3/14/2021 6:30:00 AM 1.35 34.43 0.091 6.83 20.38 13.38
3/14/2021 6:45:00 AM 1.36 34.448 0.091 6.83 19.72 13.37
3/14/2021 7:00:00 AM 1.38 34.484 0.091 6.83 19.86 13.37
3/14/2021 7:15:00 AM 1.39 34.502 0.091 6.82 18.63 13.37
3/14/2021 7:30:00 AM 1.41 34.538 0.091 6.83 19.48 13.37
3/14/2021 7:45:00 AM 1.42 34.556 0.091 6.85 19.08 13.36
3/14/2021 8:00:00 AM 1.43 34.574 0.092 6.83 19.74 13.36
3/14/2021 8:15:00 AM 1.45 34.61 0.092 6.91 18.41 13.36
3/14/2021 8:30:00 AM 1.47 34.646 0.091 6.93 19.36 13.36
3/14/2021 8:45:00 AM 1.49 34.682 0.092 6.92 18.29 13.36
3/14/2021 9:00:00 AM 1.53 34.754 0.092 6.94 18.76 13.37
3/14/2021 9:15:00 AM 1.58 34.844 0.092 6.96 17.84 13.37
3/14/2021 9:30:00 AM 1.61 34.898 0.092 6.97 17.54 13.36
3/14/2021 9:45:00 AM 1.64 34.952 0.092 6.94 20.32 13.36
3/14/2021 10:00:00 AM 1.68 35.024 0.092 6.94 18.66 13.37
3/14/2021 10:15:00 AM 1.74 35.132 0.092 6.93 19.23 13.37
3/14/2021 10:30:00 AM 1.81 35.258 0.092 6.95 18.94 13.38
3/14/2021 10:45:00 AM 1.9 35.42 0.092 6.97 20.17 13.37
3/14/2021 11:00:00 AM 1.99 35.582 0.092 6.95 17 13.37
3/14/2021 11:15:00 AM 2.09 35.762 0.092 6.98 16.58 13.37
3/14/2021 11:30:00 AM 2.2 35.96 0.092 6.97 25.53 13.35
3/14/2021 11:45:00 AM 2.26 36.068 0.092 6.99 16.28 13.33
3/14/2021 12:00:00 PM 2.33 36.194 0.091 7 16.27 13.32
3/14/2021 12:15:00 PM 2.38 36.284 0.092 6.98 16.84 13.3
3/14/2021 12:30:00 PM 2.48 36.464 0.092 6.99 16.25 13.29
3/14/2021 12:45:00 PM 2.47 36.446 0.093 6.99 16.88 13.26
3/14/2021 1:00:00 PM 2.6 36.68 0.093 6.98 16.88 13.24
3/14/2021 1:15:00 PM 2.71 36.878 0.092 6.97 17.31 13.23
3/14/2021 1:30:00 PM 2.81 37.058 0.092 6.98 16.01 13.22
3/14/2021 1:45:00 PM 2.94 37.292 0.092 6.98 17.57 13.21
3/14/2021 2:00:00 PM 3.08 37.544 0.092 6.95 14.71 13.19
3/14/2021 2:15:00 PM 3.2 37.76 0.092 6.99 16.26 13.16
3/14/2021 2:30:00 PM 3.26 37.868 0.092 6.99 15.48 13.13
3/14/2021 2:45:00 PM 3.31 37.958 0.092 6.99 16.52 13.11
3/14/2021 3:00:00 PM 3.32 37.976 0.092 6.97 16.21 13.08
3/14/2021 3:15:00 PM 3.35 38.03 0.092 6.98 17.13 13.05
3/14/2021 3:30:00 PM 3.37 38.066 0.092 6.98 15.68 13.03
3/14/2021 3:45:00 PM 3.43 38.174 0.092 6.91 17.33 13.03
3/14/2021 4:00:00 PM 3.44 38.192 0.092 6.96 15.52 13.02
3/14/2021 4:15:00 PM 3.41 38.138 0.092 6.94 14.49 13.01
3/14/2021 4:30:00 PM 3.4 38.12 0.093 6.91 16.38 13.01
3/14/2021 4:45:00 PM 3.37 38.066 0.093 6.94 15.69 13.02
3/14/2021 5:00:00 PM 3.35 38.03 0.093 6.93 15.71 13.01
3/14/2021 5:15:00 PM 3.32 37.976 0.092 6.93 17.18 13.02
3/14/2021 5:30:00 PM 3.29 37.922 0.092 6.9 16.81 13.02
3/14/2021 5:45:00 PM 3.26 37.868 0.093 6.93 17.1 13.01
3/14/2021 6:00:00 PM 3.25 37.85 0.092 6.93 16.06 13.02
3/14/2021 6:15:00 PM 3.23 37.814 0.093 6.92 16.46 13.02
3/14/2021 6:30:00 PM 3.17 37.706 0.093 6.92 15.66 13.02
3/14/2021 6:45:00 PM 3.1 37.58 0.093 6.92 16.2 13.02
3/14/2021 7:00:00 PM 3.03 37.454 0.093 6.92 16.62 13.02
3/14/2021 7:15:00 PM 2.95 37.31 0.093 6.93 16.9 13.02
3/14/2021 7:30:00 PM 2.86 37.148 0.093 6.93 17.74 13.03
3/14/2021 7:45:00 PM 2.75 36.95 0.094 6.92 14.88 13.04
3/14/2021 8:00:00 PM 2.65 36.77 0.094 6.92 16.6 13.05
3/14/2021 8:15:00 PM 2.56 36.608 0.094 6.92 16.65 13.06
3/14/2021 8:30:00 PM 2.46 36.428 0.095 6.92 17.78 13.08
3/14/2021 8:45:00 PM 2.35 36.23 0.095 6.91 18.19 13.11
3/14/2021 9:00:00 PM 2.26 36.068 0.095 6.92 18.25 13.13
3/14/2021 9:15:00 PM 2.17 35.906 0.095 6.92 17.79 13.15
3/14/2021 9:30:00 PM 2.07 35.726 0.095 6.88 17.98 13.17
3/14/2021 9:45:00 PM 1.98 35.564 0.095 6.92 19.14 13.19
3/14/2021 10:00:00 PM 1.89 35.402 0.095 6.91 17.69 13.22
3/14/2021 10:15:00 PM 1.81 35.258 0.095 6.91 16.36 13.25
3/14/2021 10:30:00 PM 1.72 35.096 0.095 6.9 18.41 13.28
3/14/2021 10:45:00 PM 1.64 34.952 0.095 6.9 19.82 13.31
3/14/2021 11:00:00 PM 1.56 34.808 0.095 6.91 21.05 13.34
3/14/2021 11:15:00 PM 1.49 34.682 0.095 6.92 18.69 13.36
3/14/2021 11:30:00 PM 1.41 34.538 0.096 6.93 17.98 13.4
3/14/2021 11:45:00 PM 1.33 34.394 0.096 6.89 18.16 13.42
3/15/2021 12:00:00 AM 1.26 34.268 0.096 6.93 19.35 13.45
3/15/2021 12:15:00 AM 1.2 34.16 0.096 6.94 17.91 13.47
3/15/2021 12:30:00 AM 1.14 34.052 0.096 6.93 18.9 13.5
3/15/2021 12:45:00 AM 1.08 33.944 0.096 6.9 18.9 13.53
3/15/2021 1:00:00 AM 1.02 33.836 0.096 6.92 19.06 13.55
3/15/2021 1:15:00 AM 0.96 33.728 0.096 6.91 17.69 13.57
3/15/2021 1:30:00 AM 0.89 33.602 0.096 6.9 16.36 13.6
3/15/2021 1:45:00 AM 0.82 33.476 0.097 6.95 16.19 13.64
3/15/2021 2:00:00 AM 0.75 33.35 0.097 6.93 16.78 13.66
3/15/2021 2:15:00 AM 0.68 33.224 0.097 6.92 16.74 13.69
3/15/2021 2:30:00 AM 0.61 33.098 0.097 6.94 17.51 13.71
3/15/2021 2:45:00 AM 0.53 32.954 0.097 6.95 14.87 13.73
3/15/2021 3:00:00 AM 0.47 32.846 0.097 6.98 15.04 13.76
3/15/2021 3:15:00 AM 0.41 32.738 0.097 6.97 15.39 13.78
3/15/2021 3:30:00 AM 0.35 32.63 0.097 6.97 13.33 13.79
3/15/2021 3:45:00 AM 0.3 32.54 0.098 6.97 14.17 13.81
3/15/2021 4:00:00 AM 0.24 32.432 0.098 6.96 15.17 13.83
3/15/2021 4:15:00 AM 0.18 32.324 0.098 6.97 14.76 13.84
3/15/2021 4:30:00 AM 0.12 32.216 0.098 6.97 14.35 13.86
3/15/2021 4:45:00 AM 0.08 32.144 0.098 6.96 15.1 13.88
3/15/2021 5:00:00 AM 0.04 32.072 0.098 6.96 14.35 13.89
3/15/2021 5:15:00 AM -0.01 31.982 0.098 6.97 15.42 13.92
3/15/2021 5:30:00 AM -0.05 31.91 0.098 6.97 14.35 13.93
3/15/2021 5:45:00 AM -0.08 31.856 0.098 6.97 14.31 13.95
3/15/2021 6:00:00 AM -0.09 31.838 0.098 6.96 15.24 13.97
3/15/2021 6:15:00 AM -0.08 31.856 0.098 6.96 15.56 13.98
3/15/2021 6:30:00 AM -0.08 31.856 0.098 6.95 18.75 14
3/15/2021 6:45:00 AM -0.07 31.874 0.099 6.93 17.13 14
3/15/2021 7:00:00 AM -0.07 31.874 0.099 6.93 17.08 14.02
3/15/2021 7:15:00 AM -0.07 31.874 0.098 6.93 13.92 14.03
3/15/2021 7:30:00 AM -0.07 31.874 0.099 6.94 14.89 14.04
3/15/2021 7:45:00 AM -0.07 31.874 0.099 6.93 15.52 14.05
3/15/2021 8:00:00 AM -0.07 31.874 0.099 6.96 15.57 14.06
3/15/2021 8:15:00 AM -0.06 31.892 0.099 6.98 17.49 14.08
3/15/2021 8:30:00 AM -0.06 31.892 0.099 6.97 19.26 14.09
3/15/2021 8:45:00 AM -0.06 31.892 0.099 6.99 14.5 14.1
3/15/2021 9:00:00 AM -0.05 31.91 0.1 6.99 18.19 14.11
3/15/2021 9:15:00 AM -0.04 31.928 0.1 6.95 14.27 14.13
3/15/2021 9:30:00 AM -0.03 31.946 0.1 6.94 12.47 14.14
3/15/2021 9:45:00 AM -0.02 31.964 0.1 6.96 14.73 14.15
3/15/2021 10:00:00 AM 0 32 0.1 6.97 11.9 14.16
3/15/2021 10:15:00 AM 0.02 32.036 0.1 6.98 11.85 14.18
3/15/2021 10:30:00 AM 0.04 32.072 0.1 6.96 12.08 14.19
3/15/2021 10:45:00 AM 0.09 32.162 0.1 7 11.83 14.19
3/15/2021 11:00:00 AM 0.14 32.252 0.099 7 11.63 14.21
3/15/2021 11:15:00 AM 0.18 32.324 0.099 6.97 11.55 14.21
3/15/2021 11:30:00 AM 0.23 32.414 0.099 7 12.57 14.22
3/15/2021 11:45:00 AM 0.28 32.504 0.099 7.01 12.65 14.22
3/15/2021 12:00:00 PM 0.34 32.612 0.099 7 12.84 14.21
3/15/2021 12:15:00 PM 0.43 32.774 0.099 7.01 12.97 14.2
3/15/2021 12:30:00 PM 0.54 32.972 0.099 7.01 13.76 14.16
3/15/2021 12:45:00 PM 0.66 33.188 0.099 7.01 12.89 14.14
3/15/2021 1:00:00 PM 0.8 33.44 0.099 7.01 14.07 14.12
3/15/2021 1:15:00 PM 0.96 33.728 0.099 7.02 15.15 14.09
3/15/2021 1:30:00 PM 1.16 34.088 0.099 7.02 13.93 14.06
3/15/2021 1:45:00 PM 1.37 34.466 0.099 7.03 13.01 14.02
3/15/2021 2:00:00 PM 1.6 34.88 0.099 7.04 13.73 13.96
3/15/2021 2:15:00 PM 1.83 35.294 0.099 7.05 12.41 13.9
3/15/2021 2:30:00 PM 2.06 35.708 0.1 7.04 13.37 13.85
3/15/2021 2:45:00 PM 2.27 36.086 0.1 7.06 12.24 13.79
3/15/2021 3:00:00 PM 2.48 36.464 0.1 7.07 11.75 13.73
3/15/2021 3:15:00 PM 2.66 36.788 0.1 7.02 12.14 13.66
3/15/2021 3:30:00 PM 2.84 37.112 0.1 7.08 12.06 13.61
3/15/2021 3:45:00 PM 3 37.4 0.1 7.08 11.54 13.56
3/15/2021 4:00:00 PM 3.14 37.652 0.1 7.08 11.12 13.51
3/15/2021 4:15:00 PM 3.26 37.868 0.1 7.08 11.66 13.45
3/15/2021 4:30:00 PM 3.36 38.048 0.1 7.09 11.62 13.39
3/15/2021 4:45:00 PM 3.44 38.192 0.1 7.09 11.72 13.34
3/15/2021 5:00:00 PM 3.5 38.3 0.1 7.1 11.61 13.3
3/15/2021 5:15:00 PM 3.52 38.336 0.1 7.09 12.35 13.25
3/15/2021 5:30:00 PM 3.54 38.372 0.1 7.1 12.61 13.21
3/15/2021 5:45:00 PM 3.53 38.354 0.1 7.04 12.26 13.16
3/15/2021 6:00:00 PM 3.51 38.318 0.1 7.09 11.88 13.14
3/15/2021 6:15:00 PM 3.49 38.282 0.1 7.09 11.38 13.1
3/15/2021 6:30:00 PM 3.45 38.21 0.1 7.09 12.26 13.07
3/15/2021 6:45:00 PM 3.42 38.156 0.1 7.08 12.42 13.04
3/15/2021 7:00:00 PM 3.37 38.066 0.1 7.07 11.35 13.01
3/15/2021 7:15:00 PM 3.32 37.976 0.1 7.06 12.95 12.99
3/15/2021 7:30:00 PM 3.26 37.868 0.1 7.07 12.34 12.98
3/15/2021 7:45:00 PM 3.19 37.742 0.1 7.05 12.08 12.96
3/15/2021 8:00:00 PM 3.12 37.616 0.1 7.05 12.73 12.96
3/15/2021 8:15:00 PM 3.05 37.49 0.101 7.05 12.47 12.96
3/15/2021 8:30:00 PM 2.96 37.328 0.101 7.04 12.57 12.96
3/15/2021 8:45:00 PM 2.87 37.166 0.101 7.04 12.72 12.97
3/15/2021 9:00:00 PM 2.78 37.004 0.101 6.98 13.07 12.98
3/15/2021 9:15:00 PM 2.68 36.824 0.102 7.03 13.84 12.99
3/15/2021 9:30:00 PM 2.59 36.662 0.102 7.01 14.77 13.01
3/15/2021 9:45:00 PM 2.5 36.5 0.102 7.01 13.26 13.03
3/15/2021 10:00:00 PM 2.41 36.338 0.103 7.01 13.68 13.05
3/15/2021 10:15:00 PM 2.32 36.176 0.103 6.99 13.71 13.08
3/15/2021 10:30:00 PM 2.24 36.032 0.104 7 13.19 13.11
3/15/2021 10:45:00 PM 2.15 35.87 0.104 7 12.53 13.13
3/15/2021 11:00:00 PM 2.06 35.708 0.104 6.99 12.43 13.15
3/15/2021 11:15:00 PM 1.96 35.528 0.104 6.96 12.02 13.17
3/15/2021 11:30:00 PM 1.87 35.366 0.104 6.99 12.42 13.21
3/15/2021 11:45:00 PM 1.77 35.186 0.104 6.99 12.08 13.24
3/16/2021 12:00:00 AM 1.68 35.024 0.104 6.98 11.71 13.28
3/16/2021 12:15:00 AM 1.58 34.844 0.104 6.98 11.94 13.31
3/16/2021 12:30:00 AM 1.49 34.682 0.104 6.99 11.43 13.34
3/16/2021 12:45:00 AM 1.39 34.502 0.104 6.98 11.84 13.37
3/16/2021 1:00:00 AM 1.3 34.34 0.104 6.98 11.4 13.4
3/16/2021 1:15:00 AM 1.21 34.178 0.104 6.97 11.64 13.43
3/16/2021 1:30:00 AM 1.12 34.016 0.104 6.97 11.19 13.47
3/16/2021 1:45:00 AM 1.03 33.854 0.104 6.98 11.22 13.5
3/16/2021 2:00:00 AM 0.95 33.71 0.104 6.97 10.73 13.53
3/16/2021 2:15:00 AM 0.86 33.548 0.104 6.97 11.38 13.57
3/16/2021 2:30:00 AM 0.79 33.422 0.105 6.97 10.92 13.6
3/16/2021 2:45:00 AM 0.71 33.278 0.105 6.97 11.29 13.63
3/16/2021 3:00:00 AM 0.64 33.152 0.105 6.97 10.93 13.65
3/16/2021 3:15:00 AM 0.58 33.044 0.105 6.97 10.91 13.68
3/16/2021 3:30:00 AM 0.52 32.936 0.105 6.97 10.22 13.7
3/16/2021 3:45:00 AM 0.46 32.828 0.105 6.97 10.29 13.73
3/16/2021 4:00:00 AM 0.42 32.756 0.105 6.96 10.18 13.74
3/16/2021 4:15:00 AM 0.37 32.666 0.105 6.98 10.22 13.76
3/16/2021 4:30:00 AM 0.33 32.594 0.105 6.97 10.49 13.77
3/16/2021 4:45:00 AM 0.3 32.54 0.106 6.98 10.62 13.79
3/16/2021 5:00:00 AM 0.27 32.486 0.106 6.98 10.9 13.8
3/16/2021 5:15:00 AM 0.23 32.414 0.106 6.99 9.94 13.81
3/16/2021 5:30:00 AM 0.2 32.36 0.106 6.97 11.34 13.82
3/16/2021 5:45:00 AM 0.17 32.306 0.106 6.99 10.44 13.83
3/16/2021 6:00:00 AM 0.15 32.27 0.107 6.99 10.05 13.84
3/16/2021 6:15:00 AM 0.13 32.234 0.107 6.96 10.54 13.84
3/16/2021 6:30:00 AM 0.12 32.216 0.107 6.98 10.38 13.85
3/16/2021 6:45:00 AM 0.11 32.198 0.107 7 9.93 13.86
3/16/2021 7:00:00 AM 0.1 32.18 0.107 6.99 10.15 13.85
3/16/2021 7:15:00 AM 0.1 32.18 0.108 7 9.78 13.86
3/16/2021 7:30:00 AM 0.09 32.162 0.108 7 9.3 13.86
3/16/2021 7:45:00 AM 0.09 32.162 0.108 7 9.14 13.86
3/16/2021 8:00:00 AM 0.09 32.162 0.108 7 9.21 13.87
3/16/2021 8:15:00 AM 0.09 32.162 0.108 7 8.88 13.88
3/16/2021 8:30:00 AM 0.1 32.18 0.109 6.98 9.15 13.89
3/16/2021 8:45:00 AM 0.1 32.18 0.108 7 8.64 13.91
3/16/2021 9:00:00 AM 0.12 32.216 0.109 7 9.05 13.92
3/16/2021 9:15:00 AM 0.14 32.252 0.109 7.01 8.68 13.92
3/16/2021 9:30:00 AM 0.16 32.288 0.109 7.02 8.38 13.94
3/16/2021 9:45:00 AM 0.19 32.342 0.109 7.03 8.56 13.95
3/16/2021 10:00:00 AM 0.24 32.432 0.11 7.03 8.28 13.96
3/16/2021 10:15:00 AM 0.27 32.486 0.11 7 8.37 13.97
3/16/2021 10:30:00 AM 0.31 32.558 0.11 7.04 7.9 13.97
3/16/2021 10:45:00 AM 0.38 32.684 0.11 7.04 8.02 13.98
3/16/2021 11:00:00 AM 0.45 32.81 0.11 7.05 7.82 13.99
3/16/2021 11:15:00 AM 0.5 32.9 0.111 7.05 7.64 13.98
3/16/2021 11:30:00 AM 0.55 32.99 0.111 7.05 7.75 13.98
3/16/2021 11:45:00 AM 0.6 33.08 0.111 7.06 7.95 13.97
3/16/2021 12:00:00 PM 0.66 33.188 0.111 7.07 7.8 13.97
3/16/2021 12:15:00 PM 0.73 33.314 0.111 7.05 8.01 13.97
3/16/2021 12:30:00 PM 0.8 33.44 0.111 7.07 8.14 13.96
3/16/2021 12:45:00 PM 0.85 33.53 0.112 7.07 8.09 13.95
3/16/2021 1:00:00 PM 0.93 33.674 0.112 7.08 7.76 13.95
3/16/2021 1:15:00 PM 1.1 33.98 0.112 7.08 7.94 13.93
3/16/2021 1:30:00 PM 1.24 34.232 0.112 7.11 8.51 13.91
3/16/2021 1:45:00 PM 1.35 34.43 0.112 7.09 8.07 13.89
3/16/2021 2:00:00 PM 1.48 34.664 0.112 7.1 8.19 13.87
3/16/2021 2:15:00 PM 1.56 34.808 0.112 7.11 7.53 13.84
3/16/2021 2:30:00 PM 1.6 34.88 0.112 7.1 8.14 13.81
3/16/2021 2:45:00 PM 1.63 34.934 0.112 7.13 7.68 13.78
3/16/2021 3:00:00 PM 1.68 35.024 0.113 7.13 7.73 13.76
3/16/2021 3:15:00 PM 1.74 35.132 0.113 7.13 7.68 13.74
3/16/2021 3:30:00 PM 1.8 35.24 0.113 7.13 7.31 13.71
3/16/2021 3:45:00 PM 1.87 35.366 0.113 7.1 7.38 13.67
3/16/2021 4:00:00 PM 1.93 35.474 0.113 7.13 7.42 13.64
3/16/2021 4:15:00 PM 1.97 35.546 0.113 7.13 7.32 13.61
3/16/2021 4:30:00 PM 2 35.6 0.113 7.11 7.3 13.58
3/16/2021 4:45:00 PM 2.02 35.636 0.114 7.12 7.45 13.55
3/16/2021 5:00:00 PM 2.04 35.672 0.114 7.12 7.69 13.53
3/16/2021 5:15:00 PM 2.06 35.708 0.114 7.13 7.41 13.5
3/16/2021 5:30:00 PM 2.07 35.726 0.114 7.13 7.15 13.48
3/16/2021 5:45:00 PM 2.08 35.744 0.114 7.13 7.11 13.45
3/16/2021 6:00:00 PM 2.08 35.744 0.114 7.12 6.87 13.42
3/16/2021 6:15:00 PM 2.07 35.726 0.114 7.11 7 13.39
3/16/2021 6:30:00 PM 2.06 35.708 0.114 7.1 7.34 13.37
3/16/2021 6:45:00 PM 2.05 35.69 0.114 7.1 7.13 13.34
3/16/2021 7:00:00 PM 2.05 35.69 0.099 7.11 14.84 13.32
3/16/2021 7:15:00 PM 2.04 35.672 0.114 7.07 9.5 13.3
3/16/2021 7:30:00 PM 2.03 35.654 0.114 7.08 11.3 13.28
3/16/2021 7:45:00 PM 2.01 35.618 0.114 7.09 11.92 13.26
3/16/2021 8:00:00 PM 2 35.6 0.113 7.09 10.85 13.24
3/16/2021 8:15:00 PM 2 35.6 0.114 7.04 10.76 13.23
3/16/2021 8:30:00 PM 1.99 35.582 0.114 7.08 14.17 13.21
3/16/2021 8:45:00 PM 1.98 35.564 0.113 7.08 9.5 13.21
3/16/2021 9:00:00 PM 1.97 35.546 0.114 7.07 10.66 13.19
3/16/2021 9:15:00 PM 1.96 35.528 0.114 7.06 11.38 13.18
3/16/2021 9:30:00 PM 1.95 35.51 0.114 7.06 9.7 13.18
3/16/2021 9:45:00 PM 1.93 35.474 0.113 7.06 10.41 13.17
3/16/2021 10:00:00 PM 1.92 35.456 0.113 7.06 9.31 13.17
3/16/2021 10:15:00 PM 1.91 35.438 0.114 7.06 10.39 13.17
3/16/2021 10:30:00 PM 1.9 35.42 0.114 7.05 10.99 13.17
3/16/2021 10:45:00 PM 1.89 35.402 0.114 7.05 11.14 13.17
3/16/2021 11:00:00 PM 1.87 35.366 0.114 7.04 10.14 13.17
3/16/2021 11:15:00 PM 1.86 35.348 0.114 7.04 10.15 13.17
3/16/2021 11:30:00 PM 1.85 35.33 0.114 7.03 11.78 13.17
3/16/2021 11:45:00 PM 1.84 35.312 0.115 7.06 9.25 13.18
3/17/2021 12:00:00 AM 1.82 35.276 0.115 7.02 9.62 13.18
3/17/2021 12:15:00 AM 1.81 35.258 0.115 7.02 9 13.17
3/17/2021 12:30:00 AM 1.8 35.24 0.115 6.99 9.28 13.18
3/17/2021 12:45:00 AM 1.78 35.204 0.115 6.98 8.64 13.18
3/17/2021 1:00:00 AM 1.77 35.186 0.115 6.97 9.17 13.19
3/17/2021 1:15:00 AM 1.75 35.15 0.115 6.97 10.13 13.19
3/17/2021 1:30:00 AM 1.74 35.132 0.116 6.96 10.18 13.2
3/17/2021 1:45:00 AM 1.72 35.096 0.116 6.94 10.2 13.2
3/17/2021 2:00:00 AM 1.7 35.06 0.116 6.92 9.98 13.21
3/17/2021 2:15:00 AM 1.69 35.042 0.116 6.92 9.7 13.21
3/17/2021 2:30:00 AM 1.67 35.006 0.116 6.9 9.86 13.22
3/17/2021 2:45:00 AM 1.65 34.97 0.116 6.89 9.09 13.23
3/17/2021 3:00:00 AM 1.63 34.934 0.116 6.9 9.37 13.23
3/17/2021 3:15:00 AM 1.62 34.916 0.116 6.91 9.93 13.24
3/17/2021 3:30:00 AM 1.6 34.88 0.116 6.92 9.21 13.24
3/17/2021 3:45:00 AM 1.59 34.862 0.116 6.92 9.43 13.25
3/17/2021 4:00:00 AM 1.57 34.826 0.117 6.92 9.54 13.25
3/17/2021 4:15:00 AM 1.56 34.808 0.117 6.9 9.03 13.26
3/17/2021 4:30:00 AM 1.54 34.772 0.116 6.93 9.3 13.26
3/17/2021 4:45:00 AM 1.53 34.754 0.117 6.94 8.79 13.26
3/17/2021 5:00:00 AM 1.52 34.736 0.117 6.94 9.56 13.27
3/17/2021 5:15:00 AM 1.5 34.7 0.117 6.94 9.22 13.27
3/17/2021 5:30:00 AM 1.49 34.682 0.117 6.92 9.29 13.28
3/17/2021 5:45:00 AM 1.48 34.664 0.117 6.94 9.26 13.28
3/17/2021 6:00:00 AM 1.46 34.628 0.117 6.94 8.97 13.29
3/17/2021 6:15:00 AM 1.45 34.61 0.117 6.94 9.18 13.3
3/17/2021 6:30:00 AM 1.44 34.592 0.117 6.95 9.49 13.3
3/17/2021 6:45:00 AM 1.43 34.574 0.117 6.95 8.89 13.31
3/17/2021 7:00:00 AM 1.42 34.556 0.117 6.96 9.54 13.31
3/17/2021 7:15:00 AM 1.41 34.538 0.118 6.95 9.54 13.31
3/17/2021 7:30:00 AM 1.41 34.538 0.117 6.95 70.65 13.32
3/17/2021 7:45:00 AM 1.41 34.538 0.118 6.96 9.47 13.33
3/17/2021 8:00:00 AM 1.41 34.538 0.118 6.95 9.73 13.33
3/17/2021 8:15:00 AM 1.41 34.538 0.118 6.96 9.64 13.34
3/17/2021 8:30:00 AM 1.42 34.556 0.118 6.96 9.51 13.36
3/17/2021 8:45:00 AM 1.43 34.574 0.118 6.97 10.1 13.38
3/17/2021 9:00:00 AM 1.45 34.61 0.118 6.97 10 13.4
3/17/2021 9:15:00 AM 1.47 34.646 0.118 6.97 17.78 13.42
3/17/2021 9:30:00 AM 1.5 34.7 0.118 6.98 9.5 13.44
3/17/2021 9:45:00 AM 1.53 34.754 0.118 6.99 9.27 13.45
3/17/2021 10:00:00 AM 1.57 34.826 0.119 6.99 9.38 13.47
3/17/2021 10:15:00 AM 1.62 34.916 0.119 7 9.17 13.49
3/17/2021 10:30:00 AM 1.68 35.024 0.119 7 9.69 13.5
3/17/2021 10:45:00 AM 1.74 35.132 0.119 7 9.26 13.52
3/17/2021 11:00:00 AM 1.81 35.258 0.119 7.02 8.71 13.53
3/17/2021 11:15:00 AM 1.88 35.384 0.119 7.03 9.38 13.53
3/17/2021 11:30:00 AM 1.96 35.528 0.119 7.03 8.78 13.53
3/17/2021 11:45:00 AM 2.05 35.69 0.119 7.02 9.55 13.54
3/17/2021 12:00:00 PM 2.17 35.906 0.119 7.03 8.9 13.53
3/17/2021 12:15:00 PM 2.32 36.176 0.119 7.04 8.64 13.52
3/17/2021 12:30:00 PM 2.49 36.482 0.119 7.04 8.98 13.52
3/17/2021 12:45:00 PM 2.66 36.788 0.119 7.06 9.36 13.51
3/17/2021 1:00:00 PM 2.83 37.094 0.119 7.08 8.93 13.48
3/17/2021 1:15:00 PM 2.97 37.346 0.119 7.1 7.85 13.46
3/17/2021 1:30:00 PM 3.14 37.652 0.119 7.08 7.59 13.43
3/17/2021 1:45:00 PM 3.28 37.904 0.119 7.08 7.64 13.42
3/17/2021 2:00:00 PM 3.44 38.192 0.119 7.09 7.49 13.39
3/17/2021 2:15:00 PM 3.62 38.516 0.119 7.1 7.41 13.35
3/17/2021 2:30:00 PM 3.84 38.912 0.119 7.1 7.61 13.31
3/17/2021 2:45:00 PM 4.03 39.254 0.119 7.11 8.04 13.27
3/17/2021 3:00:00 PM 4.22 39.596 0.12 7.1 7.25 13.22
3/17/2021 3:15:00 PM 4.41 39.938 0.119 7.12 7.5 13.17
3/17/2021 3:30:00 PM 4.56 40.208 0.12 7.12 7.45 13.12
3/17/2021 3:45:00 PM 4.72 40.496 0.12 7.13 7.61 13.07
3/17/2021 4:00:00 PM 4.88 40.784 0.12 7.13 7.64 13.02
3/17/2021 4:15:00 PM 5 41 0.12 7.14 7.85 12.96
3/17/2021 4:30:00 PM 5.12 41.216 0.12 7.14 10.22 12.91
3/17/2021 4:45:00 PM 5.24 41.432 0.12 7.14 9.12 12.85
3/17/2021 5:00:00 PM 5.34 41.612 0.12 7.14 7.57 12.8
3/17/2021 5:15:00 PM 5.42 41.756 0.12 7.13 8.7 12.74
3/17/2021 5:30:00 PM 5.48 41.864 0.12 7.13 7.67 12.69
3/17/2021 5:45:00 PM 5.52 41.936 0.121 7.14 7.31 12.63
3/17/2021 6:00:00 PM 5.55 41.99 0.121 7.11 7.34 12.59
3/17/2021 6:15:00 PM 5.57 42.026 0.121 7.12 6.95 12.54
3/17/2021 6:30:00 PM 5.57 42.026 0.121 7.07 7.12 12.49
3/17/2021 6:45:00 PM 5.56 42.008 0.121 7.07 7.41 12.44
3/17/2021 7:00:00 PM 5.53 41.954 0.121 7.06 7.12 12.4
3/17/2021 7:15:00 PM 5.49 41.882 0.121 7.06 7.92 12.35
3/17/2021 7:30:00 PM 5.44 41.792 0.121 7.06 9.32 12.31
3/17/2021 7:45:00 PM 5.38 41.684 0.122 7.06 8.82 12.28
3/17/2021 8:00:00 PM 5.32 41.576 0.122 7.07 8.02 12.25
3/17/2021 8:15:00 PM 5.25 41.45 0.122 7.01 8.29 12.23
3/17/2021 8:30:00 PM 5.18 41.324 0.122 7.05 7.72 12.22
3/17/2021 8:45:00 PM 5.11 41.198 0.122 7.02 7.38 12.21
3/17/2021 9:00:00 PM 5.03 41.054 0.122 7 12.27 12.19
3/17/2021 9:15:00 PM 4.96 40.928 0.122 7.01 7.91 12.19
3/17/2021 9:30:00 PM 4.88 40.784 0.122 7.02 7.71 12.2
3/17/2021 9:45:00 PM 4.79 40.622 0.123 7.04 7.99 12.2
3/17/2021 10:00:00 PM 4.72 40.496 0.123 7.05 8.73 12.2
3/17/2021 10:15:00 PM 4.64 40.352 0.123 7.05 7.92 12.2
3/17/2021 10:30:00 PM 4.56 40.208 0.123 6.97 7.54 12.21
3/17/2021 10:45:00 PM 4.49 40.082 0.123 6.94 7.58 12.22
3/17/2021 11:00:00 PM 4.43 39.974 0.123 6.95 7.96 12.23
3/17/2021 11:15:00 PM 4.36 39.848 0.123 6.96 12.76 12.24
3/17/2021 11:30:00 PM 4.3 39.74 0.123 6.96 12.62 12.25
3/17/2021 11:45:00 PM 4.23 39.614 0.123 6.95 24.41 12.26
3/18/2021 12:00:00 AM 4.17 39.506 0.121 6.99 15.72 12.27
3/18/2021 12:15:00 AM 4.12 39.416 0.122 6.98 17.3 12.28
3/18/2021 12:30:00 AM 4.08 39.344 0.122 6.98 14.2 12.29
3/18/2021 12:45:00 AM 4.03 39.254 0.122 6.97 11.7 12.3
3/18/2021 1:00:00 AM 3.99 39.182 0.122 6.97 14.2 12.32
3/18/2021 1:15:00 AM 3.95 39.11 0.122 6.98 14.54 12.34
3/18/2021 1:30:00 AM 3.91 39.038 0.121 6.98 13.29 12.36
3/18/2021 1:45:00 AM 3.88 38.984 0.122 6.98 14 12.36
3/18/2021 2:00:00 AM 3.83 38.894 0.121 6.97 13.4 12.38
3/18/2021 2:15:00 AM 3.79 38.822 0.121 6.97 15.64 12.4
3/18/2021 2:30:00 AM 3.75 38.75 0.121 6.95 14.34 12.42
3/18/2021 2:45:00 AM 3.71 38.678 0.121 6.97 14.61 12.43
3/18/2021 3:00:00 AM 3.66 38.588 0.12 6.97 19.51 12.46
3/18/2021 3:15:00 AM 3.62 38.516 0.12 6.97 17.59 12.46
3/18/2021 3:30:00 AM 3.58 38.444 0.12 6.96 16.87 12.48
3/18/2021 3:45:00 AM 3.54 38.372 0.12 6.96 15.55 12.5
3/18/2021 4:00:00 AM 3.49 38.282 0.12 6.96 15.25 12.52
3/18/2021 4:15:00 AM 3.45 38.21 0.12 6.96 17.04 12.53
3/18/2021 4:30:00 AM 3.41 38.138 0.12 6.96 18.19 12.54
3/18/2021 4:45:00 AM 3.37 38.066 0.12 6.97 17.42 12.56
3/18/2021 5:00:00 AM 3.33 37.994 0.12 6.96 18.94 12.58
3/18/2021 5:15:00 AM 3.29 37.922 0.12 6.96 18.34 12.59
3/18/2021 5:30:00 AM 3.24 37.832 0.12 6.96 19.12 12.62
3/18/2021 5:45:00 AM 3.2 37.76 0.12 6.95 64.56 12.63
3/18/2021 6:00:00 AM 3.16 37.688 0.12 6.95 11.03 12.65
3/18/2021 6:15:00 AM 3.12 37.616 0.12 6.95 17.03 12.67
3/18/2021 6:30:00 AM 3.08 37.544 0.12 6.95 16.09 12.68
3/18/2021 6:45:00 AM 3.04 37.472 0.12 6.96 16.44 12.7
3/18/2021 7:00:00 AM 3 37.4 0.12 6.95 20.94 12.72
3/18/2021 7:15:00 AM 2.96 37.328 0.12 6.95 13.91 12.73
3/18/2021 7:30:00 AM 2.92 37.256 0.12 6.96 17.12 12.74
3/18/2021 7:45:00 AM 2.89 37.202 0.121 6.96 16.77 12.76
3/18/2021 8:00:00 AM 2.86 37.148 0.122 6.96 17.26 12.77
3/18/2021 8:15:00 AM 2.83 37.094 0.122 6.96 18.06 12.79
3/18/2021 8:30:00 AM 2.81 37.058 0.122 6.96 16.38 12.81
3/18/2021 8:45:00 AM 2.78 37.004 0.122 6.97 22.76 12.83
3/18/2021 9:00:00 AM 2.77 36.986 0.122 6.97 17.51 12.86
3/18/2021 9:15:00 AM 2.75 36.95 0.121 6.97 19.18 12.87
3/18/2021 9:30:00 AM 2.73 36.914 0.121 6.97 15.6 12.9
3/18/2021 9:45:00 AM 2.72 36.896 0.12 6.97 16.27 12.92
3/18/2021 10:00:00 AM 2.71 36.878 0.12 6.98 11.82 12.95
3/18/2021 10:15:00 AM 2.71 36.878 0.12 6.97 16.4 12.96
3/18/2021 10:30:00 AM 2.7 36.86 0.119 6.99 17.9 12.99
3/18/2021 10:45:00 AM 2.7 36.86 0.119 7 11.47 12.99
3/18/2021 11:00:00 AM 2.7 36.86 0.119 6.99 14.88 13
3/18/2021 11:15:00 AM 2.7 36.86 0.119 7 19.44 13.03
3/18/2021 11:30:00 AM 2.71 36.878 0.118 7 17.05 13.03
3/18/2021 11:45:00 AM 2.72 36.896 0.118 7 19.12 13.06
3/18/2021 12:00:00 PM 2.74 36.932 0.119 7 45.27 13.07
3/18/2021 12:15:00 PM 2.75 36.95 0.119 7.01 16.45 13.07
3/18/2021 12:30:00 PM 2.76 36.968 0.119 7 20.8 13.09
3/18/2021 12:45:00 PM 2.77 36.986 0.121 7.01 38.18 13.09
3/18/2021 1:00:00 PM 2.77 36.986 0.123 7.01 33.19 13.1
3/18/2021 1:15:00 PM 2.76 36.968 0.126 7.01 39.07 13.11
3/18/2021 1:30:00 PM 2.73 36.914 0.128 7.01 45.28 13.12
3/18/2021 1:45:00 PM 2.71 36.878 0.131 7 50.67 13.12
3/18/2021 2:00:00 PM 2.71 36.878 0.134 6.99 84.26 13.1
3/18/2021 2:15:00 PM 2.73 36.914 0.135 6.97 82.68 13.07
3/18/2021 2:30:00 PM 2.73 36.914 0.136 6.98 64.12 13.07
3/18/2021 2:45:00 PM 2.73 36.914 0.137 6.99 67.64 13.09
3/18/2021 3:00:00 PM 2.74 36.932 0.137 7 68.35 13.11
3/18/2021 3:15:00 PM 2.74 36.932 0.138 7 65.56 13.11
3/18/2021 3:30:00 PM 2.73 36.914 0.138 7 80.71 13.12
3/18/2021 3:45:00 PM 2.74 36.932 0.138 7 77.6 13.12
3/18/2021 4:00:00 PM 2.76 36.968 0.138 7 81.11 13.12
3/18/2021 4:15:00 PM 2.77 36.986 0.136 7 82.86 13.11
3/18/2021 4:30:00 PM 2.77 36.986 0.133 7.01 78.42 13.11
3/18/2021 4:45:00 PM 2.75 36.95 0.132 7.03 80.46 13.11
3/18/2021 5:00:00 PM 2.74 36.932 0.131 7.03 84.92 13.11
3/18/2021 5:15:00 PM 2.73 36.914 0.13 7 596.8 13.12
3/18/2021 5:30:00 PM 2.72 36.896 0.13 6.98 99.88 13.11
3/18/2021 5:45:00 PM 2.71 36.878 0.129 6.98 111.98 13.11
3/18/2021 6:00:00 PM 2.69 36.842 0.128 7 107.71 13.13
3/18/2021 6:15:00 PM 2.67 36.806 0.128 6.97 130.66 13.12
3/18/2021 6:30:00 PM 2.66 36.788 0.129 6.96 134.72 13.12
3/18/2021 6:45:00 PM 2.65 36.77 0.13 6.96 113.44 13.11
3/18/2021 7:00:00 PM 2.63 36.734 0.131 6.97 137.87 13.1
3/18/2021 7:15:00 PM 2.61 36.698 0.13 6.95 152.09 13.1
3/18/2021 7:30:00 PM 2.59 36.662 0.129 6.97 200.5 13.1
3/18/2021 7:45:00 PM 2.57 36.626 0.128 6.96 140.1 13.09
3/18/2021 8:00:00 PM 2.56 36.608 0.126 6.95 177.43 13.11
3/18/2021 8:15:00 PM 2.54 36.572 0.124 6.95 112.72 13.11
3/18/2021 8:30:00 PM 2.53 36.554 0.123 6.95 115.41 13.1
3/18/2021 8:45:00 PM 2.51 36.518 0.121 6.97 99.11 13.1
3/18/2021 9:00:00 PM 2.5 36.5 0.12 6.96 100.46 13.11
3/18/2021 9:15:00 PM 2.48 36.464 0.119 6.97 79.21 13.11
3/18/2021 9:30:00 PM 2.46 36.428 0.118 6.95 81.45 13.1
3/18/2021 9:45:00 PM 2.44 36.392 0.117 6.94 79.54 13.1
3/18/2021 10:00:00 PM 2.42 36.356 0.116 6.9 66.7 13.12
3/18/2021 10:15:00 PM 2.39 36.302 0.115 6.9 79.31 13.12
3/18/2021 10:30:00 PM 2.37 36.266 0.114 6.88 57.49 13.13
3/18/2021 10:45:00 PM 2.34 36.212 0.114 6.88 55.15 13.12
3/18/2021 11:00:00 PM 2.31 36.158 0.113 6.89 53.69 13.13
3/18/2021 11:15:00 PM 2.28 36.104 0.112 6.88 45.18 13.14
3/18/2021 11:30:00 PM 2.25 36.05 0.112 6.88 55.68 13.15
3/18/2021 11:45:00 PM 2.21 35.978 0.112 6.88 44.47 13.16
3/19/2021 12:00:00 AM 2.17 35.906 0.11 6.89 43.98 13.17
3/19/2021 12:15:00 AM 2.13 35.834 0.111 6.88 45.18 13.18
3/19/2021 12:30:00 AM 2.09 35.762 0.111 6.88 42.51 13.2
3/19/2021 12:45:00 AM 2.05 35.69 0.11 6.88 40.66 13.21
3/19/2021 1:00:00 AM 2.01 35.618 0.11 6.88 44.16 13.22
3/19/2021 1:15:00 AM 1.97 35.546 0.11 6.89 34.22 13.23
3/19/2021 1:30:00 AM 1.92 35.456 0.11 6.89 38.47 13.24
3/19/2021 1:45:00 AM 1.87 35.366 0.11 6.88 34.53 13.26
3/19/2021 2:00:00 AM 1.83 35.294 0.11 6.86 35.69 13.27
3/19/2021 2:15:00 AM 1.78 35.204 0.11 6.86 35.06 13.28
3/19/2021 2:30:00 AM 1.74 35.132 0.109 6.87 34.59 13.3
3/19/2021 2:45:00 AM 1.69 35.042 0.109 6.87 33.53 13.31
3/19/2021 3:00:00 AM 1.64 34.952 0.109 6.87 36.51 13.32
3/19/2021 3:15:00 AM 1.58 34.844 0.109 6.87 30.66 13.34
3/19/2021 3:30:00 AM 1.53 34.754 0.109 6.88 30.31 13.36
3/19/2021 3:45:00 AM 1.47 34.646 0.109 6.88 29.7 13.38
3/19/2021 4:00:00 AM 1.41 34.538 0.109 6.88 29.07 13.4
3/19/2021 4:15:00 AM 1.36 34.448 0.109 6.88 27.75 13.42
3/19/2021 4:30:00 AM 1.3 34.34 0.109 6.89 28.28 13.44
3/19/2021 4:45:00 AM 1.24 34.232 0.109 6.87 27.22 13.46
3/19/2021 5:00:00 AM 1.18 34.124 0.109 6.87 26.72 13.48
3/19/2021 5:15:00 AM 1.12 34.016 0.109 6.87 25.92 13.5
3/19/2021 5:30:00 AM 1.06 33.908 0.109 6.87 24.22 13.52
3/19/2021 5:45:00 AM 1 33.8 0.109 6.86 24.08 13.54
3/19/2021 6:00:00 AM 0.94 33.692 0.109 6.89 23.69 13.56
3/19/2021 6:15:00 AM 0.89 33.602 0.109 6.86 23.51 13.59
3/19/2021 6:30:00 AM 0.83 33.494 0.109 6.89 23.21 13.6
3/19/2021 6:45:00 AM 0.78 33.404 0.109 6.87 23.09 13.63
3/19/2021 7:00:00 AM 0.72 33.296 0.109 6.86 22.88 13.65
3/19/2021 7:15:00 AM 0.66 33.188 0.109 6.86 22.65 13.67
3/19/2021 7:30:00 AM 0.61 33.098 0.109 6.86 23.5 13.7
3/19/2021 7:45:00 AM 0.56 33.008 0.109 6.84 22.18 13.73
3/19/2021 8:00:00 AM 0.51 32.918 0.109 6.87 22 13.75
3/19/2021 8:15:00 AM 0.46 32.828 0.109 6.86 21.39 13.78
3/19/2021 8:30:00 AM 0.43 32.774 0.109 6.87 22.79 13.81
3/19/2021 8:45:00 AM 0.39 32.702 0.109 6.84 22.92 13.83
3/19/2021 9:00:00 AM 0.37 32.666 0.109 6.87 21.49 13.86
3/19/2021 9:15:00 AM 0.35 32.63 0.109 6.88 20.37 13.89
3/19/2021 9:30:00 AM 0.34 32.612 0.109 6.88 20.45 13.92
3/19/2021 9:45:00 AM 0.35 32.63 0.109 6.88 20.12 13.94
3/19/2021 10:00:00 AM 0.37 32.666 0.108 6.88 19.78 13.96
3/19/2021 10:15:00 AM 0.4 32.72 0.108 6.88 19.28 13.98
3/19/2021 10:30:00 AM 0.46 32.828 0.108 6.89 20.14 14
3/19/2021 10:45:00 AM 0.53 32.954 0.108 6.91 18.81 14.01
3/19/2021 11:00:00 AM 0.62 33.116 0.108 6.89 18.48 14.01
3/19/2021 11:15:00 AM 0.73 33.314 0.108 6.91 18.48 14.02
3/19/2021 11:30:00 AM 0.86 33.548 0.108 6.93 18.13 14.02
3/19/2021 11:45:00 AM 0.99 33.782 0.108 6.94 17.56 14.01
3/19/2021 12:00:00 PM 1.15 34.07 0.108 6.93 17.52 13.99
3/19/2021 12:15:00 PM 1.32 34.376 0.108 6.94 17.59 13.97
3/19/2021 12:30:00 PM 1.49 34.682 0.108 6.94 18.05 13.94
3/19/2021 12:45:00 PM 1.67 35.006 0.108 6.95 16.8 13.91
3/19/2021 1:00:00 PM 1.86 35.348 0.108 6.97 16.31 13.89
3/19/2021 1:15:00 PM 2.05 35.69 0.108 6.96 16.13 13.84
3/19/2021 1:30:00 PM 2.24 36.032 0.108 6.98 17.25 13.8
3/19/2021 1:45:00 PM 2.44 36.392 0.108 6.99 15.76 13.75
3/19/2021 2:00:00 PM 2.63 36.734 0.108 6.98 16.13 13.71
3/19/2021 2:15:00 PM 2.82 37.076 0.107 6.99 15.14 13.67
3/19/2021 2:30:00 PM 3 37.4 0.107 6.98 14.99 13.62
3/19/2021 2:45:00 PM 3.18 37.724 0.107 7.01 15.23 13.57
3/19/2021 3:00:00 PM 3.35 38.03 0.107 7 15.46 13.51
3/19/2021 3:15:00 PM 3.52 38.336 0.107 7.01 15.22 13.46
3/19/2021 3:30:00 PM 3.66 38.588 0.107 7.01 15.06 13.42
3/19/2021 3:45:00 PM 3.8 38.84 0.106 7 15.14 13.36
3/19/2021 4:00:00 PM 3.91 39.038 0.106 7.01 14.85 13.31
3/19/2021 4:15:00 PM 4.02 39.236 0.106 7.02 15.01 13.26
3/19/2021 4:30:00 PM 4.1 39.38 0.106 6.99 15.06 13.21
3/19/2021 4:45:00 PM 4.16 39.488 0.106 7 14.77 13.17
3/19/2021 5:00:00 PM 4.2 39.56 0.106 6.99 15.22 13.13
3/19/2021 5:15:00 PM 4.23 39.614 0.105 6.99 15.85 13.09
3/19/2021 5:30:00 PM 4.23 39.614 0.105 6.98 15.61 13.05
3/19/2021 5:45:00 PM 4.22 39.596 0.105 6.97 16.47 13.01
3/19/2021 6:00:00 PM 4.19 39.542 0.105 6.98 15.52 12.99
3/19/2021 6:15:00 PM 4.15 39.47 0.105 6.97 15.52 12.96
3/19/2021 6:30:00 PM 4.11 39.398 0.105 6.95 15.63 12.93
3/19/2021 6:45:00 PM 4.05 39.29 0.105 6.96 15.91 12.91
3/19/2021 7:00:00 PM 3.98 39.164 0.105 6.95 1540.35 12.89
3/19/2021 7:15:00 PM 3.91 39.038 0.027 7 15.68 12.89
3/19/2021 7:30:00 PM 3.83 38.894 0.018 6.99 15.68 12.88
3/19/2021 7:45:00 PM 3.73 38.714 0.105 6.96 16.22 12.88
3/19/2021 8:00:00 PM 3.64 38.552 0.105 6.94 16.12 12.88
3/19/2021 8:15:00 PM 3.55 38.39 0.105 6.93 16.01 12.89
3/19/2021 8:30:00 PM 3.44 38.192 0.105 6.92 16.17 12.9
3/19/2021 8:45:00 PM 3.34 38.012 0.105 6.92 16.19 12.91
3/19/2021 9:00:00 PM 3.24 37.832 0.105 6.91 16.08 12.93
3/19/2021 9:15:00 PM 3.14 37.652 0.106 6.9 17.28 12.95
3/19/2021 9:30:00 PM 3.03 37.454 0.106 6.9 16.06 12.97
3/19/2021 9:45:00 PM 2.93 37.274 0.106 6.9 16.25 13
3/19/2021 10:00:00 PM 2.82 37.076 0.106 6.9 16.1 13.02
3/19/2021 10:15:00 PM 2.72 36.896 0.106 6.9 16.18 13.06
3/19/2021 10:30:00 PM 2.61 36.698 0.106 6.9 16.38 13.09
3/19/2021 10:45:00 PM 2.5 36.5 0.106 6.9 16.83 13.12
3/19/2021 11:00:00 PM 2.39 36.302 0.106 6.89 16.55 13.16
3/19/2021 11:15:00 PM 2.29 36.122 0.107 6.89 16.3 13.2
3/19/2021 11:30:00 PM 2.17 35.906 0.107 6.88 16.19 13.23
3/19/2021 11:45:00 PM 2.06 35.708 0.107 6.89 16.27 13.27
3/20/2021 12:00:00 AM 1.95 35.51 0.107 6.9 16.42 13.31
3/20/2021 12:15:00 AM 1.85 35.33 0.107 6.89 16.49 13.34
3/20/2021 12:30:00 AM 1.74 35.132 0.107 6.88 16.06 13.38
3/20/2021 12:45:00 AM 1.64 34.952 0.107 6.88 16.7 13.42
3/20/2021 1:00:00 AM 1.54 34.772 0.108 6.88 16.96 13.46
3/20/2021 1:15:00 AM 1.44 34.592 0.108 6.88 17.43 13.5
3/20/2021 1:30:00 AM 1.35 34.43 0.108 6.88 16.99 13.53
3/20/2021 1:45:00 AM 1.26 34.268 0.108 6.87 16.77 13.56
3/20/2021 2:00:00 AM 1.18 34.124 0.108 6.88 16.02 13.6
3/20/2021 2:15:00 AM 1.09 33.962 0.108 6.88 16.27 13.62
3/20/2021 2:30:00 AM 1.01 33.818 0.108 6.88 16.2 13.65
3/20/2021 2:45:00 AM 0.94 33.692 0.108 6.89 16.41 13.68
3/20/2021 3:00:00 AM 0.87 33.566 0.108 6.87 16.13 13.71
3/20/2021 3:15:00 AM 0.81 33.458 0.108 6.88 16.07 13.73
3/20/2021 3:30:00 AM 0.74 33.332 0.108 6.89 15.53 13.76
3/20/2021 3:45:00 AM 0.68 33.224 0.108 6.87 16.07 13.78
3/20/2021 4:00:00 AM 0.63 33.134 0.108 6.89 15.75 13.8
3/20/2021 4:15:00 AM 0.57 33.026 0.108 6.89 15.62 13.82
3/20/2021 4:30:00 AM 0.52 32.936 0.108 6.89 15.38 13.84
3/20/2021 4:45:00 AM 0.47 32.846 0.108 6.89 15.51 13.87
3/20/2021 5:00:00 AM 0.43 32.774 0.108 6.89 15.28 13.88
3/20/2021 5:15:00 AM 0.39 32.702 0.109 6.88 15.2 13.89
3/20/2021 5:30:00 AM 0.35 32.63 0.109 6.88 15.28 13.9
3/20/2021 5:45:00 AM 0.31 32.558 0.108 6.89 15.78 13.92
3/20/2021 6:00:00 AM 0.27 32.486 0.109 6.89 15.6 13.93
3/20/2021 6:15:00 AM 0.24 32.432 0.109 6.89 15.05 13.94
3/20/2021 6:30:00 AM 0.2 32.36 0.108 6.9 15.97 13.95
3/20/2021 6:45:00 AM 0.17 32.306 0.108 6.89 14.81 13.96
3/20/2021 7:00:00 AM 0.14 32.252 0.109 6.89 19.07 13.97
3/20/2021 7:15:00 AM 0.11 32.198 0.109 6.89 14.25 13.98
3/20/2021 7:30:00 AM 0.09 32.162 0.109 6.88 14.84 14
3/20/2021 7:45:00 AM 0.07 32.126 0.109 6.89 13.51 14.01
3/20/2021 8:00:00 AM 0.05 32.09 0.109 6.9 13.94 14.03
3/20/2021 8:15:00 AM 0.04 32.072 0.108 6.9 13.6 14.05
3/20/2021 8:30:00 AM 0.04 32.072 0.109 6.9 12.98 14.07
3/20/2021 8:45:00 AM 0.05 32.09 0.109 6.9 12.36 14.08
3/20/2021 9:00:00 AM 0.07 32.126 0.109 6.91 13.65 14.11
3/20/2021 9:15:00 AM 0.1 32.18 0.108 6.9 13.37 14.13
3/20/2021 9:30:00 AM 0.14 32.252 0.108 6.92 13.1 14.15
3/20/2021 9:45:00 AM 0.19 32.342 0.108 6.94 13.33 14.16
3/20/2021 10:00:00 AM 0.27 32.486 0.108 6.95 12.45 14.17
3/20/2021 10:15:00 AM 0.35 32.63 0.108 6.95 14.88 14.18
3/20/2021 10:30:00 AM 0.45 32.81 0.108 6.94 17.4 14.18
3/20/2021 10:45:00 AM 0.57 33.026 0.108 6.95 17.4 14.17
3/20/2021 11:00:00 AM 0.71 33.278 0.108 6.95 15.31 14.17
3/20/2021 11:15:00 AM 0.87 33.566 0.108 6.96 16.06 14.16
3/20/2021 11:30:00 AM 1.04 33.872 0.108 6.97 15.17 14.14
3/20/2021 11:45:00 AM 1.24 34.232 0.108 6.97 14.49 14.11
3/20/2021 12:00:00 PM 1.45 34.61 0.108 6.99 15.41 14.08
3/20/2021 12:15:00 PM 1.68 35.024 0.108 6.98 15.09 14.05
3/20/2021 12:30:00 PM 1.92 35.456 0.108 7 15.02 14.01
3/20/2021 12:45:00 PM 2.18 35.924 0.107 7.01 14.59 13.95
3/20/2021 1:00:00 PM 2.42 36.356 0.108 7.02 15.02 13.9
3/20/2021 1:15:00 PM 2.7 36.86 0.108 7.02 14.51 13.85
3/20/2021 1:30:00 PM 2.95 37.31 0.108 7.03 14.51 13.78
3/20/2021 1:45:00 PM 3.23 37.814 0.108 7.04 14.42 13.71
3/20/2021 2:00:00 PM 3.49 38.282 0.108 7.04 14.77 13.65
3/20/2021 2:15:00 PM 3.74 38.732 0.108 7.04 13.91 13.59
3/20/2021 2:30:00 PM 4 39.2 0.108 7.04 13.93 13.51
3/20/2021 2:45:00 PM 4.23 39.614 0.108 7.05 14.63 13.44
3/20/2021 3:00:00 PM 4.46 40.028 0.108 7.06 14.71 13.36
3/20/2021 3:15:00 PM 4.68 40.424 0.108 7.06 14.11 13.29
3/20/2021 3:30:00 PM 4.89 40.802 0.108 7.04 14.54 13.23
3/20/2021 3:45:00 PM 5.09 41.162 0.108 7.06 14.38 13.15
3/20/2021 4:00:00 PM 5.26 41.468 0.107 7.06 14.73 13.08
3/20/2021 4:15:00 PM 5.41 41.738 0.107 7.07 14.75 13.02
3/20/2021 4:30:00 PM 5.54 41.972 0.107 7.07 15.6 12.95
3/20/2021 4:45:00 PM 5.66 42.188 0.107 7.07 16.22 12.9
3/20/2021 5:00:00 PM 5.74 42.332 0.107 7.06 15.01 12.84
3/20/2021 5:15:00 PM 5.81 42.458 0.107 7.06 15.43 12.78
3/20/2021 5:30:00 PM 5.85 42.53 0.106 7.04 15.72 12.72
3/20/2021 5:45:00 PM 5.88 42.584 0.106 7.03 16.31 12.67
3/20/2021 6:00:00 PM 5.89 42.602 0.107 7.04 16.53 12.62
3/20/2021 6:15:00 PM 5.89 42.602 0.106 7.04 16.98 12.57
3/20/2021 6:30:00 PM 5.88 42.584 0.106 7.02 18.59 12.52
3/20/2021 6:45:00 PM 5.86 42.548 0.107 7.02 17 12.48
3/20/2021 7:00:00 PM 5.82 42.476 0.107 7 17.18 12.43
3/20/2021 7:15:00 PM 5.77 42.386 0.107 7 17.58 12.4
3/20/2021 7:30:00 PM 5.72 42.296 0.107 7 17.37 12.36
3/20/2021 7:45:00 PM 5.65 42.17 0.107 6.98 17.68 12.34
3/20/2021 8:00:00 PM 5.58 42.044 0.108 6.97 17.59 12.32
3/20/2021 8:15:00 PM 5.5 41.9 0.108 6.97 17.33 12.31
3/20/2021 8:30:00 PM 5.41 41.738 0.108 6.97 17.86 12.3
3/20/2021 8:45:00 PM 5.31 41.558 0.108 6.96 17.96 12.3
3/20/2021 9:00:00 PM 5.21 41.378 0.109 6.95 17.4 12.31
3/20/2021 9:15:00 PM 5.11 41.198 0.109 6.91 17.89 12.32
3/20/2021 9:30:00 PM 5 41 0.109 6.93 12.08 12.32
3/20/2021 9:45:00 PM 4.88 40.784 0.108 6.93 12.87 12.34
3/20/2021 10:00:00 PM 4.77 40.586 0.108 6.94 12.42 12.36
3/20/2021 10:15:00 PM 4.67 40.406 0.109 6.92 18.24 12.38
3/20/2021 10:30:00 PM 4.55 40.19 0.108 6.92 20.05 12.41
3/20/2021 10:45:00 PM 4.44 39.992 0.108 6.92 19.61 12.44
3/20/2021 11:00:00 PM 4.33 39.794 0.109 6.9 16.25 12.46
3/20/2021 11:15:00 PM 4.21 39.578 0.108 6.9 20.95 12.49
3/20/2021 11:30:00 PM 4.09 39.362 0.108 6.9 21.88 12.53
3/20/2021 11:45:00 PM 3.97 39.146 0.109 6.9 14.11 12.56
3/21/2021 12:00:00 AM 3.84 38.912 0.109 6.9 22.46 12.6
3/21/2021 12:15:00 AM 3.72 38.696 0.109 6.9 19.05 12.64
3/21/2021 12:30:00 AM 3.59 38.462 0.109 6.9 18.5 12.68
3/21/2021 12:45:00 AM 3.46 38.228 0.109 6.89 14.6 12.72
3/21/2021 1:00:00 AM 3.34 38.012 0.109 6.89 15.9 12.77
3/21/2021 1:15:00 AM 3.21 37.778 0.109 6.88 18.34 12.81
3/21/2021 1:30:00 AM 3.08 37.544 0.109 6.89 17.99 12.86
3/21/2021 1:45:00 AM 2.95 37.31 0.109 6.9 19.19 12.9
3/21/2021 2:00:00 AM 2.83 37.094 0.11 6.9 14.69 12.94
3/21/2021 2:15:00 AM 2.71 36.878 0.11 6.89 16.4 12.99
3/21/2021 2:30:00 AM 2.58 36.644 0.11 6.88 19.6 13.03
3/21/2021 2:45:00 AM 2.47 36.446 0.11 6.88 15.91 13.07
3/21/2021 3:00:00 AM 2.35 36.23 0.11 6.87 11.53 13.11
3/21/2021 3:15:00 AM 2.24 36.032 0.11 6.86 14.36 13.16
3/21/2021 3:30:00 AM 2.13 35.834 0.11 6.88 15.59 13.2
3/21/2021 3:45:00 AM 2.03 35.654 0.11 6.88 15.45 13.24
3/21/2021 4:00:00 AM 1.93 35.474 0.11 6.88 14.49 13.26
3/21/2021 4:15:00 AM 1.83 35.294 0.11 6.88 12.93 13.3
3/21/2021 4:30:00 AM 1.73 35.114 0.11 6.89 16.82 13.33
3/21/2021 4:45:00 AM 1.65 34.97 0.111 6.9 19.31 13.37
3/21/2021 5:00:00 AM 1.56 34.808 0.111 6.9 15.74 13.4
3/21/2021 5:15:00 AM 1.48 34.664 0.111 6.9 15.19 13.44
3/21/2021 5:30:00 AM 1.4 34.52 0.111 6.91 14.84 13.46
3/21/2021 5:45:00 AM 1.33 34.394 0.111 6.91 16.57 13.49
3/21/2021 6:00:00 AM 1.25 34.25 0.111 6.91 15.82 13.52
3/21/2021 6:15:00 AM 1.19 34.142 0.111 6.9 15.64 13.54
3/21/2021 6:30:00 AM 1.12 34.016 0.111 6.89 15.02 13.56
3/21/2021 6:45:00 AM 1.06 33.908 0.111 6.9 13.63 13.59
3/21/2021 7:00:00 AM 1 33.8 0.111 6.9 15.07 13.61
3/21/2021 7:15:00 AM 0.94 33.692 0.112 6.89 15.13 13.64
3/21/2021 7:30:00 AM 0.89 33.602 0.112 6.91 20.74 13.66
3/21/2021 7:45:00 AM 0.84 33.512 0.111 6.9 18.18 13.7
3/21/2021 8:00:00 AM 0.8 33.44 0.112 6.87 21.87 13.73
3/21/2021 8:15:00 AM 0.77 33.386 0.112 6.89 14.95 13.75
3/21/2021 8:30:00 AM 0.75 33.35 0.112 6.9 18.32 13.79
3/21/2021 8:45:00 AM 0.75 33.35 0.112 6.89 15.68 13.82
3/21/2021 9:00:00 AM 0.75 33.35 0.112 6.91 17.8 13.84
3/21/2021 9:15:00 AM 0.77 33.386 0.112 6.91 10.52 13.88
3/21/2021 9:30:00 AM 0.8 33.44 0.112 6.94 11.36 13.89
3/21/2021 9:45:00 AM 0.85 33.53 0.112 6.93 11.95 13.93
3/21/2021 10:00:00 AM 0.91 33.638 0.112 6.95 11.27 13.95
3/21/2021 10:15:00 AM 0.99 33.782 0.112 6.96 11.81 13.97
3/21/2021 10:30:00 AM 1.09 33.962 0.112 6.96 11.13 13.98
3/21/2021 10:45:00 AM 1.2 34.16 0.112 6.98 11.11 13.97
3/21/2021 11:00:00 AM 1.34 34.412 0.112 6.99 11.61 13.98
3/21/2021 11:15:00 AM 1.49 34.682 0.112 6.99 13.05 13.98
3/21/2021 11:30:00 AM 1.68 35.024 0.112 7.01 10.88 13.97
3/21/2021 11:45:00 AM 1.87 35.366 0.112 7.02 11.26 13.94
3/21/2021 12:00:00 PM 2.1 35.78 0.112 7.01 10.63 13.92
3/21/2021 12:15:00 PM 2.34 36.212 0.112 7.04 11.26 13.88
3/21/2021 12:30:00 PM 2.59 36.662 0.112 7.03 11.34 13.85
3/21/2021 12:45:00 PM 2.85 37.13 0.112 7.05 10.55 13.78
3/21/2021 1:00:00 PM 3.12 37.616 0.112 7.05 9.71 13.74
3/21/2021 1:15:00 PM 3.41 38.138 0.112 7.05 9.7 13.67
3/21/2021 1:30:00 PM 3.68 38.624 0.112 7.05 10.18 13.62
3/21/2021 1:45:00 PM 3.97 39.146 0.112 7.07 9.83 13.55
3/21/2021 2:00:00 PM 4.26 39.668 0.112 7.09 10.33 13.48
3/21/2021 2:15:00 PM 4.52 40.136 0.112 7.09 10.38 13.41
3/21/2021 2:30:00 PM 4.79 40.622 0.111 7.07 10.94 13.33
3/21/2021 2:45:00 PM 5.04 41.072 0.112 7.07 10.64 13.26
3/21/2021 3:00:00 PM 5.29 41.522 0.112 7.08 10.11 13.19
3/21/2021 3:15:00 PM 5.53 41.954 0.112 7.09 10.79 13.12
3/21/2021 3:30:00 PM 5.76 42.368 0.111 7.1 11.3 13.04
3/21/2021 3:45:00 PM 5.95 42.71 0.112 7.1 11.19 12.97
3/21/2021 4:00:00 PM 6.16 43.088 0.112 7.07 12.02 12.9
3/21/2021 4:15:00 PM 6.33 43.394 0.112 7.08 12.12 12.83
3/21/2021 4:30:00 PM 6.47 43.646 0.111 7.06 14.38 12.76
3/21/2021 4:45:00 PM 6.6 43.88 0.111 7.08 11.26 12.69
3/21/2021 5:00:00 PM 6.69 44.042 0.111 7.07 12.88 12.63
3/21/2021 5:15:00 PM 6.76 44.168 0.111 7.08 10.64 12.56
3/21/2021 5:30:00 PM 6.82 44.276 0.111 7.08 10.3 12.5
3/21/2021 5:45:00 PM 6.85 44.33 0.111 7.07 10.52 12.44
3/21/2021 6:00:00 PM 6.87 44.366 0.111 7.06 11.18 12.38
3/21/2021 6:15:00 PM 6.87 44.366 0.111 7.05 10.46 12.33
3/21/2021 6:30:00 PM 6.87 44.366 0.112 7.05 13.66 12.27
3/21/2021 6:45:00 PM 6.84 44.312 0.112 7.05 11.88 12.22
3/21/2021 7:00:00 PM 6.81 44.258 0.112 7.02 11.58 12.17
3/21/2021 7:15:00 PM 6.77 44.186 0.112 7.03 10.62 12.12
3/21/2021 7:30:00 PM 6.72 44.096 0.112 7.03 11.53 12.08
3/21/2021 7:45:00 PM 6.66 43.988 0.112 7.02 13.38 12.03
3/21/2021 8:00:00 PM 6.59 43.862 0.112 6.99 11.97 12
3/21/2021 8:15:00 PM 6.53 43.754 0.112 7 11.29 11.98
3/21/2021 8:30:00 PM 6.46 43.628 0.112 6.99 11.41 11.96
3/21/2021 8:45:00 PM 6.38 43.484 0.112 6.99 11.36 11.94
3/21/2021 9:00:00 PM 6.3 43.34 0.112 6.96 11.86 11.93
3/21/2021 9:15:00 PM 6.22 43.196 0.112 6.99 13.06 11.93
3/21/2021 9:30:00 PM 6.13 43.034 0.112 6.97 12.97 11.92
3/21/2021 9:45:00 PM 6.03 42.854 0.112 6.98 12.03 11.93
3/21/2021 10:00:00 PM 5.94 42.692 0.112 6.96 12.54 11.94
3/21/2021 10:15:00 PM 5.84 42.512 0.112 6.97 12.53 11.94
3/21/2021 10:30:00 PM 5.74 42.332 0.112 6.96 12.42 11.95
3/21/2021 10:45:00 PM 5.64 42.152 0.112 6.92 12.96 11.97
3/21/2021 11:00:00 PM 5.54 41.972 0.112 6.95 11.05 11.99
3/21/2021 11:15:00 PM 5.44 41.792 0.112 6.95 12.13 12.01
3/21/2021 11:30:00 PM 5.33 41.594 0.112 6.94 12.04 12.03
3/21/2021 11:45:00 PM 5.23 41.414 0.112 6.94 12.07 12.06
3/22/2021 12:00:00 AM 5.11 41.198 0.112 6.94 11.96 12.09
3/22/2021 12:15:00 AM 5 41 0.112 6.94 11.94 12.12
3/22/2021 12:30:00 AM 4.88 40.784 0.112 6.94 10.97 12.16
3/22/2021 12:45:00 AM 4.76 40.568 0.112 6.94 10.84 12.19
3/22/2021 1:00:00 AM 4.64 40.352 0.112 6.93 10.57 12.23
3/22/2021 1:15:00 AM 4.51 40.118 0.112 6.93 10.65 12.27
3/22/2021 1:30:00 AM 4.39 39.902 0.112 6.9 10.26 12.31
3/22/2021 1:45:00 AM 4.27 39.686 0.112 6.92 10.39 12.35
3/22/2021 2:00:00 AM 4.13 39.434 0.112 6.92 10.57 12.4
3/22/2021 2:15:00 AM 4 39.2 0.112 6.93 10.83 12.45
3/22/2021 2:30:00 AM 3.87 38.966 0.112 6.92 10.83 12.48
3/22/2021 2:45:00 AM 3.75 38.75 0.112 6.92 10.22 12.52
3/22/2021 3:00:00 AM 3.62 38.516 0.112 6.92 13.94 12.57
3/22/2021 3:15:00 AM 3.49 38.282 0.112 6.87 12.17 12.61
3/22/2021 3:30:00 AM 3.37 38.066 0.112 6.9 11.49 12.66
3/22/2021 3:45:00 AM 3.24 37.832 0.112 6.88 11.39 12.7
3/22/2021 4:00:00 AM 3.13 37.634 0.113 6.9 12.67 12.75
3/22/2021 4:15:00 AM 3.01 37.418 0.112 6.89 11.84 12.79
3/22/2021 4:30:00 AM 2.89 37.202 0.112 6.9 14.64 12.84
3/22/2021 4:45:00 AM 2.78 37.004 0.113 6.9 11.51 12.87
3/22/2021 5:00:00 AM 2.67 36.806 0.113 6.93 11.08 12.91
3/22/2021 5:15:00 AM 2.56 36.608 0.113 6.94 10.6 12.94
3/22/2021 5:30:00 AM 2.45 36.41 0.113 6.93 10.53 12.99
3/22/2021 5:45:00 AM 2.35 36.23 0.113 6.93 10.35 13.03
3/22/2021 6:00:00 AM 2.26 36.068 0.113 6.93 10.74 13.07
3/22/2021 6:15:00 AM 2.16 35.888 0.113 6.92 10.69 13.1
3/22/2021 6:30:00 AM 2.07 35.726 0.113 6.92 10.85 13.13
3/22/2021 6:45:00 AM 1.98 35.564 0.113 6.92 11.21 13.16
3/22/2021 7:00:00 AM 1.9 35.42 0.113 6.92 11.45 13.2
3/22/2021 7:15:00 AM 1.82 35.276 0.113 6.92 12.02 13.23
3/22/2021 7:30:00 AM 1.75 35.15 0.113 6.92 11.83 13.27
3/22/2021 7:45:00 AM 1.68 35.024 0.113 6.93 10.81 13.31
3/22/2021 8:00:00 AM 1.62 34.916 0.112 6.93 11.87 13.36
3/22/2021 8:15:00 AM 1.58 34.844 0.113 6.94 11.76 13.39
3/22/2021 8:30:00 AM 1.55 34.79 0.113 6.95 11.78 13.44
3/22/2021 8:45:00 AM 1.53 34.754 0.112 6.95 11.81 13.48
3/22/2021 9:00:00 AM 1.52 34.736 0.113 6.96 11.09 13.51
3/22/2021 9:15:00 AM 1.53 34.754 0.112 6.97 10.78 13.55
3/22/2021 9:30:00 AM 1.55 34.79 0.113 6.98 11.37 13.58
3/22/2021 9:45:00 AM 1.59 34.862 0.112 6.98 12.03 13.62
3/22/2021 10:00:00 AM 1.65 34.97 0.112 6.99 10.39 13.64
3/22/2021 10:15:00 AM 1.72 35.096 0.112 7 9.87 13.66
3/22/2021 10:30:00 AM 1.81 35.258 0.112 7 10.21 13.69
3/22/2021 10:45:00 AM 1.92 35.456 0.112 7.02 10.07 13.7
3/22/2021 11:00:00 AM 2.05 35.69 0.112 7.02 10.06 13.71
3/22/2021 11:15:00 AM 2.2 35.96 0.112 7.04 9.84 13.71
3/22/2021 11:30:00 AM 2.38 36.284 0.112 7.04 9.58 13.7
3/22/2021 11:45:00 AM 2.58 36.644 0.112 7.05 9.76 13.69
3/22/2021 12:00:00 PM 2.79 37.022 0.111 7.06 9.77 13.66
3/22/2021 12:15:00 PM 3.02 37.436 0.111 7.07 9.47 13.63
3/22/2021 12:30:00 PM 3.27 37.886 0.111 7.08 9.56 13.6
3/22/2021 12:45:00 PM 3.54 38.372 0.111 7.08 9.61 13.55
3/22/2021 1:00:00 PM 3.82 38.876 0.111 7.09 9.02 13.5
3/22/2021 1:15:00 PM 4.1 39.38 0.111 7.1 11.01 13.45
3/22/2021 1:30:00 PM 4.38 39.884 0.111 7.1 8.33 13.39
3/22/2021 1:45:00 PM 4.68 40.424 0.11 7.1 10.79 13.32
3/22/2021 2:00:00 PM 4.96 40.928 0.111 7.11 10.64 13.26
3/22/2021 2:15:00 PM 5.25 41.45 0.11 7.11 12.54 13.19
3/22/2021 2:30:00 PM 5.51 41.918 0.111 7.12 15.6 13.11
3/22/2021 2:45:00 PM 5.77 42.386 0.111 7.13 10.66 13.04
3/22/2021 3:00:00 PM 6.02 42.836 0.11 7.12 10.45 12.97
3/22/2021 3:15:00 PM 6.26 43.268 0.11 7.13 11.29 12.89
3/22/2021 3:30:00 PM 6.49 43.682 0.11 7.12 11.34 12.82
3/22/2021 3:45:00 PM 6.7 44.06 0.11 7.14 10.04 12.76
3/22/2021 4:00:00 PM 6.9 44.42 0.11 7.14 11.11 12.68
3/22/2021 4:15:00 PM 7.07 44.726 0.11 7.14 9.83 12.61
3/22/2021 4:30:00 PM 7.22 44.996 0.111 7.14 9.94 12.54
3/22/2021 4:45:00 PM 7.34 45.212 0.11 7.16 12.58 12.47
3/22/2021 5:00:00 PM 7.44 45.392 0.111 7.12 12.07 12.4
3/22/2021 5:15:00 PM 7.52 45.536 0.11 7.14 12.01 12.35
3/22/2021 5:30:00 PM 7.57 45.626 0.111 7.14 10.24 12.28
3/22/2021 5:45:00 PM 7.61 45.698 0.11 7.13 12.4 12.22
3/22/2021 6:00:00 PM 7.63 45.734 0.11 7.12 11.25 12.16
3/22/2021 6:15:00 PM 7.63 45.734 0.11 7.1 14.84 12.1
3/22/2021 6:30:00 PM 7.62 45.716 0.11 7.11 10.98 12.04
3/22/2021 6:45:00 PM 7.6 45.68 0.11 7.09 10.21 11.98
3/22/2021 7:00:00 PM 7.57 45.626 0.111 7.09 9.39 11.93
3/22/2021 7:15:00 PM 7.53 45.554 0.111 7.08 11.2 11.88
3/22/2021 7:30:00 PM 7.48 45.464 0.11 7.07 10.06 11.82
3/22/2021 7:45:00 PM 7.42 45.356 0.11 7.06 10.4 11.78
3/22/2021 8:00:00 PM 7.36 45.248 0.11 7.05 17.43 11.74
3/22/2021 8:15:00 PM 7.3 45.14 0.11 7.05 12.77 11.71
3/22/2021 8:30:00 PM 7.22 44.996 0.11 7.04 10.71 11.68
3/22/2021 8:45:00 PM 7.15 44.87 0.11 7.03 11.92 11.67
3/22/2021 9:00:00 PM 7.08 44.744 0.11 7.03 11.25 11.65
3/22/2021 9:15:00 PM 7 44.6 0.11 7 15.39 11.64
3/22/2021 9:30:00 PM 6.91 44.438 0.11 7.01 12.75 11.63
3/22/2021 9:45:00 PM 6.83 44.294 0.11 6.99 14.77 11.63
3/22/2021 10:00:00 PM 6.74 44.132 0.11 6.98 12.55 11.63
3/22/2021 10:15:00 PM 6.65 43.97 0.11 6.98 13.57 11.63
3/22/2021 10:30:00 PM 6.55 43.79 0.11 6.98 12.52 11.64
3/22/2021 10:45:00 PM 6.46 43.628 0.11 6.97 12.62 11.65
3/22/2021 11:00:00 PM 6.37 43.466 0.11 6.97 12.57 11.66
3/22/2021 11:15:00 PM 6.27 43.286 0.11 6.97 13.39 11.68
3/22/2021 11:30:00 PM 6.18 43.124 0.11 6.96 12.82 11.7
3/22/2021 11:45:00 PM 6.07 42.926 0.11 6.96 13.03 11.72
3/23/2021 12:00:00 AM 5.98 42.764 0.11 6.96 12.97 11.74
3/23/2021 12:15:00 AM 5.87 42.566 0.11 6.95 13.18 11.77
3/23/2021 12:30:00 AM 5.76 42.368 0.11 6.95 12.75 11.8
3/23/2021 12:45:00 AM 5.64 42.152 0.11 6.94 12.43 11.84
3/23/2021 1:00:00 AM 5.53 41.954 0.11 6.94 13.88 11.87
3/23/2021 1:15:00 AM 5.41 41.738 0.11 6.95 12.63 11.9
3/23/2021 1:30:00 AM 5.29 41.522 0.11 6.94 14.99 11.94
3/23/2021 1:45:00 AM 5.16 41.288 0.11 6.93 11.88 11.98
3/23/2021 2:00:00 AM 5.04 41.072 0.11 6.94 12.43 12.02
3/23/2021 2:15:00 AM 4.92 40.856 0.11 6.93 12.6 12.07
3/23/2021 2:30:00 AM 4.79 40.622 0.11 6.94 12.39 12.11
3/23/2021 2:45:00 AM 4.67 40.406 0.11 6.91 12.21 12.15
3/23/2021 3:00:00 AM 4.54 40.172 0.11 6.93 12.46 12.19
3/23/2021 3:15:00 AM 4.42 39.956 0.109 6.93 12.61 12.23
3/23/2021 3:30:00 AM 4.29 39.722 0.11 6.93 12.68 12.28
3/23/2021 3:45:00 AM 4.17 39.506 0.11 6.93 11.71 12.32
3/23/2021 4:00:00 AM 4.05 39.29 0.11 6.93 12.98 12.37
3/23/2021 4:15:00 AM 3.93 39.074 0.11 6.91 11.8 12.41
3/23/2021 4:30:00 AM 3.81 38.858 0.11 6.92 11.81 12.45
3/23/2021 4:45:00 AM 3.69 38.642 0.11 6.91 12.41 12.5
3/23/2021 5:00:00 AM 3.58 38.444 0.11 6.92 12.2 12.54
3/23/2021 5:15:00 AM 3.47 38.246 0.11 6.92 13.29 12.57
3/23/2021 5:30:00 AM 3.35 38.03 0.109 6.92 12.78 12.62
3/23/2021 5:45:00 AM 3.25 37.85 0.11 6.92 15.6 12.66
3/23/2021 6:00:00 AM 3.14 37.652 0.11 6.93 13.87 12.7
3/23/2021 6:15:00 AM 3.03 37.454 0.11 6.93 13.57 12.73
3/23/2021 6:30:00 AM 2.93 37.274 0.11 6.92 13.63 12.77
3/23/2021 6:45:00 AM 2.84 37.112 0.11 6.93 13.37 12.81
3/23/2021 7:00:00 AM 2.74 36.932 0.11 6.93 13.44 12.84
3/23/2021 7:15:00 AM 2.64 36.752 0.109 6.93 12.89 12.89
3/23/2021 7:30:00 AM 2.56 36.608 0.109 6.94 13.53 12.93
3/23/2021 7:45:00 AM 2.48 36.464 0.109 6.93 13.69 12.97
3/23/2021 8:00:00 AM 2.41 36.338 0.109 6.94 17.41 13.02
3/23/2021 8:15:00 AM 2.36 36.248 0.109 6.94 14.26 13.06
3/23/2021 8:30:00 AM 2.31 36.158 0.109 6.92 11.96 13.11
3/23/2021 8:45:00 AM 2.29 36.122 0.109 6.96 13.7 13.16
3/23/2021 9:00:00 AM 2.27 36.086 0.109 6.97 9.37 13.21
3/23/2021 9:15:00 AM 2.27 36.086 0.109 6.97 10.03 13.25
3/23/2021 9:30:00 AM 2.29 36.122 0.108 6.98 9.68 13.29
3/23/2021 9:45:00 AM 2.32 36.176 0.108 6.99 9.95 13.32
3/23/2021 10:00:00 AM 2.37 36.266 0.108 6.99 9.86 13.36
3/23/2021 10:15:00 AM 2.45 36.41 0.108 7.01 9.77 13.4
3/23/2021 10:30:00 AM 2.53 36.554 0.108 7.02 9.71 13.42
3/23/2021 10:45:00 AM 2.64 36.752 0.108 7.03 9.68 13.42
3/23/2021 11:00:00 AM 2.76 36.968 0.108 7.04 10.66 13.44
3/23/2021 11:15:00 AM 2.9 37.22 0.108 7.05 10.42 13.46
3/23/2021 11:30:00 AM 3.08 37.544 0.108 7.06 11.33 13.45
3/23/2021 11:45:00 AM 3.28 37.904 0.107 7.08 10.78 13.44
3/23/2021 12:00:00 PM 3.49 38.282 0.107 7.08 8.88 13.43
3/23/2021 12:15:00 PM 3.71 38.678 0.107 7.07 11.59 13.4
3/23/2021 12:30:00 PM 3.96 39.128 0.107 7.08 10.41 13.38
3/23/2021 12:45:00 PM 4.22 39.596 0.107 7.1 14.83 13.34
3/23/2021 1:00:00 PM 4.48 40.064 0.107 7.11 12 13.29
3/23/2021 1:15:00 PM 4.74 40.532 0.107 7.13 12.26 13.24
3/23/2021 1:30:00 PM 5.02 41.036 0.107 7.13 10.21 13.2
3/23/2021 1:45:00 PM 5.32 41.576 0.106 7.14 15.1 13.12
3/23/2021 2:00:00 PM 5.61 42.098 0.106 7.15 11.83 13.07
3/23/2021 2:15:00 PM 5.87 42.566 0.106 7.16 12.67 13
3/23/2021 2:30:00 PM 6.12 43.016 0.106 7.16 10.15 12.94
3/23/2021 2:45:00 PM 6.35 43.43 0.106 7.17 10.21 12.87
3/23/2021 3:00:00 PM 6.57 43.826 0.106 7.17 10.95 12.8
3/23/2021 3:15:00 PM 6.78 44.204 0.106 7.17 11.36 12.74
3/23/2021 3:30:00 PM 6.95 44.51 0.106 7.17 11.03 12.67
3/23/2021 3:45:00 PM 7.1 44.78 0.106 7.17 11.31 12.61
3/23/2021 4:00:00 PM 7.24 45.032 0.106 7.17 11.51 12.55
3/23/2021 4:15:00 PM 7.39 45.302 0.106 7.19 11.83 12.48
3/23/2021 4:30:00 PM 7.5 45.5 0.106 7.19 12.35 12.42
3/23/2021 4:45:00 PM 7.6 45.68 0.106 7.19 12.41 12.36
3/23/2021 5:00:00 PM 7.68 45.824 0.106 7.18 12.5 12.29
3/23/2021 5:15:00 PM 7.74 45.932 0.106 7.18 12.6 12.25
3/23/2021 5:30:00 PM 7.79 46.022 0.106 7.17 12.42 12.19
3/23/2021 5:45:00 PM 7.81 46.058 0.106 7.17 12.52 12.13
3/23/2021 6:00:00 PM 7.83 46.094 0.106 7.14 12.64 12.07
3/23/2021 6:15:00 PM 7.84 46.112 0.106 7.15 12.91 12.01
3/23/2021 6:30:00 PM 7.84 46.112 0.106 7.14 13.14 11.95
3/23/2021 6:45:00 PM 7.83 46.094 0.106 7.13 13.63 11.89
3/23/2021 7:00:00 PM 7.82 46.076 0.106 7.13 13.83 11.83
3/23/2021 7:15:00 PM 7.79 46.022 0.106 7.11 13.83 11.78
3/23/2021 7:30:00 PM 7.76 45.968 0.106 7.1 13.7 11.73
3/23/2021 7:45:00 PM 7.72 45.896 0.107 7.09 13.9 11.68
3/23/2021 8:00:00 PM 7.69 45.842 0.107 7.09 13.68 11.64
3/23/2021 8:15:00 PM 7.65 45.77 0.107 7.08 16.32 11.6
3/23/2021 8:30:00 PM 7.61 45.698 0.107 7.07 14.21 11.57
3/23/2021 8:45:00 PM 7.56 45.608 0.107 7.06 14.34 11.54
3/23/2021 9:00:00 PM 7.51 45.518 0.107 7.06 13.91 11.52
3/23/2021 9:15:00 PM 7.47 45.446 0.107 7.05 14.23 11.49
3/23/2021 9:30:00 PM 7.43 45.374 0.107 7.05 14.19 11.48
3/23/2021 9:45:00 PM 7.39 45.302 0.107 7.04 14.18 11.46
3/23/2021 10:00:00 PM 7.34 45.212 0.107 7.03 14.13 11.45
3/23/2021 10:15:00 PM 7.29 45.122 0.107 7.03 13.83 11.44
3/23/2021 10:30:00 PM 7.23 45.014 0.107 7.02 14.02 11.44
3/23/2021 10:45:00 PM 7.18 44.924 0.107 7.01 13.5 11.44
3/23/2021 11:00:00 PM 7.12 44.816 0.107 7 12.88 11.45
3/23/2021 11:15:00 PM 7.05 44.69 0.107 7 12.67 11.45
3/23/2021 11:30:00 PM 6.99 44.582 0.107 7 12 11.46
3/23/2021 11:45:00 PM 6.92 44.456 0.107 6.99 11.85 11.47
3/24/2021 12:00:00 AM 6.84 44.312 0.107 6.97 11.35 11.48
3/24/2021 12:15:00 AM 6.77 44.186 0.107 6.98 11.17 11.5
3/24/2021 12:30:00 AM 6.69 44.042 0.107 6.98 10.87 11.52
3/24/2021 12:45:00 AM 6.61 43.898 0.107 6.98 10.68 11.54
3/24/2021 1:00:00 AM 6.53 43.754 0.107 6.96 10.58 11.56
3/24/2021 1:15:00 AM 6.44 43.592 0.107 6.98 14.03 11.58
3/24/2021 1:30:00 AM 6.36 43.448 0.107 6.98 10.94 11.61
3/24/2021 1:45:00 AM 6.27 43.286 0.107 6.97 10.62 11.63
3/24/2021 2:00:00 AM 6.18 43.124 0.107 6.97 10.75 11.66
3/24/2021 2:15:00 AM 6.1 42.98 0.107 6.97 10.41 11.69
3/24/2021 2:30:00 AM 6.01 42.818 0.107 6.97 10.39 11.72
3/24/2021 2:45:00 AM 5.93 42.674 0.107 6.97 10.68 11.74
3/24/2021 3:00:00 AM 5.84 42.512 0.107 6.97 10.84 11.77
3/24/2021 3:15:00 AM 5.76 42.368 0.107 6.97 9.83 11.8
3/24/2021 3:30:00 AM 5.66 42.188 0.107 6.97 9.54 11.83
3/24/2021 3:45:00 AM 5.57 42.026 0.107 6.97 9.68 11.86
3/24/2021 4:00:00 AM 5.49 41.882 0.107 6.96 9.61 11.89
3/24/2021 4:15:00 AM 5.4 41.72 0.107 6.96 9.51 11.92
3/24/2021 4:30:00 AM 5.33 41.594 0.107 6.96 9.33 11.95
3/24/2021 4:45:00 AM 5.25 41.45 0.107 6.97 9.38 11.99
3/24/2021 5:00:00 AM 5.17 41.306 0.107 6.94 9.48 12.01
3/24/2021 5:15:00 AM 5.1 41.18 0.107 6.97 9.22 12.04
3/24/2021 5:30:00 AM 5.03 41.054 0.107 6.94 9.4 12.07
3/24/2021 5:45:00 AM 4.96 40.928 0.107 6.97 9.33 12.1
3/24/2021 6:00:00 AM 4.89 40.802 0.107 6.97 9.31 12.12
3/24/2021 6:15:00 AM 4.82 40.676 0.107 6.97 9.47 12.15
3/24/2021 6:30:00 AM 4.76 40.568 0.107 6.97 9.41 12.16
3/24/2021 6:45:00 AM 4.71 40.478 0.106 6.97 9.38 12.18
3/24/2021 7:00:00 AM 4.66 40.388 0.107 6.97 9.23 12.2
3/24/2021 7:15:00 AM 4.61 40.298 0.106 6.97 9.22 12.23
3/24/2021 7:30:00 AM 4.57 40.226 0.106 6.96 9.16 12.24
3/24/2021 7:45:00 AM 4.54 40.172 0.106 6.97 9.19 12.27
3/24/2021 8:00:00 AM 4.5 40.1 0.106 6.98 9.25 12.29
3/24/2021 8:15:00 AM 4.48 40.064 0.106 6.95 9.16 12.31
3/24/2021 8:30:00 AM 4.46 40.028 0.106 6.98 9.37 12.34
3/24/2021 8:45:00 AM 4.44 39.992 0.106 6.99 9.31 12.35
3/24/2021 9:00:00 AM 4.43 39.974 0.106 6.98 9.28 12.37
3/24/2021 9:15:00 AM 4.42 39.956 0.106 6.99 9.13 12.4
3/24/2021 9:30:00 AM 4.42 39.956 0.105 6.99 9 12.43
3/24/2021 9:45:00 AM 4.43 39.974 0.105 7.01 8.46 12.46
3/24/2021 10:00:00 AM 4.43 39.974 0.105 7.01 8.16 12.48
3/24/2021 10:15:00 AM 4.45 40.01 0.105 7.01 8.1 12.51
3/24/2021 10:30:00 AM 4.47 40.046 0.105 7.01 7.65 12.53
3/24/2021 10:45:00 AM 4.49 40.082 0.105 7.01 8.01 12.54
3/24/2021 11:00:00 AM 4.52 40.136 0.105 7.03 7.77 12.57
3/24/2021 11:15:00 AM 4.55 40.19 0.104 7.04 7.69 12.58
3/24/2021 11:30:00 AM 4.59 40.262 0.104 7.05 7.68 12.6
3/24/2021 11:45:00 AM 4.62 40.316 0.104 7.06 7.7 12.61
3/24/2021 12:00:00 PM 4.66 40.388 0.104 7.06 7.69 12.62
3/24/2021 12:15:00 PM 4.71 40.478 0.104 7.05 7.73 12.63
3/24/2021 12:30:00 PM 4.77 40.586 0.104 7.07 8.09 12.64
3/24/2021 12:45:00 PM 4.82 40.676 0.103 7.05 8.3 12.64
3/24/2021 1:00:00 PM 4.88 40.784 0.103 7.08 8.72 12.65
3/24/2021 1:15:00 PM 4.95 40.91 0.103 7.08 9.08 12.64
3/24/2021 1:30:00 PM 5.04 41.072 0.103 7.09 9.7 12.65
3/24/2021 1:45:00 PM 5.12 41.216 0.104 7.09 10.46 12.64
3/24/2021 2:00:00 PM 5.2 41.36 0.104 7.09 11.56 12.62
3/24/2021 2:15:00 PM 5.29 41.522 0.104 7.09 12.46 12.62
3/24/2021 2:30:00 PM 5.39 41.702 0.105 7.09 13.53 12.59
3/24/2021 2:45:00 PM 5.49 41.882 0.105 7.09 15.37 12.57
3/24/2021 3:00:00 PM 5.58 42.044 0.105 7.1 17.37 12.54
3/24/2021 3:15:00 PM 5.67 42.206 0.105 7.09 19.37 12.49
3/24/2021 3:30:00 PM 5.75 42.35 0.106 7.11 21.95 12.45
3/24/2021 3:45:00 PM 5.83 42.494 0.107 7.11 23.83 12.41
3/24/2021 4:00:00 PM 5.9 42.62 0.109 7.11 26.54 12.36
3/24/2021 4:15:00 PM 5.97 42.746 0.109 7.12 28.65 12.31
3/24/2021 4:30:00 PM 6.02 42.836 0.11 7.11 348.93 12.27
3/24/2021 4:45:00 PM 6.06 42.908 0.111 7.09 35.85 12.22
3/24/2021 5:00:00 PM 6.1 42.98 0.112 7.11 32.14 12.19
3/24/2021 5:15:00 PM 6.14 43.052 0.112 7.12 37.7 12.15
3/24/2021 5:30:00 PM 6.18 43.124 0.113 7.11 36.59 12.13
3/24/2021 5:45:00 PM 6.21 43.178 0.111 7.1 38.41 12.1
3/24/2021 6:00:00 PM 6.24 43.232 0.112 7.09 37.65 12.08
3/24/2021 6:15:00 PM 6.26 43.268 0.112 7.07 37.98 12.06
3/24/2021 6:30:00 PM 6.28 43.304 0.113 7.08 39.42 12.03
3/24/2021 6:45:00 PM 6.3 43.34 0.113 7.09 40.38 12.01
3/24/2021 7:00:00 PM 6.31 43.358 0.113 7.06 40.89 11.98
3/24/2021 7:15:00 PM 6.33 43.394 0.113 7.07 44.3 11.97
3/24/2021 7:30:00 PM 6.34 43.412 0.113 7.06 40.98 11.94
3/24/2021 7:45:00 PM 6.34 43.412 0.113 7.05 40.53 11.92
3/24/2021 8:00:00 PM 6.35 43.43 0.114 7.04 108.73 11.9
3/24/2021 8:15:00 PM 6.35 43.43 0.113 7.04 40.89 11.88
3/24/2021 8:30:00 PM 6.34 43.412 0.114 7.06 39.92 11.87
3/24/2021 8:45:00 PM 6.34 43.412 0.115 7.06 37.88 11.85
3/24/2021 9:00:00 PM 6.33 43.394 0.115 7.09 36.01 11.84
3/24/2021 9:15:00 PM 6.33 43.394 0.115 7.05 35.21 11.82
3/24/2021 9:30:00 PM 6.33 43.394 0.115 7.04 35.3 11.81
3/24/2021 9:45:00 PM 6.32 43.376 0.115 7.05 32.94 11.8
3/24/2021 10:00:00 PM 6.32 43.376 0.115 7.04 31.4 11.79
3/24/2021 10:15:00 PM 6.31 43.358 0.115 7.05 30.41 11.78
3/24/2021 10:30:00 PM 6.3 43.34 0.114 7.03 29.64 11.78
3/24/2021 10:45:00 PM 6.29 43.322 0.114 7.03 28.62 11.77
3/24/2021 11:00:00 PM 6.28 43.304 0.113 7.04 27.83 11.77
3/24/2021 11:15:00 PM 6.27 43.286 0.113 7.04 27.02 11.77
3/24/2021 11:30:00 PM 6.25 43.25 0.112 7.02 26.03 11.77
3/24/2021 11:45:00 PM 6.23 43.214 0.111 7.01 25.6 11.77
3/25/2021 12:00:00 AM 6.21 43.178 0.111 7.02 24.71 11.77
3/25/2021 12:15:00 AM 6.19 43.142 0.11 6.97 23.77 11.78
3/25/2021 12:30:00 AM 6.17 43.106 0.11 7 23.17 11.78
3/25/2021 12:45:00 AM 6.14 43.052 0.109 7.01 23.85 11.79
3/25/2021 1:00:00 AM 6.12 43.016 0.109 7.01 21.52 11.8
3/25/2021 1:15:00 AM 6.09 42.962 0.108 7.01 21.21 11.8
3/25/2021 1:30:00 AM 6.06 42.908 0.108 6.99 20.66 11.8
3/25/2021 1:45:00 AM 6.04 42.872 0.108 6.95 20.06 11.81
3/25/2021 2:00:00 AM 6.01 42.818 0.107 7.01 19.63 11.81
3/25/2021 2:15:00 AM 5.99 42.782 0.107 6.97 19.51 11.82
3/25/2021 2:30:00 AM 5.97 42.746 0.107 6.99 18.81 11.83
3/25/2021 2:45:00 AM 5.94 42.692 0.107 6.98 18.41 11.83
3/25/2021 3:00:00 AM 5.92 42.656 0.106 6.97 18.27 11.84
3/25/2021 3:15:00 AM 5.89 42.602 0.106 6.97 18.02 11.84
3/25/2021 3:30:00 AM 5.86 42.548 0.106 6.95 17.28 11.85
3/25/2021 3:45:00 AM 5.84 42.512 0.106 6.99 17.92 11.86
3/25/2021 4:00:00 AM 5.82 42.476 0.106 6.98 16.36 11.86
3/25/2021 4:15:00 AM 5.79 42.422 0.105 6.98 16.17 11.87
3/25/2021 4:30:00 AM 5.78 42.404 0.105 6.99 15.84 11.87
3/25/2021 4:45:00 AM 5.76 42.368 0.105 6.98 16 11.87
3/25/2021 5:00:00 AM 5.74 42.332 0.105 6.99 15.73 11.88
3/25/2021 5:15:00 AM 5.73 42.314 0.104 6.98 15.5 11.88
3/25/2021 5:30:00 AM 5.71 42.278 0.104 6.98 15.6 11.89
3/25/2021 5:45:00 AM 5.7 42.26 0.104 6.98 15.33 11.89
3/25/2021 6:00:00 AM 5.69 42.242 0.104 6.98 14.95 11.89
3/25/2021 6:15:00 AM 5.67 42.206 0.104 6.98 15.11 11.9
3/25/2021 6:30:00 AM 5.66 42.188 0.103 6.98 15.19 11.91
3/25/2021 6:45:00 AM 5.65 42.17 0.103 6.98 203.24 11.91
3/25/2021 7:00:00 AM 5.64 42.152 0.103 6.97 15.22 11.91
3/25/2021 7:15:00 AM 5.64 42.152 0.103 6.98 15.02 11.91
3/25/2021 7:30:00 AM 5.63 42.134 0.103 6.97 14.82 11.92
3/25/2021 7:45:00 AM 5.63 42.134 0.103 6.99 15.46 11.93
3/25/2021 8:00:00 AM 5.63 42.134 0.103 6.98 15.73 11.94
3/25/2021 8:15:00 AM 5.64 42.152 0.103 6.96 16.58 11.96
3/25/2021 8:30:00 AM 5.66 42.188 0.102 6.99 14.68 11.97
3/25/2021 8:45:00 AM 5.7 42.26 0.102 7.01 14.74 12
3/25/2021 9:00:00 AM 5.74 42.332 0.102 7.02 14.84 12.02
3/25/2021 9:15:00 AM 5.78 42.404 0.102 6.99 14.71 12.05
3/25/2021 9:30:00 AM 5.82 42.476 0.102 7.03 14.45 12.08
3/25/2021 9:45:00 AM 5.88 42.584 0.102 7 16.04 12.1
3/25/2021 10:00:00 AM 5.94 42.692 0.102 7.04 13.51 12.12
3/25/2021 10:15:00 AM 6.01 42.818 0.102 7.05 16.74 12.14
3/25/2021 10:30:00 AM 6.09 42.962 0.102 7.06 12.46 12.16
3/25/2021 10:45:00 AM 6.22 43.196 0.101 7.08 13.52 12.19
3/25/2021 11:00:00 AM 6.31 43.358 0.101 7.09 13.61 12.19
3/25/2021 11:15:00 AM 6.45 43.61 0.101 7.09 13.31 12.2
3/25/2021 11:30:00 AM 6.6 43.88 0.101 7.11 16.66 12.21
3/25/2021 11:45:00 AM 6.78 44.204 0.101 7.11 12.87 12.21
3/25/2021 12:00:00 PM 6.96 44.528 0.101 7.13 14.65 12.2
3/25/2021 12:15:00 PM 7.14 44.852 0.101 7.14 13.74 12.19
3/25/2021 12:30:00 PM 7.36 45.248 0.101 7.14 11.25 12.17
3/25/2021 12:45:00 PM 7.58 45.644 0.101 7.15 11.35 12.16
3/25/2021 1:00:00 PM 7.79 46.022 0.101 7.16 12.26 12.14
3/25/2021 1:15:00 PM 8.01 46.418 0.101 7.16 13.97 12.11
3/25/2021 1:30:00 PM 8.25 46.85 0.101 7.18 11.68 12.07
3/25/2021 1:45:00 PM 8.49 47.282 0.101 7.19 10.94 12.03
3/25/2021 2:00:00 PM 8.76 47.768 0.101 7.18 10.77 11.99
3/25/2021 2:15:00 PM 9.02 48.236 0.101 7.17 12.19 11.94
3/25/2021 2:30:00 PM 9.25 48.65 0.101 7.21 10.89 11.89
3/25/2021 2:45:00 PM 9.47 49.046 0.101 7.2 11.19 11.83
3/25/2021 3:00:00 PM 9.67 49.406 0.101 7.22 10.95 11.79
3/25/2021 3:15:00 PM 9.89 49.802 0.101 7.21 11.9 11.73
3/25/2021 3:30:00 PM 10.06 50.108 0.101 7.22 10.76 11.68
3/25/2021 3:45:00 PM 10.22 50.396 0.101 7.24 10.88 11.63
3/25/2021 4:00:00 PM 10.34 50.612 0.101 7.25 11.02 11.58
3/25/2021 4:15:00 PM 10.45 50.81 0.101 7.25 10.98 11.53
3/25/2021 4:30:00 PM 10.54 50.972 0.101 7.24 11.19 11.48
3/25/2021 4:45:00 PM 10.63 51.134 0.101 7.23 11.25 11.43
3/25/2021 5:00:00 PM 10.69 51.242 0.101 7.18 11.66 11.37
3/25/2021 5:15:00 PM 10.74 51.332 0.101 7.23 12.45 11.32
3/25/2021 5:30:00 PM 10.78 51.404 0.101 7.21 13.2 11.25
3/25/2021 5:45:00 PM 10.79 51.422 0.101 7.22 13.73 11.19
3/25/2021 6:00:00 PM 10.8 51.44 0.101 7.2 14.86 11.14
3/25/2021 6:15:00 PM 10.78 51.404 0.101 7.18 14.69 11.08
3/25/2021 6:30:00 PM 10.76 51.368 0.101 7.17 17.13 11.04
3/25/2021 6:45:00 PM 10.73 51.314 0.101 7.17 16.15 10.99
3/25/2021 7:00:00 PM 10.7 51.26 0.102 7.16 13.88 10.95
3/25/2021 7:15:00 PM 10.66 51.188 0.101 7.15 18.05 10.91
3/25/2021 7:30:00 PM 10.61 51.098 0.102 7.15 13.18 10.86
3/25/2021 7:45:00 PM 10.56 51.008 0.102 7.13 13.26 10.82
3/25/2021 8:00:00 PM 10.51 50.918 0.102 7.11 13.27 10.79
3/25/2021 8:15:00 PM 10.45 50.81 0.102 7.09 13.13 10.76
3/25/2021 8:30:00 PM 10.39 50.702 0.102 7.09 12.67 10.73
3/25/2021 8:45:00 PM 10.32 50.576 0.102 7.08 12.67 10.71
3/25/2021 9:00:00 PM 10.26 50.468 0.102 7.05 12.32 10.69
3/25/2021 9:15:00 PM 10.19 50.342 0.102 7.07 15.48 10.67
3/25/2021 9:30:00 PM 10.12 50.216 0.102 7.05 13 10.66
3/25/2021 9:45:00 PM 10.05 50.09 0.103 7.04 17.43 10.66
3/25/2021 10:00:00 PM 9.98 49.964 0.103 7.04 13.35 10.65
3/25/2021 10:15:00 PM 9.9 49.82 0.103 7.03 13.44 10.66
3/25/2021 10:30:00 PM 9.83 49.694 0.103 7.02 12.86 10.66
3/25/2021 10:45:00 PM 9.76 49.568 0.103 7.01 12.64 10.68
3/25/2021 11:00:00 PM 9.67 49.406 0.103 7.02 12.6 10.69
3/25/2021 11:15:00 PM 9.58 49.244 0.103 7.01 13.82 10.71
3/25/2021 11:30:00 PM 9.49 49.082 0.104 6.98 13.52 10.72
3/25/2021 11:45:00 PM 9.41 48.938 0.104 7 12.74 10.74
3/26/2021 12:00:00 AM 9.32 48.776 0.104 7 13.37 10.76
3/26/2021 12:15:00 AM 9.24 48.632 0.104 7 12.26 10.78
3/26/2021 12:30:00 AM 9.16 48.488 0.104 7.02 13.84 10.79
3/26/2021 12:45:00 AM 9.08 48.344 0.104 7 12.74 10.81
3/26/2021 1:00:00 AM 8.99 48.182 0.104 6.96 13.63 10.83
3/26/2021 1:15:00 AM 8.92 48.056 0.104 6.98 16.47 10.85
3/26/2021 1:30:00 AM 8.83 47.894 0.104 6.99 13.66 10.87
3/26/2021 1:45:00 AM 8.74 47.732 0.104 6.99 15.16 10.89
3/26/2021 2:00:00 AM 8.67 47.606 0.104 7 12.78 10.91
3/26/2021 2:15:00 AM 8.58 47.444 0.104 6.99 16.23 10.93
3/26/2021 2:30:00 AM 8.5 47.3 0.104 6.99 12.22 10.95
3/26/2021 2:45:00 AM 8.42 47.156 0.104 6.99 12.67 10.97
3/26/2021 3:00:00 AM 8.34 47.012 0.103 6.99 13.58 10.99
3/26/2021 3:15:00 AM 8.26 46.868 0.103 6.99 13.49 11.01
3/26/2021 3:30:00 AM 8.2 46.76 0.103 6.99 14.23 11.02
3/26/2021 3:45:00 AM 8.13 46.634 0.103 6.98 12.24 11.04
3/26/2021 4:00:00 AM 8.07 46.526 0.103 6.97 11.54 11.05
3/26/2021 4:15:00 AM 8.01 46.418 0.103 6.99 11.55 11.07
3/26/2021 4:30:00 AM 7.95 46.31 0.103 7 11.78 11.08
3/26/2021 4:45:00 AM 7.9 46.22 0.103 6.99 11.2 11.09
3/26/2021 5:00:00 AM 7.85 46.13 0.103 6.98 19.18 11.1
3/26/2021 5:15:00 AM 7.8 46.04 0.103 6.99 16.61 11.12
3/26/2021 5:30:00 AM 7.76 45.968 0.103 6.99 10.88 11.12
3/26/2021 5:45:00 AM 7.72 45.896 0.103 6.95 10.84 11.12
3/26/2021 6:00:00 AM 7.68 45.824 0.103 6.99 10.98 11.13
3/26/2021 6:15:00 AM 7.65 45.77 0.103 6.98 10.73 11.13
3/26/2021 6:30:00 AM 7.63 45.734 0.103 6.99 10.93 11.13
3/26/2021 6:45:00 AM 7.62 45.716 0.103 7 10.81 11.14
3/26/2021 7:00:00 AM 7.6 45.68 0.103 6.99 10.91 11.15
3/26/2021 7:15:00 AM 7.59 45.662 0.102 7 10.96 11.15
3/26/2021 7:30:00 AM 7.59 45.662 0.103 7 10.94 11.16
3/26/2021 7:45:00 AM 7.59 45.662 0.103 7 10.77 11.16
3/26/2021 8:00:00 AM 7.6 45.68 0.103 6.99 10.55 11.18
3/26/2021 8:15:00 AM 7.61 45.698 0.103 7.01 10.39 11.19
3/26/2021 8:30:00 AM 7.63 45.734 0.103 7.01 10.29 11.21
3/26/2021 8:45:00 AM 7.66 45.788 0.103 7.02 10.1 11.23
3/26/2021 9:00:00 AM 7.73 45.914 0.103 7.03 10.02 11.25
3/26/2021 9:15:00 AM 7.81 46.058 0.103 7.06 10.14 11.29
3/26/2021 9:30:00 AM 7.91 46.238 0.103 7.06 10.35 11.31
3/26/2021 9:45:00 AM 8.02 46.436 0.103 7.09 10.18 11.34
3/26/2021 10:00:00 AM 8.14 46.652 0.103 7.08 9.98 11.36
3/26/2021 10:15:00 AM 8.26 46.868 0.103 7.1 9.93 11.38
3/26/2021 10:30:00 AM 8.38 47.084 0.103 7.12 9.68 11.4
3/26/2021 10:45:00 AM 8.47 47.246 0.103 7.12 9.77 11.41
3/26/2021 11:00:00 AM 8.64 47.552 0.103 7.14 9.77 11.43
3/26/2021 11:15:00 AM 8.74 47.732 0.103 7.15 9.6 11.42
3/26/2021 11:30:00 AM 8.83 47.894 0.103 7.12 9.82 11.41
3/26/2021 11:45:00 AM 8.91 48.038 0.103 7.16 10.74 11.39
3/26/2021 12:00:00 PM 9 48.2 0.103 7.16 9.22 11.4
3/26/2021 12:15:00 PM 9.13 48.434 0.103 7.18 15.07 11.38
3/26/2021 12:30:00 PM 9.23 48.614 0.103 7.18 13.45 11.37
3/26/2021 12:45:00 PM 9.34 48.812 0.103 7.19 9.54 11.36
3/26/2021 1:00:00 PM 9.41 48.938 0.103 7.2 9.55 11.34
3/26/2021 1:15:00 PM 9.51 49.118 0.103 7.2 9.61 11.33
3/26/2021 1:30:00 PM 9.57 49.226 0.103 7.21 9.39 11.32
3/26/2021 1:45:00 PM 9.63 49.334 0.103 7.2 9.55 11.31
3/26/2021 2:00:00 PM 9.7 49.46 0.103 7.22 9.44 11.3
3/26/2021 2:15:00 PM 9.74 49.532 0.103 7.22 9.88 11.29
3/26/2021 2:30:00 PM 9.79 49.622 0.103 7.22 9.51 11.27
3/26/2021 2:45:00 PM 9.83 49.694 0.103 7.22 9.3 11.26
3/26/2021 3:00:00 PM 9.86 49.748 0.103 7.22 9.87 11.22
3/26/2021 3:15:00 PM 9.91 49.838 0.103 7.22 9.45 11.21
3/26/2021 3:30:00 PM 9.97 49.946 0.103 7.22 9.51 11.2
3/26/2021 3:45:00 PM 10.05 50.09 0.103 7.22 13.45 11.2
3/26/2021 4:00:00 PM 10.15 50.27 0.103 7.24 10.68 11.19
3/26/2021 4:15:00 PM 10.18 50.324 0.103 7.24 10.92 11.18
3/26/2021 4:30:00 PM 10.17 50.306 0.103 7.23 20.57 11.15
3/26/2021 4:45:00 PM 10.15 50.27 0.104 7.23 1156.46 11.12
3/26/2021 5:00:00 PM 10.15 50.27 0.104 7.22 109.81 11.13
3/26/2021 5:15:00 PM 10.14 50.252 0.104 7.22 12.79 11.12
3/26/2021 5:30:00 PM 10.12 50.216 0.104 7.18 54.51 11.08
3/26/2021 5:45:00 PM 10.09 50.162 0.104 7.21 11.87 11.06
3/26/2021 6:00:00 PM 10.06 50.108 0.104 7.2 298.68 11.03
3/26/2021 6:15:00 PM 10.01 50.018 0.104 7.2 12.18 11
3/26/2021 6:30:00 PM 9.95 49.91 0.104 7.18 155.7 10.97
3/26/2021 6:45:00 PM 9.9 49.82 0.104 7.17 43.71 10.95
3/26/2021 7:00:00 PM 9.83 49.694 0.104 7.17 8.12 10.93
3/26/2021 7:15:00 PM 9.76 49.568 0.104 7.16 450.37 10.9
3/26/2021 7:30:00 PM 9.69 49.442 0.104 7.14 8.65 10.88
3/26/2021 7:45:00 PM 9.61 49.298 0.105 7.13 76.85 10.86
3/26/2021 8:00:00 PM 9.54 49.172 0.105 7.1 8.47 10.86
3/26/2021 8:15:00 PM 9.46 49.028 0.105 7.11 9.42 10.84
3/26/2021 8:30:00 PM 9.38 48.884 0.105 7.1 166.22 10.84
3/26/2021 8:45:00 PM 9.3 48.74 0.105 7.09 143.03 10.84
3/26/2021 9:00:00 PM 9.22 48.596 0.105 7.08 63.76 10.84
3/26/2021 9:15:00 PM 9.14 48.452 0.105 7.08 48.77 10.84
3/26/2021 9:30:00 PM 9.07 48.326 0.105 7.07 8.75 10.85
3/26/2021 9:45:00 PM 9 48.2 0.105 7.08 158.85 10.86
3/26/2021 10:00:00 PM 8.93 48.074 0.106 7.08 167.07 10.86
3/26/2021 10:15:00 PM 8.85 47.93 0.106 7.07 10.49 10.87
3/26/2021 10:30:00 PM 8.78 47.804 0.106 7.07 9.47 10.88
3/26/2021 10:45:00 PM 8.71 47.678 0.106 7.06 212.61 10.89
3/26/2021 11:00:00 PM 8.65 47.57 0.106 7.06 33.09 10.91
3/26/2021 11:15:00 PM 8.57 47.426 0.106 7.06 10.94 10.93
3/26/2021 11:30:00 PM 8.49 47.282 0.105 7.05 9.9 10.94
3/26/2021 11:45:00 PM 8.43 47.174 0.106 7.06 9.31 10.96
3/27/2021 12:00:00 AM 8.35 47.03 0.106 7.05 9.26 10.97
3/27/2021 12:15:00 AM 8.28 46.904 0.106 7.07 9.46 10.99
3/27/2021 12:30:00 AM 8.21 46.778 0.106 7.02 9.65 11.01
3/27/2021 12:45:00 AM 8.15 46.67 0.106 7.06 9.46 11.02
3/27/2021 1:00:00 AM 8.08 46.544 0.106 7.06 9.1 11.04
3/27/2021 1:15:00 AM 8.02 46.436 0.107 7.06 8.8 11.05
3/27/2021 1:30:00 AM 7.95 46.31 0.107 7.03 8.87 11.07
3/27/2021 1:45:00 AM 7.88 46.184 0.107 7.06 9.37 11.09
3/27/2021 2:00:00 AM 7.81 46.058 0.107 7.06 8.77 11.1
3/27/2021 2:15:00 AM 7.74 45.932 0.107 7.06 8.86 11.13
3/27/2021 2:30:00 AM 7.67 45.806 0.107 7.06 9.08 11.14
3/27/2021 2:45:00 AM 7.61 45.698 0.107 7.06 8.78 11.16
3/27/2021 3:00:00 AM 7.55 45.59 0.107 7.07 9 11.17
3/27/2021 3:15:00 AM 7.5 45.5 0.107 7.03 8.62 11.19
3/27/2021 3:30:00 AM 7.46 45.428 0.107 7.03 8.61 11.2
3/27/2021 3:45:00 AM 7.41 45.338 0.107 7.03 8.56 11.22
3/27/2021 4:00:00 AM 7.36 45.248 0.107 7.04 8.68 11.22
3/27/2021 4:15:00 AM 7.31 45.158 0.107 7.04 9.24 11.24
3/27/2021 4:30:00 AM 7.26 45.068 0.108 7.04 9.15 11.26
3/27/2021 4:45:00 AM 7.22 44.996 0.108 7.05 9.02 11.27
3/27/2021 5:00:00 AM 7.18 44.924 0.108 7.06 8.86 11.28
3/27/2021 5:15:00 AM 7.14 44.852 0.108 7.05 8.98 11.29
3/27/2021 5:30:00 AM 7.1 44.78 0.108 7.05 8.83 11.31
3/27/2021 5:45:00 AM 7.06 44.708 0.108 7.05 8.72 11.32
3/27/2021 6:00:00 AM 7.02 44.636 0.109 7.01 8.72 11.33
3/27/2021 6:15:00 AM 6.99 44.582 0.108 7.05 8.71 11.34
3/27/2021 6:30:00 AM 6.96 44.528 0.109 7.05 8.43 11.35
3/27/2021 6:45:00 AM 6.93 44.474 0.109 7.08 9.15 11.36
3/27/2021 7:00:00 AM 6.9 44.42 0.109 7.06 8.49 11.37
3/27/2021 7:15:00 AM 6.87 44.366 0.109 7.08 8.7 11.38
3/27/2021 7:30:00 AM 6.85 44.33 0.109 7.06 8.64 11.39
3/27/2021 7:45:00 AM 6.83 44.294 0.109 7.07 8.64 11.41
3/27/2021 8:00:00 AM 6.81 44.258 0.109 7.07 8.56 11.44
3/27/2021 8:15:00 AM 6.8 44.24 0.109 7.08 8.68 11.48
3/27/2021 8:30:00 AM 6.79 44.222 0.11 7.09 8.68 11.51
3/27/2021 8:45:00 AM 6.79 44.222 0.11 7.09 8.85 11.55
3/27/2021 9:00:00 AM 6.78 44.204 0.11 7.09 8.42 11.58
3/27/2021 9:15:00 AM 6.78 44.204 0.11 7.11 8.45 11.62
3/27/2021 9:30:00 AM 6.78 44.204 0.11 7.08 8.41 11.65
3/27/2021 9:45:00 AM 6.78 44.204 0.11 7.12 8.71 11.69
3/27/2021 10:00:00 AM 6.79 44.222 0.11 7.13 8.46 11.73
3/27/2021 10:15:00 AM 6.81 44.258 0.11 7.14 8.28 11.78
3/27/2021 10:30:00 AM 6.84 44.312 0.11 7.15 8.12 11.83
3/27/2021 10:45:00 AM 6.86 44.348 0.11 7.13 8.31 11.87
3/27/2021 11:00:00 AM 6.89 44.402 0.11 7.17 7.86 11.9
3/27/2021 11:15:00 AM 6.91 44.438 0.11 7.16 8.13 11.93
3/27/2021 11:30:00 AM 6.96 44.528 0.11 7.19 8.28 11.96
3/27/2021 11:45:00 AM 7.01 44.618 0.11 7.17 7.7 11.99
3/27/2021 12:00:00 PM 7.08 44.744 0.11 7.21 7.8 12.01
3/27/2021 12:15:00 PM 7.24 45.032 0.11 7.21 7.63 12.05
3/27/2021 12:30:00 PM 7.43 45.374 0.11 7.22 7.56 12.07
3/27/2021 12:45:00 PM 7.61 45.698 0.11 7.23 7.71 12.08
3/27/2021 1:00:00 PM 7.77 45.986 0.11 7.2 7.84 12.08
3/27/2021 1:15:00 PM 8 46.4 0.11 7.24 7.86 12.09
3/27/2021 1:30:00 PM 8.19 46.742 0.11 7.25 7.96 12.08
3/27/2021 1:45:00 PM 8.35 47.03 0.11 7.25 7.64 12.08
3/27/2021 2:00:00 PM 8.44 47.192 0.11 7.26 7.74 12.08
3/27/2021 2:15:00 PM 8.5 47.3 0.11 7.27 7.72 12.07
3/27/2021 2:30:00 PM 8.56 47.408 0.11 7.27 7.51 12.05
3/27/2021 2:45:00 PM 8.65 47.57 0.11 7.28 7.6 12.03
3/27/2021 3:00:00 PM 8.67 47.606 0.11 7.27 7.69 12.01
3/27/2021 3:15:00 PM 8.78 47.804 0.11 7.3 7.68 12
3/27/2021 3:30:00 PM 8.87 47.966 0.11 7.29 7.67 11.98
3/27/2021 3:45:00 PM 8.97 48.146 0.11 7.31 7.69 11.95
3/27/2021 4:00:00 PM 9.07 48.326 0.111 7.31 7.86 11.93
3/27/2021 4:15:00 PM 9.17 48.506 0.11 7.3 7.68 11.88
3/27/2021 4:30:00 PM 9.26 48.668 0.111 7.32 7.62 11.84
3/27/2021 4:45:00 PM 9.37 48.866 0.111 7.32 7.8 11.8
3/27/2021 5:00:00 PM 9.46 49.028 0.11 7.32 7.83 11.76
3/27/2021 5:15:00 PM 9.54 49.172 0.111 7.32 8.11 11.72
3/27/2021 5:30:00 PM 9.6 49.28 0.111 7.26 7.99 11.68
3/27/2021 5:45:00 PM 9.66 49.388 0.111 7.32 7.58 11.63
3/27/2021 6:00:00 PM 9.72 49.496 0.111 7.32 7.81 11.58
3/27/2021 6:15:00 PM 9.76 49.568 0.111 7.3 7.8 11.52
3/27/2021 6:30:00 PM 9.78 49.604 0.111 7.3 8.08 11.46
3/27/2021 6:45:00 PM 9.78 49.604 0.111 7.28 7.97 11.39
3/27/2021 7:00:00 PM 9.76 49.568 0.111 7.27 7.84 11.33
3/27/2021 7:15:00 PM 9.73 49.514 0.111 7.24 7.87 11.28
3/27/2021 7:30:00 PM 9.68 49.424 0.111 7.23 7.99 11.23
3/27/2021 7:45:00 PM 9.61 49.298 0.111 7.21 7.8 11.18
3/27/2021 8:00:00 PM 9.54 49.172 0.112 7.2 8.08 11.13
3/27/2021 8:15:00 PM 9.47 49.046 0.112 7.19 7.78 11.1
3/27/2021 8:30:00 PM 9.39 48.902 0.112 7.16 8.13 11.06
3/27/2021 8:45:00 PM 9.31 48.758 0.112 7.15 7.89 11.03
3/27/2021 9:00:00 PM 9.22 48.596 0.112 7.13 7.7 11.01
3/27/2021 9:15:00 PM 9.15 48.47 0.112 7.13 8.15 10.98
3/27/2021 9:30:00 PM 9.07 48.326 0.112 7.13 8.07 10.96
3/27/2021 9:45:00 PM 8.99 48.182 0.112 7.12 8.33 10.94
3/27/2021 10:00:00 PM 8.92 48.056 0.112 7.06 9.54 10.92
3/27/2021 10:15:00 PM 8.85 47.93 0.112 7.1 8.18 10.91
3/27/2021 10:30:00 PM 8.78 47.804 0.113 7.1 8.53 10.9
3/27/2021 10:45:00 PM 8.71 47.678 0.113 7.09 8.07 10.89
3/27/2021 11:00:00 PM 8.63 47.534 0.113 7.09 8.88 10.9
3/27/2021 11:15:00 PM 8.57 47.426 0.113 7.07 8.53 10.89
3/27/2021 11:30:00 PM 8.5 47.3 0.113 7.07 8.87 10.89
3/27/2021 11:45:00 PM 8.42 47.156 0.113 7.06 9.59 10.9
3/28/2021 12:00:00 AM 8.34 47.012 0.113 7.04 9.15 10.91
3/28/2021 12:15:00 AM 8.27 46.886 0.114 7.07 10.59 10.91
3/28/2021 12:30:00 AM 8.19 46.742 0.114 7.07 10.09 10.92
3/28/2021 12:45:00 AM 8.12 46.616 0.114 7.03 11.09 10.93
3/28/2021 1:00:00 AM 8.04 46.472 0.114 7.07 9.87 10.94
3/28/2021 1:15:00 AM 7.97 46.346 0.114 7.07 10.08 10.95
3/28/2021 1:30:00 AM 7.9 46.22 0.114 7.06 9.79 10.96
3/28/2021 1:45:00 AM 7.83 46.094 0.115 7.07 8.58 10.98
3/28/2021 2:00:00 AM 7.76 45.968 0.115 7.07 8.69 10.99
3/28/2021 2:15:00 AM 7.69 45.842 0.115 7.08 9.08 11
3/28/2021 2:30:00 AM 7.62 45.716 0.115 7.07 9.11 11.02
3/28/2021 2:45:00 AM 7.55 45.59 0.115 7.06 9.53 11.03
3/28/2021 3:00:00 AM 7.48 45.464 0.115 7.06 9.28 11.05
3/28/2021 3:15:00 AM 7.41 45.338 0.115 7.04 8.83 11.07
3/28/2021 3:30:00 AM 7.34 45.212 0.115 7.04 9.38 11.07
3/28/2021 3:45:00 AM 7.27 45.086 0.115 7.01 9.2 11.09
3/28/2021 4:00:00 AM 7.2 44.96 0.116 7.03 8.52 11.11
3/28/2021 4:15:00 AM 7.12 44.816 0.116 7.04 8.18 11.13
3/28/2021 4:30:00 AM 7.05 44.69 0.116 7.04 8.33 11.14
3/28/2021 4:45:00 AM 6.98 44.564 0.116 7.05 8.8 11.16
3/28/2021 5:00:00 AM 6.92 44.456 0.116 7.04 8.44 11.18
3/28/2021 5:15:00 AM 6.86 44.348 0.116 7.05 8.33 11.19
3/28/2021 5:30:00 AM 6.8 44.24 0.116 7.05 8.81 11.21
3/28/2021 5:45:00 AM 6.73 44.114 0.117 7.05 8.5 11.23
3/28/2021 6:00:00 AM 6.68 44.024 0.117 7.05 8.87 11.25
3/28/2021 6:15:00 AM 6.63 43.934 0.117 7.05 9.23 11.27
3/28/2021 6:30:00 AM 6.58 43.844 0.117 7.06 8.57 11.28
3/28/2021 6:45:00 AM 6.54 43.772 0.117 7.05 8.51 11.3
3/28/2021 7:00:00 AM 6.51 43.718 0.117 7.03 8.59 11.31
3/28/2021 7:15:00 AM 6.48 43.664 0.117 7.06 8.81 11.33
3/28/2021 7:30:00 AM 6.45 43.61 0.117 7.07 9.46 11.34
3/28/2021 7:45:00 AM 6.45 43.61 0.117 7.05 8.49 11.37
3/28/2021 8:00:00 AM 6.44 43.592 0.118 7.07 9.36 11.38
3/28/2021 8:15:00 AM 6.43 43.574 0.118 7.08 7.95 11.4
3/28/2021 8:30:00 AM 6.42 43.556 0.118 7.09 8.16 11.41
3/28/2021 8:45:00 AM 6.42 43.556 0.118 7.08 8.78 11.43
3/28/2021 9:00:00 AM 6.42 43.556 0.118 7.08 8.95 11.44
3/28/2021 9:15:00 AM 6.42 43.556 0.118 7.1 8.91 11.46
3/28/2021 9:30:00 AM 6.44 43.592 0.118 7.1 8.64 11.49
3/28/2021 9:45:00 AM 6.46 43.628 0.118 7.11 8.23 11.52
3/28/2021 10:00:00 AM 6.48 43.664 0.119 7.11 8.09 11.55
3/28/2021 10:15:00 AM 6.51 43.718 0.119 7.12 8.88 11.57
3/28/2021 10:30:00 AM 6.54 43.772 0.118 7.14 8.36 11.59
3/28/2021 10:45:00 AM 6.57 43.826 0.118 7.15 7.59 11.6
3/28/2021 11:00:00 AM 6.61 43.898 0.119 7.16 7.82 11.63
3/28/2021 11:15:00 AM 6.64 43.952 0.118 7.16 7.67 11.64
3/28/2021 11:30:00 AM 6.67 44.006 0.118 7.17 8.66 11.65
3/28/2021 11:45:00 AM 6.71 44.078 0.118 7.18 9.68 11.66
3/28/2021 12:00:00 PM 6.74 44.132 0.119 7.17 8.01 11.66
3/28/2021 12:15:00 PM 6.77 44.186 0.119 7.18 9.2 11.65
3/28/2021 12:30:00 PM 6.81 44.258 0.119 7.18 8.29 11.65
3/28/2021 12:45:00 PM 6.84 44.312 0.119 7.18 7.85 11.67
3/28/2021 1:00:00 PM 6.87 44.366 0.119 7.19 9.66 11.66
3/28/2021 1:15:00 PM 6.92 44.456 0.119 7.19 8.09 11.67
3/28/2021 1:30:00 PM 6.98 44.564 0.119 7.19 8.96 11.69
3/28/2021 1:45:00 PM 7.05 44.69 0.119 7.2 9.95 11.72
3/28/2021 2:00:00 PM 7.13 44.834 0.119 7.21 8.64 11.73
3/28/2021 2:15:00 PM 7.21 44.978 0.119 7.2 8.16 11.74
3/28/2021 2:30:00 PM 7.27 45.086 0.119 7.22 8.2 11.74
3/28/2021 2:45:00 PM 7.35 45.23 0.119 7.22 8.38 11.74
3/28/2021 3:00:00 PM 7.4 45.32 0.119 7.22 8.42 11.73
3/28/2021 3:15:00 PM 7.47 45.446 0.119 7.23 9.72 11.73
3/28/2021 3:30:00 PM 7.51 45.518 0.119 7.22 9.8 11.71
3/28/2021 3:45:00 PM 7.56 45.608 0.119 7.22 8.3 11.68
3/28/2021 4:00:00 PM 7.61 45.698 0.119 7.22 9.67 11.67
3/28/2021 4:15:00 PM 7.68 45.824 0.119 7.24 9.89 11.65
3/28/2021 4:30:00 PM 7.76 45.968 0.118 7.24 10.52 11.62
3/28/2021 4:45:00 PM 7.8 46.04 0.119 7.24 10.42 11.59
3/28/2021 5:00:00 PM 7.84 46.112 0.119 7.24 9.32 11.56
3/28/2021 5:15:00 PM 7.87 46.166 0.119 7.22 9.05 11.53
3/28/2021 5:30:00 PM 7.89 46.202 0.118 7.23 8.73 11.48
3/28/2021 5:45:00 PM 7.92 46.256 0.118 7.22 9.44 11.44
3/28/2021 6:00:00 PM 7.94 46.292 0.118 7.21 10.16 11.41
3/28/2021 6:15:00 PM 7.97 46.346 0.118 7.21 9.11 11.38
3/28/2021 6:30:00 PM 7.98 46.364 0.118 7.21 9.72 11.35
3/28/2021 6:45:00 PM 7.99 46.382 0.119 7.21 9.77 11.32
3/28/2021 7:00:00 PM 7.99 46.382 0.119 7.19 9.64 11.31
3/28/2021 7:15:00 PM 7.99 46.382 0.119 7.2 9.08 11.29
3/28/2021 7:30:00 PM 7.98 46.364 0.119 7.2 9.51 11.26
3/28/2021 7:45:00 PM 7.96 46.328 0.119 7.2 10.99 11.22
3/28/2021 8:00:00 PM 7.94 46.292 0.119 7.15 9.41 11.19
3/28/2021 8:15:00 PM 7.91 46.238 0.119 7.16 9.76 11.16
3/28/2021 8:30:00 PM 7.87 46.166 0.119 7.14 9.56 11.14
3/28/2021 8:45:00 PM 7.83 46.094 0.12 7.15 9.62 11.12
3/28/2021 9:00:00 PM 7.8 46.04 0.12 7.11 9.4 11.11
3/28/2021 9:15:00 PM 7.77 45.986 0.12 7.13 10.05 11.1
3/28/2021 9:30:00 PM 7.72 45.896 0.12 7.13 10.37 11.09
3/28/2021 9:45:00 PM 7.68 45.824 0.12 7.14 11 11.09
3/28/2021 10:00:00 PM 7.65 45.77 0.12 7.13 11.62 11.07
3/28/2021 10:15:00 PM 7.6 45.68 0.12 7.12 10.97 11.07
3/28/2021 10:30:00 PM 7.55 45.59 0.12 7.11 11.63 11.07
3/28/2021 10:45:00 PM 7.5 45.5 0.121 7.11 10.95 11.08
3/28/2021 11:00:00 PM 7.45 45.41 0.121 7.1 10.92 11.08
3/28/2021 11:15:00 PM 7.39 45.302 0.121 7.09 10.16 11.09
3/28/2021 11:30:00 PM 7.34 45.212 0.122 7.09 10.45 11.1
3/28/2021 11:45:00 PM 7.28 45.104 0.122 7.09 11.72 11.11
3/29/2021 12:00:00 AM 7.21 44.978 0.122 7.09 11.8 11.13
3/29/2021 12:15:00 AM 7.15 44.87 0.123 7.1 12.88 11.13
3/29/2021 12:30:00 AM 7.09 44.762 0.123 7.09 11.54 11.14
3/29/2021 12:45:00 AM 7.03 44.654 0.124 7.09 12.78 11.16
3/29/2021 1:00:00 AM 6.97 44.546 0.124 7.1 11.43 11.17
3/29/2021 1:15:00 AM 6.9 44.42 0.125 7.09 11.48 11.19
3/29/2021 1:30:00 AM 6.84 44.312 0.125 7.05 12.68 11.2
3/29/2021 1:45:00 AM 6.78 44.204 0.125 7.08 12.22 11.22
3/29/2021 2:00:00 AM 6.71 44.078 0.125 7.08 12.48 11.23
3/29/2021 2:15:00 AM 6.64 43.952 0.125 7.07 12.03 11.25
3/29/2021 2:30:00 AM 6.58 43.844 0.125 7.08 11.75 11.26
3/29/2021 2:45:00 AM 6.51 43.718 0.125 7.08 11.57 11.29
3/29/2021 3:00:00 AM 6.44 43.592 0.125 7.07 13.15 11.31
3/29/2021 3:15:00 AM 6.37 43.466 0.125 7.07 12.38 11.33
3/29/2021 3:30:00 AM 6.3 43.34 0.124 7.05 13.56 11.35
3/29/2021 3:45:00 AM 6.24 43.232 0.124 7.06 12.53 11.37
3/29/2021 4:00:00 AM 6.18 43.124 0.124 7.07 17.05 11.39
3/29/2021 4:15:00 AM 6.12 43.016 0.124 7.08 14.11 11.41
3/29/2021 4:30:00 AM 6.05 42.89 0.124 7.07 13.83 11.43
3/29/2021 4:45:00 AM 6 42.8 0.125 7.07 16.17 11.45
3/29/2021 5:00:00 AM 5.93 42.674 0.124 7.07 15.42 11.47
3/29/2021 5:15:00 AM 5.88 42.584 0.125 7.07 12.18 11.49
3/29/2021 5:30:00 AM 5.82 42.476 0.125 7.08 14.65 11.51
3/29/2021 5:45:00 AM 5.76 42.368 0.125 7.07 13.78 11.54
3/29/2021 6:00:00 AM 5.7 42.26 0.125 7.07 13.36 11.56
3/29/2021 6:15:00 AM 5.64 42.152 0.125 7.08 15.71 11.58
3/29/2021 6:30:00 AM 5.57 42.026 0.125 7.07 12.48 11.6
3/29/2021 6:45:00 AM 5.5 41.9 0.125 7.08 12.91 11.63
3/29/2021 7:00:00 AM 5.43 41.774 0.125 7.08 12.46 11.65
3/29/2021 7:15:00 AM 5.36 41.648 0.125 7.06 13.16 11.67
3/29/2021 7:30:00 AM 5.3 41.54 0.125 7.07 14.08 11.7
3/29/2021 7:45:00 AM 5.25 41.45 0.125 7.08 12.47 11.73
3/29/2021 8:00:00 AM 5.21 41.378 0.125 7.09 13.59 11.77
3/29/2021 8:15:00 AM 5.17 41.306 0.125 7.08 13.18 11.8
3/29/2021 8:30:00 AM 5.13 41.234 0.125 7.08 13.86 11.84
3/29/2021 8:45:00 AM 5.07 41.126 0.125 7.08 13.63 11.87
3/29/2021 9:00:00 AM 5.04 41.072 0.126 7.09 15.32 11.92
3/29/2021 9:15:00 AM 5.02 41.036 0.125 7.1 14.72 11.97
3/29/2021 9:30:00 AM 5.02 41.036 0.125 7.11 15.24 12.03
3/29/2021 9:45:00 AM 5.02 41.036 0.125 7.12 14.89 12.1
3/29/2021 10:00:00 AM 5 41 0.125 7.13 15.21 12.13
3/29/2021 10:15:00 AM 4.98 40.964 0.125 7.12 13.41 12.17
3/29/2021 10:30:00 AM 4.99 40.982 0.125 7.14 14.81 12.24
3/29/2021 10:45:00 AM 5.04 41.072 0.125 7.16 14.24 12.29
3/29/2021 11:00:00 AM 5.06 41.108 0.125 7.15 15.79 12.35
3/29/2021 11:15:00 AM 5.07 41.126 0.125 7.16 14.52 12.4
3/29/2021 11:30:00 AM 5.15 41.27 0.124 7.19 13.75 12.43
3/29/2021 11:45:00 AM 5.29 41.522 0.124 7.2 14.52 12.47
3/29/2021 12:00:00 PM 5.44 41.792 0.124 7.2 14.36 12.51
3/29/2021 12:15:00 PM 5.49 41.882 0.123 7.22 12.02 12.54
3/29/2021 12:30:00 PM 5.58 42.044 0.123 7.22 10.21 12.56
3/29/2021 12:45:00 PM 5.78 42.404 0.123 7.23 10.57 12.58
3/29/2021 1:00:00 PM 5.91 42.638 0.122 7.24 7.82 12.59
3/29/2021 1:15:00 PM 6.03 42.854 0.122 7.24 11.13 12.6
3/29/2021 1:30:00 PM 6.18 43.124 0.122 7.26 14.64 12.6
3/29/2021 1:45:00 PM 6.35 43.43 0.122 7.27 15.36 12.6
3/29/2021 2:00:00 PM 6.54 43.772 0.122 7.28 15.43 12.6
3/29/2021 2:15:00 PM 6.75 44.15 0.122 7.29 14.6 12.58
3/29/2021 2:30:00 PM 6.95 44.51 0.121 7.3 15.6 12.55
3/29/2021 2:45:00 PM 7.17 44.906 0.121 7.3 15.42 12.51
3/29/2021 3:00:00 PM 7.37 45.266 0.121 7.31 13.94 12.47
3/29/2021 3:15:00 PM 7.58 45.644 0.121 7.32 16.92 12.44
3/29/2021 3:30:00 PM 7.79 46.022 0.121 7.3 12.78 12.39
3/29/2021 3:45:00 PM 7.97 46.346 0.121 7.32 15.69 12.35
3/29/2021 4:00:00 PM 8.14 46.652 0.121 7.33 14.53 12.3
3/29/2021 4:15:00 PM 8.28 46.904 0.121 7.32 12.87 12.26
3/29/2021 4:30:00 PM 8.38 47.084 0.121 7.33 15.61 12.21
3/29/2021 4:45:00 PM 8.47 47.246 0.12 7.32 14.7 12.17
3/29/2021 5:00:00 PM 8.53 47.354 0.12 7.32 15.13 12.13
3/29/2021 5:15:00 PM 8.56 47.408 0.12 7.32 16.46 12.08
3/29/2021 5:30:00 PM 8.57 47.426 0.12 7.29 17.71 12.04
3/29/2021 5:45:00 PM 8.57 47.426 0.12 7.29 11.64 11.99
3/29/2021 6:00:00 PM 8.55 47.39 0.12 7.27 14.36 11.95
3/29/2021 6:15:00 PM 8.53 47.354 0.12 7.23 16.02 11.9
3/29/2021 6:30:00 PM 8.49 47.282 0.12 7.29 13.1 11.85
3/29/2021 6:45:00 PM 8.44 47.192 0.12 7.27 16.46 11.81
3/29/2021 7:00:00 PM 8.37 47.066 0.12 7.24 14.66 11.76
3/29/2021 7:15:00 PM 8.29 46.922 0.12 7.21 14.89 11.71
3/29/2021 7:30:00 PM 8.21 46.778 0.12 7.21 14.11 11.66
3/29/2021 7:45:00 PM 8.12 46.616 0.12 7.23 11.88 11.61
3/29/2021 8:00:00 PM 8.03 46.454 0.12 7.21 12.14 11.57
3/29/2021 8:15:00 PM 7.94 46.292 0.12 7.17 12.54 11.55
3/29/2021 8:30:00 PM 7.84 46.112 0.12 7.17 13.9 11.52
3/29/2021 8:45:00 PM 7.74 45.932 0.12 7.16 17.08 11.5
3/29/2021 9:00:00 PM 7.64 45.752 0.12 7.15 14.43 11.47
3/29/2021 9:15:00 PM 7.53 45.554 0.12 7.16 10.38 11.47
3/29/2021 9:30:00 PM 7.44 45.392 0.12 7.15 13.3 11.46
3/29/2021 9:45:00 PM 7.33 45.194 0.12 7.09 13.13 11.45
3/29/2021 10:00:00 PM 7.22 44.996 0.12 7.12 12.88 11.45
3/29/2021 10:15:00 PM 7.12 44.816 0.12 7.11 10.14 11.45
3/29/2021 10:30:00 PM 7.01 44.618 0.12 7.09 13.61 11.45
3/29/2021 10:45:00 PM 6.9 44.42 0.12 7.09 13.9 11.46
3/29/2021 11:00:00 PM 6.8 44.24 0.12 7.08 14.15 11.47
3/29/2021 11:15:00 PM 6.7 44.06 0.12 7.08 11.56 11.47
3/29/2021 11:30:00 PM 6.61 43.898 0.12 7.08 12.49 11.48
3/29/2021 11:45:00 PM 6.52 43.736 0.121 7.08 14.62 11.5
3/30/2021 12:00:00 AM 6.44 43.592 0.121 7.08 20.6 11.5
3/30/2021 12:15:00 AM 6.36 43.448 0.121 7.06 9.32 11.52
3/30/2021 12:30:00 AM 6.29 43.322 0.121 7.07 12.25 11.53
3/30/2021 12:45:00 AM 6.21 43.178 0.121 7.07 17.73 11.54
3/30/2021 1:00:00 AM 6.14 43.052 0.121 7.07 11.52 11.56
3/30/2021 1:15:00 AM 6.06 42.908 0.121 7.05 6.88 11.57
3/30/2021 1:30:00 AM 5.99 42.782 0.121 7.06 16.72 11.59
3/30/2021 1:45:00 AM 5.91 42.638 0.121 7.07 151.31 11.61
3/30/2021 2:00:00 AM 5.83 42.494 0.122 7.06 11.53 11.63
3/30/2021 2:15:00 AM 5.75 42.35 0.122 7.06 12.27 11.65
3/30/2021 2:30:00 AM 5.67 42.206 0.122 7.06 10.49 11.68
3/30/2021 2:45:00 AM 5.59 42.062 0.122 7.07 8.68 11.71
3/30/2021 3:00:00 AM 5.51 41.918 0.122 7.03 16.26 11.73
3/30/2021 3:15:00 AM 5.42 41.756 0.122 7.07 13.86 11.76
3/30/2021 3:30:00 AM 5.34 41.612 0.122 7.07 9.88 11.78
3/30/2021 3:45:00 AM 5.25 41.45 0.122 7.07 14.77 11.81
3/30/2021 4:00:00 AM 5.17 41.306 0.122 7.06 13.72 11.83
3/30/2021 4:15:00 AM 5.08 41.144 0.122 7.06 12.5 11.86
3/30/2021 4:30:00 AM 5 41 0.123 7.06 36.19 11.89
3/30/2021 4:45:00 AM 4.91 40.838 0.122 7.04 12.32 11.91
3/30/2021 5:00:00 AM 4.82 40.676 0.123 7.05 9.04 11.95
3/30/2021 5:15:00 AM 4.74 40.532 0.123 7.02 10.9 11.96
3/30/2021 5:30:00 AM 4.65 40.37 0.123 7.04 9.46 12
3/30/2021 5:45:00 AM 4.56 40.208 0.123 7.05 9.08 12.03
3/30/2021 6:00:00 AM 4.48 40.064 0.123 7.06 9.34 12.06
3/30/2021 6:15:00 AM 4.39 39.902 0.123 7.07 9.14 12.09
3/30/2021 6:30:00 AM 4.31 39.758 0.123 7.07 9.55 12.12
3/30/2021 6:45:00 AM 4.22 39.596 0.123 7.03 10.07 12.15
3/30/2021 7:00:00 AM 4.14 39.452 0.123 7.07 8.96 12.18
3/30/2021 7:15:00 AM 4.07 39.326 0.124 7.06 9.2 12.22
3/30/2021 7:30:00 AM 3.99 39.182 0.124 7.07 8.76 12.27
3/30/2021 7:45:00 AM 3.92 39.056 0.124 7.05 10.44 12.32
3/30/2021 8:00:00 AM 3.87 38.966 0.124 7.08 8.77 12.37
3/30/2021 8:15:00 AM 3.82 38.876 0.124 7.1 9.13 12.43
3/30/2021 8:30:00 AM 3.79 38.822 0.124 7.1 11.15 12.49
3/30/2021 8:45:00 AM 3.77 38.786 0.124 7.11 8.61 12.54
3/30/2021 9:00:00 AM 3.77 38.786 0.124 7.13 8.48 12.6
3/30/2021 9:15:00 AM 3.79 38.822 0.124 7.14 8.84 12.65
3/30/2021 9:30:00 AM 3.82 38.876 0.124 7.15 9.22 12.7
3/30/2021 9:45:00 AM 3.87 38.966 0.124 7.16 8.11 12.75
3/30/2021 10:00:00 AM 3.95 39.11 0.124 7.17 9.47 12.79
3/30/2021 10:15:00 AM 4.04 39.272 0.124 7.18 9.09 12.82
3/30/2021 10:30:00 AM 4.16 39.488 0.124 7.19 8.06 12.86
3/30/2021 10:45:00 AM 4.28 39.704 0.124 7.2 9.05 12.9
3/30/2021 11:00:00 AM 4.42 39.956 0.124 7.2 8.09 12.92
3/30/2021 11:15:00 AM 4.58 40.244 0.124 7.22 8.49 12.94
3/30/2021 11:30:00 AM 4.76 40.568 0.124 7.22 8.32 12.95
3/30/2021 11:45:00 AM 4.96 40.928 0.124 7.24 8 12.95
3/30/2021 12:00:00 PM 5.19 41.342 0.124 7.23 8.63 12.95
3/30/2021 12:15:00 PM 5.42 41.756 0.124 7.26 8.31 12.95
3/30/2021 12:30:00 PM 5.67 42.206 0.124 7.27 8.54 12.92
3/30/2021 12:45:00 PM 5.95 42.71 0.124 7.28 8.4 12.9
3/30/2021 1:00:00 PM 6.24 43.232 0.124 7.29 8.04 12.86
3/30/2021 1:15:00 PM 6.53 43.754 0.124 7.3 8.34 12.82
3/30/2021 1:30:00 PM 6.83 44.294 0.124 7.31 8.76 12.78
3/30/2021 1:45:00 PM 7.13 44.834 0.124 7.31 8.1 12.73
3/30/2021 2:00:00 PM 7.43 45.374 0.123 7.33 8.38 12.68
3/30/2021 2:15:00 PM 7.73 45.914 0.124 7.33 9.38 12.61
3/30/2021 2:30:00 PM 8.03 46.454 0.124 7.32 8.75 12.55
3/30/2021 2:45:00 PM 8.3 46.94 0.123 7.34 9.14 12.49
3/30/2021 3:00:00 PM 8.57 47.426 0.123 7.36 8.13 12.43
3/30/2021 3:15:00 PM 8.84 47.912 0.123 7.35 8.31 12.35
3/30/2021 3:30:00 PM 9.07 48.326 0.123 7.36 8.38 12.29
3/30/2021 3:45:00 PM 9.29 48.722 0.122 7.37 8.32 12.22
3/30/2021 4:00:00 PM 9.48 49.064 0.122 7.37 8.2 12.16
3/30/2021 4:15:00 PM 9.65 49.37 0.122 7.38 7.99 12.09
3/30/2021 4:30:00 PM 9.8 49.64 0.122 7.37 8.28 12.03
3/30/2021 4:45:00 PM 9.93 49.874 0.123 7.38 8.73 11.96
3/30/2021 5:00:00 PM 10.04 50.072 0.122 7.38 8.27 11.9
3/30/2021 5:15:00 PM 10.11 50.198 0.123 7.38 8.51 11.84
3/30/2021 5:30:00 PM 10.14 50.252 0.123 7.38 8.19 11.77
3/30/2021 5:45:00 PM 10.17 50.306 0.124 7.37 8.11 11.72
3/30/2021 6:00:00 PM 10.2 50.36 0.125 7.37 8.28 11.67
3/30/2021 6:15:00 PM 10.2 50.36 0.125 7.36 8.34 11.59
3/30/2021 6:30:00 PM 10.18 50.324 0.125 7.34 10.05 11.52
3/30/2021 6:45:00 PM 10.16 50.288 0.125 7.33 8.21 11.45
3/30/2021 7:00:00 PM 10.12 50.216 0.125 7.33 8.55 11.37
3/30/2021 7:15:00 PM 10.07 50.126 0.125 7.31 9.01 11.3
3/30/2021 7:30:00 PM 10.01 50.018 0.125 7.26 8.64 11.22
3/30/2021 7:45:00 PM 9.96 49.928 0.124 7.28 8.57 11.15
3/30/2021 8:00:00 PM 9.9 49.82 0.124 7.22 9.88 11.09
3/30/2021 8:15:00 PM 9.84 49.712 0.124 7.26 10.81 11.04
3/30/2021 8:30:00 PM 9.78 49.604 0.125 7.24 10.02 11
3/30/2021 8:45:00 PM 9.71 49.478 0.124 7.22 10.14 10.95
3/30/2021 9:00:00 PM 9.64 49.352 0.125 7.22 10 10.92
3/30/2021 9:15:00 PM 9.57 49.226 0.125 7.2 10.13 10.89
3/30/2021 9:30:00 PM 9.5 49.1 0.125 7.19 10.06 10.86
3/30/2021 9:45:00 PM 9.43 48.974 0.125 7.16 11.94 10.84
3/30/2021 10:00:00 PM 9.36 48.848 0.125 7.16 13.5 10.83
3/30/2021 10:15:00 PM 9.28 48.704 0.125 7.17 13.15 10.82
3/30/2021 10:30:00 PM 9.21 48.578 0.125 7.15 11 10.8
3/30/2021 10:45:00 PM 9.14 48.452 0.125 7.14 11.49 10.79
3/30/2021 11:00:00 PM 9.07 48.326 0.125 7.13 11.47 10.79
3/30/2021 11:15:00 PM 9 48.2 0.125 7.12 11.23 10.79
3/30/2021 11:30:00 PM 8.94 48.092 0.125 7.13 12.9 10.78
3/30/2021 11:45:00 PM 8.88 47.984 0.126 7.13 10.86 10.79
3/31/2021 12:00:00 AM 8.82 47.876 0.126 7.13 12 10.78
3/31/2021 12:15:00 AM 8.76 47.768 0.126 7.13 11.89 10.79
3/31/2021 12:30:00 AM 8.71 47.678 0.126 7.12 12.52 10.78
3/31/2021 12:45:00 AM 8.66 47.588 0.126 7.12 12.11 10.79
3/31/2021 1:00:00 AM 8.61 47.498 0.127 7.12 11.46 10.79
3/31/2021 1:15:00 AM 8.57 47.426 0.127 7.12 12.42 10.79
3/31/2021 1:30:00 AM 8.52 47.336 0.127 7.13 13.1 10.8
3/31/2021 1:45:00 AM 8.48 47.264 0.128 7.13 11.39 10.81
3/31/2021 2:00:00 AM 8.44 47.192 0.128 7.13 13.53 10.81
3/31/2021 2:15:00 AM 8.41 47.138 0.128 7.13 11.38 10.82
3/31/2021 2:30:00 AM 8.37 47.066 0.128 7.13 14.3 10.82
3/31/2021 2:45:00 AM 8.33 46.994 0.129 7.12 13.23 10.82
3/31/2021 3:00:00 AM 8.29 46.922 0.129 7.13 13.01 10.83
3/31/2021 3:15:00 AM 8.25 46.85 0.128 7.13 13.59 10.84
3/31/2021 3:30:00 AM 8.22 46.796 0.128 7.12 12.17 10.85
3/31/2021 3:45:00 AM 8.18 46.724 0.129 7.12 12.96 10.86
3/31/2021 4:00:00 AM 8.15 46.67 0.129 7.11 12.42 10.87
3/31/2021 4:15:00 AM 8.11 46.598 0.128 7.13 13.59 10.88
3/31/2021 4:30:00 AM 8.07 46.526 0.128 7.12 12.83 10.89
3/31/2021 4:45:00 AM 8.02 46.436 0.128 7.13 12.65 10.9
3/31/2021 5:00:00 AM 7.99 46.382 0.129 7.12 11.68 10.91
3/31/2021 5:15:00 AM 7.95 46.31 0.129 7.11 12.3 10.92
3/31/2021 5:30:00 AM 7.91 46.238 0.129 7.12 14.7 10.93
3/31/2021 5:45:00 AM 7.87 46.166 0.129 7.12 15.72 10.95
3/31/2021 6:00:00 AM 7.84 46.112 0.129 7.11 13.91 10.96
3/31/2021 6:15:00 AM 7.8 46.04 0.13 7.13 11.52 10.96
3/31/2021 6:30:00 AM 7.76 45.968 0.13 7.13 11.82 10.97
3/31/2021 6:45:00 AM 7.72 45.896 0.13 7.13 11.62 10.99
3/31/2021 7:00:00 AM 7.69 45.842 0.131 7.14 10.75 11
3/31/2021 7:15:00 AM 7.66 45.788 0.131 7.12 12.35 11.02
3/31/2021 7:30:00 AM 7.63 45.734 0.131 7.13 11.65 11.06
3/31/2021 7:45:00 AM 7.61 45.698 0.131 7.15 15.01 11.09
3/31/2021 8:00:00 AM 7.59 45.662 0.132 7.15 10.51 11.14
3/31/2021 8:15:00 AM 7.58 45.644 0.131 7.16 11.56 11.2
3/31/2021 8:30:00 AM 7.57 45.626 0.131 7.17 10.54 11.26
3/31/2021 8:45:00 AM 7.57 45.626 0.131 7.16 11.51 11.32
3/31/2021 9:00:00 AM 7.57 45.626 0.132 7.19 10.78 11.37
3/31/2021 9:15:00 AM 7.57 45.626 0.132 7.19 12.09 11.44
3/31/2021 9:30:00 AM 7.58 45.644 0.132 7.19 12.39 11.49
3/31/2021 9:45:00 AM 7.59 45.662 0.132 7.19 11.62 11.53
3/31/2021 10:00:00 AM 7.6 45.68 0.132 7.18 16.66 11.58
3/31/2021 10:15:00 AM 7.62 45.716 0.132 7.21 10.3 11.64
3/31/2021 10:30:00 AM 7.64 45.752 0.132 7.22 12.56 11.69
3/31/2021 10:45:00 AM 7.66 45.788 0.132 7.23 12.77 11.72
3/31/2021 11:00:00 AM 7.67 45.806 0.132 7.24 12.8 11.75
3/31/2021 11:15:00 AM 7.69 45.842 0.132 7.25 26.19 11.8
3/31/2021 11:30:00 AM 7.72 45.896 0.132 7.26 12.26 11.83
3/31/2021 11:45:00 AM</